Wetterdaten: Mittwoch, 04.10.2017
Datum Zeit Temp. A. Pool Temp. Feuchte A. Luftdruck Regen Wind Richtung Richtung Sonnenschein ET UV Solar Taupunkt Windchill Windben Empfang
04.10.2017 00:00 9,5 C 13,3 C 91 % 1024,6 hPa 0,0 l/m 7,9 km/h (2 Bft) SW 227 0 min 0,000 mm 0,0 UV-I 0 W/m 8,1 C 8,4 C 12,9 km/h (3 Bft) 100,00 %
04.10.2017 00:02 9,4 C 13,3 C 91 % 1024,7 hPa 0,0 l/m 7,1 km/h (2 Bft) SW 215 0 min 0,000 mm 0,0 UV-I 0 W/m 8,0 C 8,9 C 9,7 km/h (2 Bft) 100,00 %
04.10.2017 00:04 9,4 C 13,3 C 91 % 1024,8 hPa 0,0 l/m 6,6 km/h (2 Bft) W-SW 253 0 min 0,000 mm 0,0 UV-I 0 W/m 8,0 C 9,3 C 9,7 km/h (2 Bft) 97,44 %
04.10.2017 00:06 9,4 C 13,3 C 91 % 1024,7 hPa 0,0 l/m 6,1 km/h (2 Bft) W-SW 257 0 min 0,000 mm 0,0 UV-I 0 W/m 8,0 C 9,4 C 11,3 km/h (2 Bft) 100,00 %
04.10.2017 00:08 9,4 C 13,3 C 91 % 1024,7 hPa 0,0 l/m 5,7 km/h (1 Bft) SW 220 0 min 0,000 mm 0,0 UV-I 0 W/m 8,0 C 9,4 C 9,7 km/h (2 Bft) 100,00 %
04.10.2017 00:10 9,4 C 13,3 C 91 % 1024,8 hPa 0,0 l/m 8,5 km/h (2 Bft) W-SW 244 0 min 0,000 mm 0,0 UV-I 0 W/m 8,0 C 7,9 C 11,3 km/h (2 Bft) 100,00 %
04.10.2017 00:12 9,4 C 13,3 C 91 % 1024,8 hPa 0,0 l/m 9,0 km/h (2 Bft) SW 232 0 min 0,000 mm 0,0 UV-I 0 W/m 8,0 C 7,6 C 11,3 km/h (2 Bft) 97,87 %
04.10.2017 00:14 9,4 C 13,3 C 91 % 1024,8 hPa 0,0 l/m 7,0 km/h (2 Bft) SW 232 0 min 0,000 mm 0,0 UV-I 0 W/m 8,0 C 9,0 C 9,7 km/h (2 Bft) 100,00 %
04.10.2017 00:16 9,5 C 13,3 C 91 % 1024,8 hPa 0,0 l/m 7,0 km/h (2 Bft) W 259 0 min 0,000 mm 0,0 UV-I 0 W/m 8,1 C 9,1 C 14,5 km/h (3 Bft) 96,61 %
04.10.2017 00:18 9,5 C 13,3 C 91 % 1024,7 hPa 0,0 l/m 5,8 km/h (2 Bft) SW 231 0 min 0,000 mm 0,0 UV-I 0 W/m 8,1 C 9,5 C 8,0 km/h (2 Bft) 100,00 %
04.10.2017 00:20 9,6 C 13,3 C 91 % 1024,7 hPa 0,0 l/m 6,8 km/h (2 Bft) SW 225 0 min 0,000 mm 0,0 UV-I 0 W/m 8,2 C 9,3 C 9,7 km/h (2 Bft) 100,00 %
04.10.2017 00:22 9,5 C 13,3 C 91 % 1024,8 hPa 0,0 l/m 7,4 km/h (2 Bft) SW 221 0 min 0,000 mm 0,0 UV-I 0 W/m 8,1 C 8,8 C 9,7 km/h (2 Bft) 100,00 %
04.10.2017 00:24 9,5 C 13,3 C 91 % 1024,8 hPa 0,0 l/m 6,9 km/h (2 Bft) SW 219 0 min 0,000 mm 0,0 UV-I 0 W/m 8,1 C 9,1 C 9,7 km/h (2 Bft) 100,00 %
04.10.2017 00:26 9,4 C 13,3 C 91 % 1024,7 hPa 0,0 l/m 7,2 km/h (2 Bft) SW 230 0 min 0,000 mm 0,0 UV-I 0 W/m 8,0 C 8,8 C 12,9 km/h (3 Bft) 98,00 %
04.10.2017 00:28 9,4 C 13,3 C 92 % 1024,8 hPa 0,0 l/m 7,5 km/h (2 Bft) SW 227 0 min 0,000 mm 0,0 UV-I 0 W/m 8,2 C 8,6 C 9,7 km/h (2 Bft) 100,00 %
04.10.2017 00:30 9,4 C 13,3 C 92 % 1024,7 hPa 0,0 l/m 8,3 km/h (2 Bft) W-SW 237 0 min 0,000 mm 0,0 UV-I 0 W/m 8,2 C 8,0 C 12,9 km/h (3 Bft) 100,00 %
04.10.2017 00:32 9,4 C 13,3 C 92 % 1024,7 hPa 0,0 l/m 7,2 km/h (2 Bft) SW 219 0 min 0,000 mm 0,0 UV-I 0 W/m 8,2 C 8,8 C 11,3 km/h (2 Bft) 100,00 %
04.10.2017 00:34 9,4 C 13,3 C 92 % 1024,7 hPa 0,0 l/m 7,2 km/h (2 Bft) W-SW 243 0 min 0,000 mm 0,0 UV-I 0 W/m 8,2 C 8,8 C 11,3 km/h (2 Bft) 97,37 %
04.10.2017 00:36 9,4 C 13,3 C 92 % 1024,7 hPa 0,0 l/m 6,8 km/h (2 Bft) SW 235 0 min 0,000 mm 0,0 UV-I 0 W/m 8,2 C 9,1 C 11,3 km/h (2 Bft) 97,87 %
04.10.2017 00:38 9,4 C 13,3 C 92 % 1024,7 hPa 0,0 l/m 6,7 km/h (2 Bft) S-SW 209 0 min 0,000 mm 0,0 UV-I 0 W/m 8,2 C 9,2 C 9,7 km/h (2 Bft) 96,00 %
04.10.2017 00:40 9,3 C 13,3 C 92 % 1024,7 hPa 0,0 l/m 6,8 km/h (2 Bft) SW 227 0 min 0,000 mm 0,0 UV-I 0 W/m 8,1 C 9,0 C 8,0 km/h (2 Bft) 92,45 %
04.10.2017 00:42 9,3 C 13,3 C 92 % 1024,7 hPa 0,0 l/m 5,8 km/h (2 Bft) SW 219 0 min 0,000 mm 0,0 UV-I 0 W/m 8,1 C 9,3 C 8,0 km/h (2 Bft) 100,00 %
04.10.2017 00:44 9,3 C 13,3 C 92 % 1024,7 hPa 0,0 l/m 6,7 km/h (2 Bft) SW 218 0 min 0,000 mm 0,0 UV-I 0 W/m 8,1 C 9,1 C 11,3 km/h (2 Bft) 96,23 %
04.10.2017 00:46 9,3 C 13,3 C 92 % 1024,7 hPa 0,0 l/m 6,9 km/h (2 Bft) SW 225 0 min 0,000 mm 0,0 UV-I 0 W/m 8,1 C 8,9 C 11,3 km/h (2 Bft) 97,87 %
04.10.2017 00:48 9,3 C 13,3 C 92 % 1024,8 hPa 0,0 l/m 6,8 km/h (2 Bft) S-SW 207 0 min 0,000 mm 0,0 UV-I 0 W/m 8,1 C 9,0 C 9,7 km/h (2 Bft) 97,73 %
04.10.2017 00:50 9,3 C 13,3 C 92 % 1024,8 hPa 0,0 l/m 7,8 km/h (2 Bft) W-SW 237 0 min 0,000 mm 0,0 UV-I 0 W/m 8,1 C 8,3 C 9,7 km/h (2 Bft) 97,37 %
04.10.2017 00:52 9,3 C 13,3 C 92 % 1024,7 hPa 0,0 l/m 8,0 km/h (2 Bft) W-SW 258 0 min 0,000 mm 0,0 UV-I 0 W/m 8,1 C 8,1 C 12,9 km/h (3 Bft) 98,21 %
04.10.2017 00:54 9,3 C 13,3 C 92 % 1024,7 hPa 0,0 l/m 6,8 km/h (2 Bft) SW 234 0 min 0,000 mm 0,0 UV-I 0 W/m 8,1 C 9,0 C 9,7 km/h (2 Bft) 97,56 %
04.10.2017 00:56 9,2 C 13,3 C 92 % 1024,8 hPa 0,0 l/m 8,8 km/h (2 Bft) SW 229 0 min 0,000 mm 0,0 UV-I 0 W/m 8,0 C 7,5 C 12,9 km/h (3 Bft) 97,87 %
04.10.2017 00:58 9,2 C 13,3 C 93 % 1024,7 hPa 0,0 l/m 9,2 km/h (2 Bft) SW 233 0 min 0,000 mm 0,0 UV-I 0 W/m 8,1 C 7,2 C 14,5 km/h (3 Bft) 96,00 %
04.10.2017 01:00 9,2 C 13,3 C 93 % 1024,7 hPa 0,0 l/m 8,4 km/h (2 Bft) W-SW 242 0 min 0,000 mm 0,0 UV-I 0 W/m 8,1 C 7,7 C 12,9 km/h (3 Bft) 96,00 %
04.10.2017 01:02 9,2 C 13,3 C 92 % 1024,7 hPa 0,0 l/m 7,6 km/h (2 Bft) SW 227 0 min 0,000 mm 0,0 UV-I 0 W/m 8,0 C 8,3 C 11,3 km/h (2 Bft) 95,12 %
04.10.2017 01:04 9,1 C 13,3 C 93 % 1024,6 hPa 0,0 l/m 6,7 km/h (2 Bft) SW 225 0 min 0,000 mm 0,0 UV-I 0 W/m 8,0 C 8,9 C 11,3 km/h (2 Bft) 97,73 %
04.10.2017 01:06 9,1 C 13,3 C 93 % 1024,7 hPa 0,0 l/m 8,9 km/h (2 Bft) SW 233 0 min 0,000 mm 0,0 UV-I 0 W/m 8,0 C 7,3 C 12,9 km/h (3 Bft) 98,11 %
04.10.2017 01:08 9,1 C 13,3 C 93 % 1024,8 hPa 0,0 l/m 10,0 km/h (2 Bft) SW 226 0 min 0,000 mm 0,0 UV-I 0 W/m 8,0 C 6,6 C 16,1 km/h (3 Bft) 98,11 %
04.10.2017 01:10 9,1 C 13,3 C 93 % 1024,9 hPa 0,0 l/m 10,4 km/h (2 Bft) SW 215 0 min 0,000 mm 0,0 UV-I 0 W/m 8,0 C 6,4 C 14,5 km/h (3 Bft) 97,87 %
04.10.2017 01:12 9,0 C 13,3 C 93 % 1024,8 hPa 0,0 l/m 11,0 km/h (2 Bft) SW 235 0 min 0,000 mm 0,0 UV-I 0 W/m 7,9 C 5,9 C 14,5 km/h (3 Bft) 100,00 %
04.10.2017 01:14 9,1 C 13,3 C 93 % 1024,8 hPa 0,0 l/m 10,0 km/h (2 Bft) W-SW 241 0 min 0,000 mm 0,0 UV-I 0 W/m 8,0 C 6,6 C 16,1 km/h (3 Bft) 100,00 %
04.10.2017 01:16 9,1 C 13,3 C 93 % 1024,8 hPa 0,0 l/m 10,3 km/h (2 Bft) SW 228 0 min 0,000 mm 0,0 UV-I 0 W/m 8,0 C 6,4 C 14,5 km/h (3 Bft) 100,00 %
04.10.2017 01:18 9,1 C 13,3 C 93 % 1024,8 hPa 0,0 l/m 11,2 km/h (2 Bft) SW 218 0 min 0,000 mm 0,0 UV-I 0 W/m 8,0 C 5,9 C 17,7 km/h (3 Bft) 100,00 %
04.10.2017 01:20 9,1 C 13,3 C 93 % 1024,7 hPa 0,0 l/m 11,0 km/h (2 Bft) SW 223 0 min 0,000 mm 0,0 UV-I 0 W/m 8,0 C 6,0 C 16,1 km/h (3 Bft) 100,00 %
04.10.2017 01:22 9,1 C 13,3 C 93 % 1024,7 hPa 0,0 l/m 9,9 km/h (2 Bft) SW 222 0 min 0,000 mm 0,0 UV-I 0 W/m 8,0 C 6,7 C 14,5 km/h (3 Bft) 100,00 %
04.10.2017 01:24 9,1 C 13,3 C 93 % 1024,7 hPa 0,0 l/m 9,5 km/h (2 Bft) SW 224 0 min 0,000 mm 0,0 UV-I 0 W/m 8,0 C 6,9 C 16,1 km/h (3 Bft) 100,00 %
04.10.2017 01:26 9,1 C 13,3 C 93 % 1024,7 hPa 0,0 l/m 10,5 km/h (2 Bft) SW 221 0 min 0,000 mm 0,0 UV-I 0 W/m 8,0 C 6,3 C 16,1 km/h (3 Bft) 100,00 %
04.10.2017 01:28 9,1 C 13,3 C 93 % 1024,7 hPa 0,0 l/m 10,9 km/h (2 Bft) SW 227 0 min 0,000 mm 0,0 UV-I 0 W/m 8,0 C 6,1 C 17,7 km/h (3 Bft) 100,00 %
04.10.2017 01:30 9,1 C 13,3 C 93 % 1024,7 hPa 0,0 l/m 10,8 km/h (2 Bft) W-SW 237 0 min 0,000 mm 0,0 UV-I 0 W/m 8,0 C 6,1 C 16,1 km/h (3 Bft) 100,00 %
04.10.2017 01:32 9,1 C 13,3 C 93 % 1024,7 hPa 0,0 l/m 12,6 km/h (3 Bft) W-SW 242 0 min 0,000 mm 0,0 UV-I 0 W/m 8,0 C 5,2 C 17,7 km/h (3 Bft) 98,00 %
04.10.2017 01:34 9,1 C 13,3 C 93 % 1024,6 hPa 0,0 l/m 13,2 km/h (3 Bft) SW 234 0 min 0,000 mm 0,0 UV-I 0 W/m 8,0 C 4,9 C 17,7 km/h (3 Bft) 100,00 %
04.10.2017 01:36 9,1 C 13,3 C 93 % 1024,6 hPa 0,0 l/m 11,0 km/h (2 Bft) SW 226 0 min 0,000 mm 0,0 UV-I 0 W/m 8,0 C 6,0 C 16,1 km/h (3 Bft) 100,00 %
04.10.2017 01:38 9,1 C 13,3 C 93 % 1024,6 hPa 0,0 l/m 11,1 km/h (2 Bft) SW 229 0 min 0,000 mm 0,0 UV-I 0 W/m 8,0 C 6,0 C 14,5 km/h (3 Bft) 100,00 %
04.10.2017 01:40 9,1 C 13,3 C 93 % 1024,5 hPa 0,0 l/m 10,0 km/h (2 Bft) SW 228 0 min 0,000 mm 0,0 UV-I 0 W/m 8,0 C 6,6 C 16,1 km/h (3 Bft) 97,87 %
04.10.2017 01:42 9,1 C 13,3 C 92 % 1024,6 hPa 0,0 l/m 10,1 km/h (2 Bft) SW 230 0 min 0,000 mm 0,0 UV-I 0 W/m 7,9 C 6,5 C 14,5 km/h (3 Bft) 100,00 %
04.10.2017 01:44 9,1 C 13,3 C 92 % 1024,6 hPa 0,0 l/m 10,5 km/h (2 Bft) SW 231 0 min 0,000 mm 0,0 UV-I 0 W/m 7,9 C 6,3 C 14,5 km/h (3 Bft) 100,00 %
04.10.2017 01:46 9,1 C 13,3 C 92 % 1024,7 hPa 0,0 l/m 11,6 km/h (2 Bft) W-SW 237 0 min 0,000 mm 0,0 UV-I 0 W/m 7,9 C 5,7 C 16,1 km/h (3 Bft) 100,00 %
04.10.2017 01:48 9,0 C 13,3 C 93 % 1024,7 hPa 0,0 l/m 10,5 km/h (2 Bft) W-SW 257 0 min 0,000 mm 0,0 UV-I 0 W/m 7,9 C 6,2 C 16,1 km/h (3 Bft) 100,00 %
04.10.2017 01:50 9,0 C 13,3 C 93 % 1024,7 hPa 0,0 l/m 10,6 km/h (2 Bft) SW 236 0 min 0,000 mm 0,0 UV-I 0 W/m 7,9 C 6,1 C 14,5 km/h (3 Bft) 100,00 %
04.10.2017 01:52 9,0 C 13,3 C 93 % 1024,7 hPa 0,0 l/m 12,2 km/h (2 Bft) SW 236 0 min 0,000 mm 0,0 UV-I 0 W/m 7,9 C 5,3 C 17,7 km/h (3 Bft) 97,87 %
04.10.2017 01:54 9,0 C 13,3 C 93 % 1024,7 hPa 0,0 l/m 12,7 km/h (3 Bft) SW 221 0 min 0,000 mm 0,0 UV-I 0 W/m 7,9 C 5,0 C 16,1 km/h (3 Bft) 100,00 %
04.10.2017 01:56 9,1 C 13,3 C 93 % 1024,7 hPa 0,0 l/m 11,9 km/h (2 Bft) W-SW 250 0 min 0,000 mm 0,0 UV-I 0 W/m 8,0 C 5,5 C 20,9 km/h (4 Bft) 100,00 %
04.10.2017 01:58 9,1 C 13,3 C 93 % 1024,7 hPa 0,0 l/m 11,7 km/h (2 Bft) W-SW 242 0 min 0,000 mm 0,0 UV-I 0 W/m 8,0 C 5,6 C 16,1 km/h (3 Bft) 100,00 %
04.10.2017 02:00 9,1 C 13,3 C 93 % 1024,8 hPa 0,0 l/m 11,5 km/h (2 Bft) SW 217 0 min 0,000 mm 0,0 UV-I 0 W/m 8,0 C 5,7 C 16,1 km/h (3 Bft) 97,73 %
04.10.2017 02:02 9,1 C 13,3 C 93 % 1024,8 hPa 0,0 l/m 11,3 km/h (2 Bft) W-SW 240 0 min 0,000 mm 0,0 UV-I 0 W/m 8,0 C 5,9 C 16,1 km/h (3 Bft) 100,00 %
04.10.2017 02:04 9,1 C 13,3 C 93 % 1024,8 hPa 0,0 l/m 10,9 km/h (2 Bft) W-SW 245 0 min 0,000 mm 0,0 UV-I 0 W/m 8,0 C 6,1 C 16,1 km/h (3 Bft) 100,00 %
04.10.2017 02:06 9,1 C 13,3 C 93 % 1024,8 hPa 0,0 l/m 10,2 km/h (2 Bft) SW 228 0 min 0,000 mm 0,0 UV-I 0 W/m 8,0 C 6,5 C 16,1 km/h (3 Bft) 98,00 %
04.10.2017 02:08 9,1 C 13,3 C 93 % 1024,8 hPa 0,0 l/m 10,6 km/h (2 Bft) SW 226 0 min 0,000 mm 0,0 UV-I 0 W/m 8,0 C 6,2 C 14,5 km/h (3 Bft) 100,00 %
04.10.2017 02:10 9,1 C 13,3 C 93 % 1024,8 hPa 0,0 l/m 10,8 km/h (2 Bft) SW 229 0 min 0,000 mm 0,0 UV-I 0 W/m 8,0 C 6,1 C 16,1 km/h (3 Bft) 100,00 %
04.10.2017 02:12 9,1 C 13,3 C 93 % 1024,8 hPa 0,0 l/m 9,2 km/h (2 Bft) SW 229 0 min 0,000 mm 0,0 UV-I 0 W/m 8,0 C 7,1 C 12,9 km/h (3 Bft) 100,00 %
04.10.2017 02:14 9,1 C 13,3 C 93 % 1024,7 hPa 0,0 l/m 9,8 km/h (2 Bft) SW 222 0 min 0,000 mm 0,0 UV-I 0 W/m 8,0 C 6,7 C 12,9 km/h (3 Bft) 100,00 %
04.10.2017 02:16 9,1 C 13,3 C 93 % 1024,7 hPa 0,0 l/m 8,9 km/h (2 Bft) SW 227 0 min 0,000 mm 0,0 UV-I 0 W/m 8,0 C 7,3 C 14,5 km/h (3 Bft) 98,11 %
04.10.2017 02:18 9,1 C 13,3 C 93 % 1024,7 hPa 0,0 l/m 9,5 km/h (2 Bft) SW 223 0 min 0,000 mm 0,0 UV-I 0 W/m 8,0 C 6,9 C 14,5 km/h (3 Bft) 95,74 %
04.10.2017 02:20 9,1 C 13,3 C 93 % 1024,8 hPa 0,0 l/m 9,2 km/h (2 Bft) SW 230 0 min 0,000 mm 0,0 UV-I 0 W/m 8,0 C 7,1 C 11,3 km/h (2 Bft) 97,56 %
04.10.2017 02:22 9,1 C 13,3 C 93 % 1024,8 hPa 0,0 l/m 7,8 km/h (2 Bft) SW 214 0 min 0,000 mm 0,0 UV-I 0 W/m 8,0 C 8,1 C 11,3 km/h (2 Bft) 97,87 %
04.10.2017 02:24 9,0 C 13,3 C 93 % 1024,8 hPa 0,0 l/m 6,9 km/h (2 Bft) W-SW 240 0 min 0,000 mm 0,0 UV-I 0 W/m 7,9 C 8,6 C 11,3 km/h (2 Bft) 96,00 %
04.10.2017 02:26 8,9 C 13,3 C 93 % 1024,8 hPa 0,0 l/m 7,8 km/h (2 Bft) W-SW 239 0 min 0,000 mm 0,0 UV-I 0 W/m 7,8 C 7,8 C 11,3 km/h (2 Bft) 97,44 %
04.10.2017 02:28 8,9 C 13,3 C 93 % 1024,8 hPa 0,0 l/m 8,0 km/h (2 Bft) SW 227 0 min 0,000 mm 0,0 UV-I 0 W/m 7,8 C 7,7 C 11,3 km/h (2 Bft) 98,00 %
04.10.2017 02:30 8,9 C 13,3 C 93 % 1024,8 hPa 0,0 l/m 7,0 km/h (2 Bft) SW 232 0 min 0,000 mm 0,0 UV-I 0 W/m 7,8 C 8,4 C 9,7 km/h (2 Bft) 98,00 %
04.10.2017 02:32 8,9 C 13,3 C 93 % 1024,7 hPa 0,0 l/m 7,4 km/h (2 Bft) SW 217 0 min 0,000 mm 0,0 UV-I 0 W/m 7,8 C 8,1 C 11,3 km/h (2 Bft) 97,87 %
04.10.2017 02:34 8,9 C 13,3 C 93 % 1024,7 hPa 0,0 l/m 6,5 km/h (2 Bft) SW 223 0 min 0,000 mm 0,0 UV-I 0 W/m 7,8 C 8,9 C 9,7 km/h (2 Bft) 95,12 %
04.10.2017 02:36 8,8 C 13,3 C 93 % 1024,7 hPa 0,0 l/m 7,1 km/h (2 Bft) SW 225 0 min 0,000 mm 0,0 UV-I 0 W/m 7,7 C 8,3 C 9,7 km/h (2 Bft) 91,07 %
04.10.2017 02:38 8,8 C 13,3 C 93 % 1024,8 hPa 0,0 l/m 7,8 km/h (2 Bft) SW 227 0 min 0,000 mm 0,0 UV-I 0 W/m 7,7 C 7,7 C 11,3 km/h (2 Bft) 100,00 %
04.10.2017 02:40 8,8 C 13,3 C 93 % 1024,7 hPa 0,0 l/m 6,9 km/h (2 Bft) S-SW 201 0 min 0,000 mm 0,0 UV-I 0 W/m 7,7 C 8,4 C 9,7 km/h (2 Bft) 97,01 %
04.10.2017 02:42 8,8 C 13,3 C 93 % 1024,7 hPa 0,0 l/m 7,2 km/h (2 Bft) SW 224 0 min 0,000 mm 0,0 UV-I 0 W/m 7,7 C 8,2 C 9,7 km/h (2 Bft) 97,92 %
04.10.2017 02:44 8,8 C 13,3 C 93 % 1024,7 hPa 0,0 l/m 6,9 km/h (2 Bft) SW 217 0 min 0,000 mm 0,0 UV-I 0 W/m 7,7 C 8,4 C 9,7 km/h (2 Bft) 94,74 %
04.10.2017 02:46 8,8 C 13,3 C 93 % 1024,7 hPa 0,0 l/m 6,7 km/h (2 Bft) SW 228 0 min 0,000 mm 0,0 UV-I 0 W/m 7,7 C 8,6 C 9,7 km/h (2 Bft) 94,64 %
04.10.2017 02:48 8,8 C 13,3 C 93 % 1024,6 hPa 0,0 l/m 6,1 km/h (2 Bft) SW 219 0 min 0,000 mm 0,0 UV-I 0 W/m 7,7 C 8,8 C 11,3 km/h (2 Bft) 96,00 %
04.10.2017 02:50 8,7 C 13,3 C 93 % 1024,6 hPa 0,0 l/m 8,0 km/h (2 Bft) S-SW 212 0 min 0,000 mm 0,0 UV-I 0 W/m 7,6 C 7,5 C 11,3 km/h (2 Bft) 92,11 %
04.10.2017 02:52 8,8 C 13,3 C 93 % 1024,6 hPa 0,0 l/m 9,8 km/h (2 Bft) SW 228 0 min 0,000 mm 0,0 UV-I 0 W/m 7,7 C 6,4 C 12,9 km/h (3 Bft) 96,00 %
04.10.2017 02:54 8,8 C 13,3 C 93 % 1024,6 hPa 0,0 l/m 8,1 km/h (2 Bft) SW 232 0 min 0,000 mm 0,0 UV-I 0 W/m 7,7 C 7,5 C 11,3 km/h (2 Bft) 95,74 %
04.10.2017 02:56 8,8 C 13,3 C 93 % 1024,6 hPa 0,0 l/m 6,4 km/h (2 Bft) S-SW 196 0 min 0,000 mm 0,0 UV-I 0 W/m 7,7 C 8,8 C 9,7 km/h (2 Bft) 94,00 %
04.10.2017 02:58 8,8 C 13,3 C 93 % 1024,6 hPa 0,0 l/m 7,2 km/h (2 Bft) SW 230 0 min 0,000 mm 0,0 UV-I 0 W/m 7,7 C 8,2 C 9,7 km/h (2 Bft) 95,45 %
04.10.2017 03:00 8,8 C 13,3 C 93 % 1024,7 hPa 0,0 l/m 6,8 km/h (2 Bft) W-SW 250 0 min 0,000 mm 0,0 UV-I 0 W/m 7,7 C 8,5 C 9,7 km/h (2 Bft) 95,12 %
04.10.2017 03:02 8,8 C 13,3 C 93 % 1024,7 hPa 0,0 l/m 6,1 km/h (2 Bft) S-SW 209 0 min 0,000 mm 0,0 UV-I 0 W/m 7,7 C 8,8 C 8,0 km/h (2 Bft) 92,00 %
04.10.2017 03:04 8,8 C 13,3 C 93 % 1024,8 hPa 0,0 l/m 5,5 km/h (1 Bft) SW 215 0 min 0,000 mm 0,0 UV-I 0 W/m 7,7 C 8,8 C 8,0 km/h (2 Bft) 95,74 %
04.10.2017 03:06 8,8 C 13,3 C 93 % 1024,8 hPa 0,0 l/m 5,3 km/h (1 Bft) SW 229 0 min 0,000 mm 0,0 UV-I 0 W/m 7,7 C 8,8 C 6,4 km/h (2 Bft) 95,74 %
04.10.2017 03:08 8,7 C 13,3 C 93 % 1024,7 hPa 0,0 l/m 4,0 km/h (1 Bft) SW 226 0 min 0,000 mm 0,0 UV-I 0 W/m 7,6 C 8,7 C 6,4 km/h (2 Bft) 96,00 %
04.10.2017 03:10 8,7 C 13,3 C 93 % 1024,8 hPa 0,0 l/m 4,6 km/h (1 Bft) S-SW 212 0 min 0,000 mm 0,0 UV-I 0 W/m 7,6 C 8,7 C 9,7 km/h (2 Bft) 92,68 %
04.10.2017 03:12 8,6 C 13,3 C 93 % 1024,8 hPa 0,0 l/m 5,0 km/h (1 Bft) SW 220 0 min 0,000 mm 0,0 UV-I 0 W/m 7,5 C 8,6 C 6,4 km/h (2 Bft) 95,74 %
04.10.2017 03:14 8,6 C 13,3 C 93 % 1024,8 hPa 0,0 l/m 5,0 km/h (1 Bft) SW 216 0 min 0,000 mm 0,0 UV-I 0 W/m 7,5 C 8,6 C 8,0 km/h (2 Bft) 96,43 %
04.10.2017 03:16 8,6 C 13,3 C 93 % 1024,7 hPa 0,0 l/m 4,4 km/h (1 Bft) SW 217 0 min 0,000 mm 0,0 UV-I 0 W/m 7,5 C 8,6 C 8,0 km/h (2 Bft) 95,74 %
04.10.2017 03:18 8,6 C 13,3 C 93 % 1024,8 hPa 0,0 l/m 4,1 km/h (1 Bft) SW 227 0 min 0,000 mm 0,0 UV-I 0 W/m 7,5 C 8,6 C 6,4 km/h (2 Bft) 100,00 %
04.10.2017 03:20 8,6 C 13,3 C 93 % 1024,8 hPa 0,0 l/m 5,1 km/h (1 Bft) SW 232 0 min 0,000 mm 0,0 UV-I 0 W/m 7,5 C 8,6 C 6,4 km/h (2 Bft) 94,23 %
04.10.2017 03:22 8,6 C 13,3 C 93 % 1024,8 hPa 0,0 l/m 4,9 km/h (1 Bft) SW 230 0 min 0,000 mm 0,0 UV-I 0 W/m 7,5 C 8,6 C 6,4 km/h (2 Bft) 100,00 %
04.10.2017 03:24 8,6 C 13,3 C 93 % 1024,7 hPa 0,0 l/m 4,7 km/h (1 Bft) S-SW 211 0 min 0,000 mm 0,0 UV-I 0 W/m 7,5 C 8,6 C 6,4 km/h (2 Bft) 100,00 %
04.10.2017 03:26 8,6 C 13,3 C 94 % 1024,8 hPa 0,0 l/m 5,5 km/h (1 Bft) S-SW 205 0 min 0,000 mm 0,0 UV-I 0 W/m 7,7 C 8,6 C 8,0 km/h (2 Bft) 100,00 %
04.10.2017 03:28 8,5 C 13,3 C 94 % 1024,9 hPa 0,0 l/m 5,7 km/h (1 Bft) S-SW 197 0 min 0,000 mm 0,0 UV-I 0 W/m 7,6 C 8,5 C 8,0 km/h (2 Bft) 97,37 %
04.10.2017 03:30 8,5 C 13,3 C 94 % 1024,8 hPa 0,0 l/m 5,4 km/h (1 Bft) SW 225 0 min 0,000 mm 0,0 UV-I 0 W/m 7,6 C 8,5 C 8,0 km/h (2 Bft) 100,00 %
04.10.2017 03:32 8,6 C 13,3 C 94 % 1024,8 hPa 0,0 l/m 5,7 km/h (1 Bft) S-SW 212 0 min 0,000 mm 0,0 UV-I 0 W/m 7,7 C 8,6 C 8,0 km/h (2 Bft) 98,00 %
04.10.2017 03:34 8,6 C 13,3 C 94 % 1024,8 hPa 0,0 l/m 4,2 km/h (1 Bft) S-SW 206 0 min 0,000 mm 0,0 UV-I 0 W/m 7,7 C 8,6 C 8,0 km/h (2 Bft) 100,00 %
04.10.2017 03:36 8,6 C 13,3 C 94 % 1024,8 hPa 0,0 l/m 6,2 km/h (2 Bft) S-SW 208 0 min 0,000 mm 0,0 UV-I 0 W/m 7,7 C 8,6 C 8,0 km/h (2 Bft) 100,00 %
04.10.2017 03:38 8,6 C 13,3 C 94 % 1024,7 hPa 0,0 l/m 3,9 km/h (1 Bft) S 176 0 min 0,000 mm 0,0 UV-I 0 W/m 7,7 C 8,6 C 8,0 km/h (2 Bft) 100,00 %
04.10.2017 03:40 8,6 C 13,3 C 94 % 1024,7 hPa 0,0 l/m 2,8 km/h (1 Bft) S 176 0 min 0,000 mm 0,0 UV-I 0 W/m 7,7 C 8,6 C 4,8 km/h (1 Bft) 95,74 %
04.10.2017 03:42 8,6 C 13,3 C 94 % 1024,7 hPa 0,0 l/m 3,7 km/h (1 Bft) S 169 0 min 0,000 mm 0,0 UV-I 0 W/m 7,7 C 8,6 C 6,4 km/h (2 Bft) 100,00 %
04.10.2017 03:44 8,7 C 13,3 C 94 % 1024,7 hPa 0,0 l/m 4,1 km/h (1 Bft) S 169 0 min 0,000 mm 0,0 UV-I 0 W/m 7,8 C 8,7 C 8,0 km/h (2 Bft) 97,56 %
04.10.2017 03:46 8,7 C 13,3 C 94 % 1024,7 hPa 0,0 l/m 3,8 km/h (1 Bft) S-SW 211 0 min 0,000 mm 0,0 UV-I 0 W/m 7,8 C 8,7 C 6,4 km/h (2 Bft) 100,00 %
04.10.2017 03:48 8,7 C 13,3 C 94 % 1024,7 hPa 0,0 l/m 3,4 km/h (1 Bft) SW 219 0 min 0,000 mm 0,0 UV-I 0 W/m 7,8 C 8,7 C 8,0 km/h (2 Bft) 100,00 %
04.10.2017 03:50 8,8 C 13,3 C 94 % 1024,7 hPa 0,0 l/m 4,5 km/h (1 Bft) S-SW 194 0 min 0,000 mm 0,0 UV-I 0 W/m 7,9 C 8,8 C 8,0 km/h (2 Bft) 100,00 %
04.10.2017 03:52 8,8 C 13,3 C 94 % 1024,7 hPa 0,0 l/m 2,9 km/h (1 Bft) S 169 0 min 0,000 mm 0,0 UV-I 0 W/m 7,9 C 8,8 C 6,4 km/h (2 Bft) 96,00 %
04.10.2017 03:54 8,8 C 13,3 C 94 % 1024,7 hPa 0,0 l/m 3,6 km/h (1 Bft) S 169 0 min 0,000 mm 0,0 UV-I 0 W/m 7,9 C 8,8 C 6,4 km/h (2 Bft) 100,00 %
04.10.2017 03:56 8,8 C 13,3 C 94 % 1024,8 hPa 0,0 l/m 2,0 km/h (1 Bft) S 169 0 min 0,000 mm 0,0 UV-I 0 W/m 7,9 C 8,8 C 3,2 km/h (1 Bft) 100,00 %
04.10.2017 03:58 8,8 C 12,8 C 93 % 1024,9 hPa 0,0 l/m 3,7 km/h (1 Bft) SW 236 0 min 0,000 mm 0,0 UV-I 0 W/m 7,7 C 8,8 C 4,8 km/h (1 Bft) 97,62 %
04.10.2017 04:00 8,8 C 13,3 C 94 % 1024,9 hPa 0,0 l/m 4,4 km/h (1 Bft) SW 236 0 min 0,000 mm 0,0 UV-I 0 W/m 7,9 C 8,8 C 6,4 km/h (2 Bft) 100,00 %
04.10.2017 04:02 8,8 C 13,3 C 94 % 1024,8 hPa 0,0 l/m 4,2 km/h (1 Bft) S 181 0 min 0,000 mm 0,0 UV-I 0 W/m 7,9 C 8,8 C 6,4 km/h (2 Bft) 92,00 %
04.10.2017 04:04 8,8 C 13,3 C 94 % 1024,7 hPa 0,0 l/m 2,5 km/h (1 Bft) S 178 0 min 0,000 mm 0,0 UV-I 0 W/m 7,9 C 8,8 C 4,8 km/h (1 Bft) 100,00 %
04.10.2017 04:06 8,8 C 13,3 C 94 % 1024,7 hPa 0,0 l/m 3,8 km/h (1 Bft) S-SW 193 0 min 0,000 mm 0,0 UV-I 0 W/m 7,9 C 8,8 C 6,4 km/h (2 Bft) 100,00 %
04.10.2017 04:08 8,8 C 13,3 C 94 % 1024,7 hPa 0,0 l/m 3,4 km/h (1 Bft) S 179 0 min 0,000 mm 0,0 UV-I 0 W/m 7,9 C 8,8 C 6,4 km/h (2 Bft) 100,00 %
04.10.2017 04:10 8,8 C 13,3 C 94 % 1024,7 hPa 0,0 l/m 3,9 km/h (1 Bft) S 180 0 min 0,000 mm 0,0 UV-I 0 W/m 7,9 C 8,8 C 8,0 km/h (2 Bft) 100,00 %
04.10.2017 04:12 8,9 C 13,3 C 94 % 1024,7 hPa 0,0 l/m 2,9 km/h (1 Bft) S 180 0 min 0,000 mm 0,0 UV-I 0 W/m 8,0 C 8,9 C 4,8 km/h (1 Bft) 100,00 %
04.10.2017 04:14 8,9 C 13,3 C 94 % 1024,8 hPa 0,0 l/m 4,0 km/h (1 Bft) S 180 0 min 0,000 mm 0,0 UV-I 0 W/m 8,0 C 8,9 C 6,4 km/h (2 Bft) 100,00 %
04.10.2017 04:16 8,9 C 13,3 C 93 % 1024,7 hPa 0,0 l/m 4,6 km/h (1 Bft) S-SW 198 0 min 0,000 mm 0,0 UV-I 0 W/m 7,8 C 8,9 C 6,4 km/h (2 Bft) 100,00 %
04.10.2017 04:19 8,9 C 13,3 C 93 % 1024,7 hPa 0,0 l/m 5,1 km/h (1 Bft) S-SW 197 0 min 0,000 mm 0,0 UV-I 0 W/m 7,8 C 8,9 C 8,0 km/h (2 Bft) 100,00 %
04.10.2017 04:20 8,9 C 13,3 C 93 % 1024,7 hPa 0,0 l/m 3,5 km/h (1 Bft) S-SW 197 0 min 0,000 mm 0,0 UV-I 0 W/m 7,8 C 8,9 C 4,8 km/h (1 Bft) 100,00 %
04.10.2017 04:22 8,9 C 13,3 C 93 % 1024,8 hPa 0,0 l/m 4,7 km/h (1 Bft) S-SW 196 0 min 0,000 mm 0,0 UV-I 0 W/m 7,8 C 8,9 C 6,4 km/h (2 Bft) 100,00 %
04.10.2017 04:24 8,9 C 13,3 C 93 % 1024,7 hPa 0,0 l/m 4,6 km/h (1 Bft) S 186 0 min 0,000 mm 0,0 UV-I 0 W/m 7,8 C 8,9 C 6,4 km/h (2 Bft) 100,00 %
04.10.2017 04:26 8,9 C 13,3 C 93 % 1024,7 hPa 0,0 l/m 4,0 km/h (1 Bft) S 182 0 min 0,000 mm 0,0 UV-I 0 W/m 7,8 C 8,9 C 6,4 km/h (2 Bft) 100,00 %
04.10.2017 04:28 8,9 C 13,3 C 93 % 1024,7 hPa 0,0 l/m 4,2 km/h (1 Bft) S-SO 168 0 min 0,000 mm 0,0 UV-I 0 W/m 7,8 C 8,9 C 8,0 km/h (2 Bft) 100,00 %
04.10.2017 04:30 8,9 C 12,8 C 93 % 1024,7 hPa 0,0 l/m 3,5 km/h (1 Bft) S-SO 168 0 min 0,000 mm 0,0 UV-I 0 W/m 7,8 C 8,9 C 6,4 km/h (2 Bft) 100,00 %
04.10.2017 04:32 8,9 C 12,8 C 93 % 1024,7 hPa 0,0 l/m 2,7 km/h (1 Bft) S-SW 209 0 min 0,000 mm 0,0 UV-I 0 W/m 7,8 C 8,9 C 6,4 km/h (2 Bft) 100,00 %
04.10.2017 04:34 8,8 C 12,8 C 93 % 1024,6 hPa 0,0 l/m 2,6 km/h (1 Bft) S-SW 208 0 min 0,000 mm 0,0 UV-I 0 W/m 7,7 C 8,8 C 4,8 km/h (1 Bft) 100,00 %
04.10.2017 04:36 8,8 C 12,8 C 93 % 1024,6 hPa 0,0 l/m 3,3 km/h (1 Bft) S-SW 200 0 min 0,000 mm 0,0 UV-I 0 W/m 7,7 C 8,8 C 6,4 km/h (2 Bft) 100,00 %
04.10.2017 04:38 8,8 C 12,8 C 93 % 1024,6 hPa 0,0 l/m 3,9 km/h (1 Bft) S-SW 199 0 min 0,000 mm 0,0 UV-I 0 W/m 7,7 C 8,8 C 6,4 km/h (2 Bft) 100,00 %
04.10.2017 04:40 8,8 C 12,8 C 93 % 1024,6 hPa 0,0 l/m 3,7 km/h (1 Bft) S-SW 199 0 min 0,000 mm 0,0 UV-I 0 W/m 7,7 C 8,8 C 4,8 km/h (1 Bft) 100,00 %
04.10.2017 04:42 8,8 C 12,8 C 93 % 1024,7 hPa 0,0 l/m 3,1 km/h (1 Bft) S-SW 199 0 min 0,000 mm 0,0 UV-I 0 W/m 7,7 C 8,8 C 4,8 km/h (1 Bft) 97,37 %
04.10.2017 04:44 8,7 C 12,8 C 93 % 1024,7 hPa 0,0 l/m 2,8 km/h (1 Bft) S-SW 199 0 min 0,000 mm 0,0 UV-I 0 W/m 7,6 C 8,7 C 4,8 km/h (1 Bft) 100,00 %
04.10.2017 04:46 8,7 C 12,8 C 94 % 1024,7 hPa 0,0 l/m 4,1 km/h (1 Bft) S-SW 198 0 min 0,000 mm 0,0 UV-I 0 W/m 7,8 C 8,7 C 6,4 km/h (2 Bft) 100,00 %
04.10.2017 04:48 8,6 C 12,8 C 93 % 1024,6 hPa 0,0 l/m 2,6 km/h (1 Bft) S-SW 198 0 min 0,000 mm 0,0 UV-I 0 W/m 7,5 C 8,6 C 4,8 km/h (1 Bft) 97,87 %
04.10.2017 04:50 8,6 C 12,8 C 94 % 1024,4 hPa 0,0 l/m 2,0 km/h (1 Bft) S 185 0 min 0,000 mm 0,0 UV-I 0 W/m 7,7 C 8,6 C 3,2 km/h (1 Bft) 100,00 %
04.10.2017 04:52 8,7 C 12,8 C 94 % 1024,4 hPa 0,0 l/m 1,8 km/h (1 Bft) S 184 0 min 0,000 mm 0,0 UV-I 0 W/m 7,8 C 8,7 C 4,8 km/h (1 Bft) 98,00 %
04.10.2017 04:54 8,7 C 12,8 C 94 % 1024,4 hPa 0,0 l/m 4,1 km/h (1 Bft) S 183 0 min 0,000 mm 0,0 UV-I 0 W/m 7,8 C 8,7 C 6,4 km/h (2 Bft) 96,00 %
04.10.2017 04:56 8,7 C 12,8 C 94 % 1024,5 hPa 0,0 l/m 4,6 km/h (1 Bft) S-SW 209 0 min 0,000 mm 0,0 UV-I 0 W/m 7,8 C 8,7 C 6,4 km/h (2 Bft) 98,00 %
04.10.2017 04:58 8,6 C 12,8 C 94 % 1024,5 hPa 0,0 l/m 4,4 km/h (1 Bft) S-SW 209 0 min 0,000 mm 0,0 UV-I 0 W/m 7,7 C 8,6 C 6,4 km/h (2 Bft) 95,65 %
04.10.2017 05:00 8,6 C 12,8 C 94 % 1024,6 hPa 0,0 l/m 4,1 km/h (1 Bft) S-SW 211 0 min 0,000 mm 0,0 UV-I 0 W/m 7,7 C 8,6 C 6,4 km/h (2 Bft) 96,92 %
04.10.2017 05:02 8,6 C 12,8 C 94 % 1024,6 hPa 0,0 l/m 4,0 km/h (1 Bft) S-SW 211 0 min 0,000 mm 0,0 UV-I 0 W/m 7,7 C 8,6 C 6,4 km/h (2 Bft) 96,00 %
04.10.2017 05:04 8,6 C 12,8 C 94 % 1024,6 hPa 0,0 l/m 4,5 km/h (1 Bft) S-SW 211 0 min 0,000 mm 0,0 UV-I 0 W/m 7,7 C 8,6 C 6,4 km/h (2 Bft) 100,00 %
04.10.2017 05:06 8,5 C 12,8 C 94 % 1024,6 hPa 0,0 l/m 3,3 km/h (1 Bft) S-SW 211 0 min 0,000 mm 0,0 UV-I 0 W/m 7,6 C 8,5 C 6,4 km/h (2 Bft) 94,00 %
04.10.2017 05:08 8,4 C 12,8 C 94 % 1024,5 hPa 0,0 l/m 3,0 km/h (1 Bft) S-SW 211 0 min 0,000 mm 0,0 UV-I 0 W/m 7,5 C 8,4 C 4,8 km/h (1 Bft) 98,00 %
04.10.2017 05:10 8,4 C 12,8 C 94 % 1024,5 hPa 0,0 l/m 2,5 km/h (1 Bft) S-SW 200 0 min 0,000 mm 0,0 UV-I 0 W/m 7,5 C 8,4 C 4,8 km/h (1 Bft) 97,56 %
04.10.2017 05:12 8,4 C 12,8 C 94 % 1024,5 hPa 0,0 l/m 2,7 km/h (1 Bft) S-SW 200 0 min 0,000 mm 0,0 UV-I 0 W/m 7,5 C 8,4 C 4,8 km/h (1 Bft) 98,11 %
04.10.2017 05:14 8,3 C 12,8 C 94 % 1024,6 hPa 0,0 l/m 2,4 km/h (1 Bft) S-SW 200 0 min 0,000 mm 0,0 UV-I 0 W/m 7,4 C 8,3 C 4,8 km/h (1 Bft) 98,00 %
04.10.2017 05:16 8,3 C 12,8 C 94 % 1024,6 hPa 0,0 l/m 3,0 km/h (1 Bft) S-SW 200 0 min 0,000 mm 0,0 UV-I 0 W/m 7,4 C 8,3 C 3,2 km/h (1 Bft) 97,44 %
04.10.2017 05:18 8,2 C 12,8 C 94 % 1024,6 hPa 0,0 l/m 1,4 km/h (1 Bft) S-SW 200 0 min 0,000 mm 0,0 UV-I 0 W/m 7,3 C 8,2 C 3,2 km/h (1 Bft) 98,00 %
04.10.2017 05:20 8,2 C 12,8 C 94 % 1024,6 hPa 0,0 l/m 2,7 km/h (1 Bft) S-SW 200 0 min 0,000 mm 0,0 UV-I 0 W/m 7,3 C 8,2 C 4,8 km/h (1 Bft) 94,00 %
04.10.2017 05:22 8,1 C 12,8 C 94 % 1024,6 hPa 0,0 l/m 3,7 km/h (1 Bft) S-SW 200 0 min 0,000 mm 0,0 UV-I 0 W/m 7,2 C 8,1 C 4,8 km/h (1 Bft) 97,87 %
04.10.2017 05:24 8,2 C 12,8 C 95 % 1024,7 hPa 0,0 l/m 2,8 km/h (1 Bft) S-SW 200 0 min 0,000 mm 0,0 UV-I 0 W/m 7,4 C 8,2 C 4,8 km/h (1 Bft) 97,37 %
04.10.2017 05:26 8,2 C 12,8 C 95 % 1024,7 hPa 0,0 l/m 2,2 km/h (1 Bft) S-SW 200 0 min 0,000 mm 0,0 UV-I 0 W/m 7,4 C 8,2 C 3,2 km/h (1 Bft) 98,11 %
04.10.2017 05:28 8,2 C 12,8 C 95 % 1024,7 hPa 0,0 l/m 3,5 km/h (1 Bft) S-SW 200 0 min 0,000 mm 0,0 UV-I 0 W/m 7,4 C 8,2 C 4,8 km/h (1 Bft) 100,00 %
04.10.2017 05:30 8,2 C 12,8 C 95 % 1024,7 hPa 0,0 l/m 3,1 km/h (1 Bft) S-SW 200 0 min 0,000 mm 0,0 UV-I 0 W/m 7,4 C 8,2 C 4,8 km/h (1 Bft) 98,11 %
04.10.2017 05:32 8,2 C 12,8 C 95 % 1024,7 hPa 0,0 l/m 1,9 km/h (1 Bft) S-SW 200 0 min 0,000 mm 0,0 UV-I 0 W/m 7,4 C 8,2 C 3,2 km/h (1 Bft) 98,11 %
04.10.2017 05:34 8,1 C 12,8 C 95 % 1024,7 hPa 0,0 l/m 0,8 km/h (0 Bft) S-SW 200 0 min 0,000 mm 0,0 UV-I 0 W/m 7,3 C 8,1 C 1,6 km/h (1 Bft) 100,00 %
04.10.2017 05:36 8,0 C 12,8 C 95 % 1024,6 hPa 0,0 l/m 0,2 km/h (0 Bft) S-SW 200 0 min 0,000 mm 0,0 UV-I 0 W/m 7,2 C 8,0 C 1,6 km/h (1 Bft) 94,74 %
04.10.2017 05:38 7,9 C 12,8 C 95 % 1024,6 hPa 0,0 l/m 0,0 km/h (0 Bft) S-SW 200 0 min 0,000 mm 0,0 UV-I 0 W/m 7,1 C 7,9 C 0,0 km/h (0 Bft) 100,00 %
04.10.2017 05:40 7,9 C 12,8 C 95 % 1024,5 hPa 0,0 l/m 0,0 km/h (0 Bft) S-SW 200 0 min 0,000 mm 0,0 UV-I 0 W/m 7,1 C 7,9 C 0,0 km/h (0 Bft) 100,00 %
04.10.2017 05:42 7,9 C 12,8 C 95 % 1024,5 hPa 0,0 l/m 0,0 km/h (0 Bft) S-SW 200 0 min 0,000 mm 0,0 UV-I 0 W/m 7,1 C 7,9 C 0,0 km/h (0 Bft) 93,62 %
04.10.2017 05:44 7,8 C 12,8 C 95 % 1024,5 hPa 0,0 l/m 1,2 km/h (1 Bft) S-SW 200 0 min 0,000 mm 0,0 UV-I 0 W/m 7,0 C 7,8 C 3,2 km/h (1 Bft) 100,00 %
04.10.2017 05:46 7,7 C 12,8 C 94 % 1024,5 hPa 0,0 l/m 1,7 km/h (1 Bft) S-SW 200 0 min 0,000 mm 0,0 UV-I 0 W/m 6,8 C 7,7 C 3,2 km/h (1 Bft) 95,74 %
04.10.2017 05:48 7,6 C 12,8 C 95 % 1024,4 hPa 0,0 l/m 1,9 km/h (1 Bft) S-SW 200 0 min 0,000 mm 0,0 UV-I 0 W/m 6,9 C 7,6 C 3,2 km/h (1 Bft) 96,23 %
04.10.2017 05:50 7,4 C 12,8 C 95 % 1024,5 hPa 0,0 l/m 0,9 km/h (0 Bft) S-SW 200 0 min 0,000 mm 0,0 UV-I 0 W/m 6,7 C 7,4 C 1,6 km/h (1 Bft) 94,74 %
04.10.2017 05:52 7,4 C 12,8 C 95 % 1024,5 hPa 0,0 l/m 0,8 km/h (0 Bft) S-SW 200 0 min 0,000 mm 0,0 UV-I 0 W/m 6,7 C 7,4 C 1,6 km/h (1 Bft) 97,92 %
04.10.2017 05:54 7,3 C 12,8 C 95 % 1024,4 hPa 0,0 l/m 2,2 km/h (1 Bft) S-SW 200 0 min 0,000 mm 0,0 UV-I 0 W/m 6,6 C 7,3 C 3,2 km/h (1 Bft) 97,87 %
04.10.2017 05:56 7,2 C 12,8 C 95 % 1024,4 hPa 0,0 l/m 1,7 km/h (1 Bft) S-SW 200 0 min 0,000 mm 0,0 UV-I 0 W/m 6,5 C 7,2 C 3,2 km/h (1 Bft) 97,87 %
04.10.2017 05:58 7,1 C 12,8 C 95 % 1024,5 hPa 0,0 l/m 0,2 km/h (0 Bft) S-SW 200 0 min 0,000 mm 0,0 UV-I 0 W/m 6,4 C 7,1 C 1,6 km/h (1 Bft) 98,11 %
04.10.2017 06:00 7,1 C 12,8 C 95 % 1024,5 hPa 0,0 l/m 0,0 km/h (0 Bft) S-SW 200 0 min 0,000 mm 0,0 UV-I 0 W/m 6,4 C 7,1 C 0,0 km/h (0 Bft) 95,65 %
04.10.2017 06:02 7,1 C 12,8 C 96 % 1024,4 hPa 0,0 l/m 0,0 km/h (0 Bft) S-SW 200 0 min 0,000 mm 0,0 UV-I 0 W/m 6,5 C 7,1 C 0,0 km/h (0 Bft) 96,77 %
04.10.2017 06:04 7,0 C 12,8 C 95 % 1024,4 hPa 0,0 l/m 0,2 km/h (0 Bft) S-SW 200 0 min 0,000 mm 0,0 UV-I 0 W/m 6,3 C 7,0 C 1,6 km/h (1 Bft) 95,74 %
04.10.2017 06:06 7,0 C 12,8 C 95 % 1024,3 hPa 0,0 l/m 2,0 km/h (1 Bft) S-SW 200 0 min 0,000 mm 0,0 UV-I 0 W/m 6,3 C 7,0 C 3,2 km/h (1 Bft) 98,00 %
04.10.2017 06:08 7,0 C 12,8 C 96 % 1024,3 hPa 0,0 l/m 2,6 km/h (1 Bft) S-SW 200 0 min 0,000 mm 0,0 UV-I 0 W/m 6,4 C 7,0 C 3,2 km/h (1 Bft) 96,00 %
04.10.2017 06:10 6,9 C 12,8 C 95 % 1024,3 hPa 0,0 l/m 1,3 km/h (1 Bft) S-SW 200 0 min 0,000 mm 0,0 UV-I 0 W/m 6,2 C 6,9 C 3,2 km/h (1 Bft) 98,00 %
04.10.2017 06:12 6,8 C 12,8 C 96 % 1024,3 hPa 0,0 l/m 0,0 km/h (0 Bft) S-SW 200 0 min 0,000 mm 0,0 UV-I 0 W/m 6,2 C 6,8 C 0,0 km/h (0 Bft) 97,37 %
04.10.2017 06:14 6,8 C 12,8 C 96 % 1024,4 hPa 0,0 l/m 0,4 km/h (0 Bft) S-SW 200 0 min 0,000 mm 0,0 UV-I 0 W/m 6,2 C 6,8 C 1,6 km/h (1 Bft) 95,74 %
04.10.2017 06:16 6,8 C 12,8 C 96 % 1024,5 hPa 0,0 l/m 0,0 km/h (0 Bft) S-SW 200 0 min 0,000 mm 0,0 UV-I 0 W/m 6,2 C 6,8 C 0,0 km/h (0 Bft) 98,00 %
04.10.2017 06:18 6,8 C 12,8 C 96 % 1024,5 hPa 0,0 l/m 0,0 km/h (0 Bft) S-SW 200 0 min 0,000 mm 0,0 UV-I 0 W/m 6,2 C 6,8 C 0,0 km/h (0 Bft) 98,00 %
04.10.2017 06:20 6,8 C 12,8 C 96 % 1024,5 hPa 0,0 l/m 0,9 km/h (0 Bft) S-SW 200 0 min 0,000 mm 0,0 UV-I 0 W/m 6,2 C 6,8 C 1,6 km/h (1 Bft) 97,87 %
04.10.2017 06:22 6,8 C 12,8 C 96 % 1024,5 hPa 0,0 l/m 1,7 km/h (1 Bft) S-SW 200 0 min 0,000 mm 0,0 UV-I 0 W/m 6,2 C 6,8 C 3,2 km/h (1 Bft) 97,87 %
04.10.2017 06:24 6,8 C 12,8 C 96 % 1024,5 hPa 0,0 l/m 1,8 km/h (1 Bft) S-SW 200 0 min 0,000 mm 0,0 UV-I 0 W/m 6,2 C 6,8 C 3,2 km/h (1 Bft) 94,74 %
04.10.2017 06:26 6,7 C 12,8 C 96 % 1024,5 hPa 0,0 l/m 0,3 km/h (0 Bft) S-SW 200 0 min 0,000 mm 0,0 UV-I 0 W/m 6,1 C 6,7 C 1,6 km/h (1 Bft) 96,00 %
04.10.2017 06:28 6,7 C 12,8 C 96 % 1024,5 hPa 0,0 l/m 0,0 km/h (0 Bft) S-SW 200 0 min 0,000 mm 0,0 UV-I 0 W/m 6,1 C 6,7 C 0,0 km/h (0 Bft) 100,00 %
04.10.2017 06:30 6,7 C 12,8 C 96 % 1024,4 hPa 0,0 l/m 0,0 km/h (0 Bft) S-SW 200 0 min 0,000 mm 0,0 UV-I 0 W/m 6,1 C 6,7 C 0,0 km/h (0 Bft) 95,74 %
04.10.2017 06:32 6,7 C 12,8 C 96 % 1024,4 hPa 0,0 l/m 0,0 km/h (0 Bft) S-SW 200 0 min 0,000 mm 0,0 UV-I 0 W/m 6,1 C 6,7 C 0,0 km/h (0 Bft) 96,23 %
04.10.2017 06:34 6,6 C 12,8 C 96 % 1024,4 hPa 0,0 l/m 0,0 km/h (0 Bft) S-SW 200 0 min 0,000 mm 0,0 UV-I 0 W/m 6,0 C 6,6 C 0,0 km/h (0 Bft) 100,00 %
04.10.2017 06:36 6,6 C 12,8 C 96 % 1024,4 hPa 0,0 l/m 0,0 km/h (0 Bft) S-SW 200 0 min 0,000 mm 0,0 UV-I 0 W/m 6,0 C 6,6 C 0,0 km/h (0 Bft) 100,00 %
04.10.2017 06:38 6,6 C 12,8 C 96 % 1024,3 hPa 0,0 l/m 0,0 km/h (0 Bft) S-SW 200 0 min 0,000 mm 0,0 UV-I 0 W/m 6,0 C 6,6 C 0,0 km/h (0 Bft) 97,87 %
04.10.2017 06:40 6,6 C 12,8 C 96 % 1024,3 hPa 0,0 l/m 0,0 km/h (0 Bft) S-SW 200 0 min 0,000 mm 0,0 UV-I 0 W/m 6,0 C 6,6 C 1,6 km/h (1 Bft) 100,00 %
04.10.2017 06:42 6,4 C 12,8 C 96 % 1024,3 hPa 0,0 l/m 0,0 km/h (0 Bft) S-SW 200 0 min 0,000 mm 0,0 UV-I 0 W/m 5,8 C 6,4 C 0,0 km/h (0 Bft) 97,37 %
04.10.2017 06:44 6,3 C 12,8 C 96 % 1024,3 hPa 0,0 l/m 0,0 km/h (0 Bft) S-SW 200 0 min 0,000 mm 0,0 UV-I 0 W/m 5,7 C 6,3 C 0,0 km/h (0 Bft) 100,00 %
04.10.2017 06:46 6,3 C 12,8 C 96 % 1024,4 hPa 0,0 l/m 0,0 km/h (0 Bft) S-SW 200 0 min 0,000 mm 0,0 UV-I 0 W/m 5,7 C 6,3 C 0,0 km/h (0 Bft) 100,00 %
04.10.2017 06:48 6,3 C 12,8 C 96 % 1024,4 hPa 0,0 l/m 0,0 km/h (0 Bft) S-SW 200 0 min 0,000 mm 0,0 UV-I 0 W/m 5,7 C 6,3 C 0,0 km/h (0 Bft) 100,00 %
04.10.2017 06:50 6,4 C 12,8 C 97 % 1024,5 hPa 0,0 l/m 0,0 km/h (0 Bft) S-SW 200 0 min 0,000 mm 0,0 UV-I 0 W/m 6,0 C 6,4 C 0,0 km/h (0 Bft) 100,00 %
04.10.2017 06:52 6,5 C 12,8 C 97 % 1024,5 hPa 0,0 l/m 0,0 km/h (0 Bft) S-SW 200 0 min 0,000 mm 0,0 UV-I 5 W/m 6,1 C 6,5 C 0,0 km/h (0 Bft) 100,00 %
04.10.2017 06:54 6,4 C 12,8 C 96 % 1024,5 hPa 0,0 l/m 0,0 km/h (0 Bft) S-SW 200 0 min 0,000 mm 0,0 UV-I 5 W/m 5,8 C 6,4 C 0,0 km/h (0 Bft) 100,00 %
04.10.2017 06:56 6,2 C 12,8 C 96 % 1024,6 hPa 0,0 l/m 0,0 km/h (0 Bft) S-SW 200 0 min 0,000 mm 0,0 UV-I 5 W/m 5,6 C 6,2 C 0,0 km/h (0 Bft) 98,11 %
04.10.2017 06:58 6,1 C 12,8 C 96 % 1024,7 hPa 0,0 l/m 0,0 km/h (0 Bft) S-SW 200 0 min 0,000 mm 0,0 UV-I 7 W/m 5,5 C 6,1 C 0,0 km/h (0 Bft) 97,14 %
04.10.2017 07:00 6,0 C 12,8 C 96 % 1024,7 hPa 0,0 l/m 0,5 km/h (0 Bft) S-SW 200 0 min 0,000 mm 0,0 UV-I 7 W/m 5,4 C 6,0 C 1,6 km/h (1 Bft) 98,00 %
04.10.2017 07:02 6,1 C 12,8 C 96 % 1024,6 hPa 0,0 l/m 0,9 km/h (0 Bft) S-SW 200 0 min 0,000 mm 0,0 UV-I 8 W/m 5,5 C 6,1 C 1,6 km/h (1 Bft) 98,00 %
04.10.2017 07:04 6,2 C 12,8 C 97 % 1024,6 hPa 0,0 l/m 1,7 km/h (1 Bft) S-SW 200 0 min 0,000 mm 0,0 UV-I 9 W/m 5,8 C 6,2 C 4,8 km/h (1 Bft) 91,49 %
04.10.2017 07:06 6,3 C 12,8 C 97 % 1024,7 hPa 0,0 l/m 3,0 km/h (1 Bft) S-SW 200 0 min 0,000 mm 0,0 UV-I 9 W/m 5,9 C 6,3 C 4,8 km/h (1 Bft) 98,00 %
04.10.2017 07:08 6,3 C 12,8 C 97 % 1024,7 hPa 0,0 l/m 1,9 km/h (1 Bft) S-SW 200 0 min 0,000 mm 0,0 UV-I 9 W/m 5,9 C 6,3 C 4,8 km/h (1 Bft) 96,00 %
04.10.2017 07:10 6,4 C 12,8 C 97 % 1024,7 hPa 0,0 l/m 0,3 km/h (0 Bft) S-SW 200 0 min 0,000 mm 0,0 UV-I 9 W/m 6,0 C 6,4 C 1,6 km/h (1 Bft) 97,44 %
04.10.2017 07:12 6,3 C 12,8 C 97 % 1024,7 hPa 0,0 l/m 0,8 km/h (0 Bft) S-SW 200 0 min 0,000 mm 0,0 UV-I 10 W/m 5,9 C 6,3 C 3,2 km/h (1 Bft) 97,87 %
04.10.2017 07:14 6,3 C 12,8 C 96 % 1024,8 hPa 0,0 l/m 2,2 km/h (1 Bft) S-SW 200 0 min 0,000 mm 0,0 UV-I 13 W/m 5,7 C 6,3 C 3,2 km/h (1 Bft) 98,08 %
04.10.2017 07:16 6,2 C 12,8 C 96 % 1024,7 hPa 0,0 l/m 0,7 km/h (0 Bft) S-SW 200 0 min 0,000 mm 0,0 UV-I 17 W/m 5,6 C 6,2 C 3,2 km/h (1 Bft) 97,92 %
04.10.2017 07:18 6,2 C 12,8 C 96 % 1024,8 hPa 0,0 l/m 1,2 km/h (1 Bft) S-SW 200 2 min 0,000 mm 0,0 UV-I 20 W/m 5,6 C 6,2 C 3,2 km/h (1 Bft) 95,74 %
04.10.2017 07:20 6,2 C 12,8 C 96 % 1024,8 hPa 0,0 l/m 0,9 km/h (0 Bft) S-SW 200 2 min 0,000 mm 0,0 UV-I 22 W/m 5,6 C 6,2 C 3,2 km/h (1 Bft) 97,14 %
04.10.2017 07:22 6,2 C 12,8 C 97 % 1024,8 hPa 0,0 l/m 0,0 km/h (0 Bft) S-SW 200 2 min 0,000 mm 0,0 UV-I 25 W/m 5,8 C 6,2 C 0,0 km/h (0 Bft) 98,00 %
04.10.2017 07:24 6,2 C 12,8 C 96 % 1024,8 hPa 0,0 l/m 0,0 km/h (0 Bft) S-SW 200 2 min 0,000 mm 0,0 UV-I 22 W/m 5,6 C 6,2 C 0,0 km/h (0 Bft) 96,00 %
04.10.2017 07:26 6,2 C 12,8 C 96 % 1024,9 hPa 0,0 l/m 0,5 km/h (0 Bft) S-SW 200 0 min 0,000 mm 0,0 UV-I 21 W/m 5,6 C 6,2 C 1,6 km/h (1 Bft) 97,56 %
04.10.2017 07:28 6,3 C 12,8 C 97 % 1024,8 hPa 0,0 l/m 1,1 km/h (1 Bft) S-SW 200 0 min 0,000 mm 0,0 UV-I 23 W/m 5,9 C 6,3 C 3,2 km/h (1 Bft) 98,00 %
04.10.2017 07:30 6,3 C 12,8 C 97 % 1024,8 hPa 0,0 l/m 1,4 km/h (1 Bft) S-SW 200 0 min 0,000 mm 0,0 UV-I 25 W/m 5,9 C 6,3 C 3,2 km/h (1 Bft) 96,23 %
04.10.2017 07:32 6,3 C 12,8 C 97 % 1024,7 hPa 0,0 l/m 0,3 km/h (0 Bft) S-SW 200 0 min 0,000 mm 0,0 UV-I 28 W/m 5,9 C 6,3 C 1,6 km/h (1 Bft) 98,00 %
04.10.2017 07:34 6,4 C 12,8 C 97 % 1024,7 hPa 0,0 l/m 0,9 km/h (0 Bft) S-SW 200 0 min 0,000 mm 0,0 UV-I 31 W/m 6,0 C 6,4 C 1,6 km/h (1 Bft) 100,00 %
04.10.2017 07:36 6,5 C 12,8 C 97 % 1024,7 hPa 0,0 l/m 0,6 km/h (0 Bft) S-SW 200 0 min 0,000 mm 0,0 UV-I 33 W/m 6,1 C 6,5 C 1,6 km/h (1 Bft) 100,00 %
04.10.2017 07:38 6,7 C 12,8 C 97 % 1024,7 hPa 0,0 l/m 1,4 km/h (1 Bft) S-SW 200 0 min 0,000 mm 0,0 UV-I 36 W/m 6,3 C 6,7 C 3,2 km/h (1 Bft) 100,00 %
04.10.2017 07:40 6,7 C 12,8 C 97 % 1024,7 hPa 0,0 l/m 1,4 km/h (1 Bft) S-SW 200 0 min 0,000 mm 0,0 UV-I 40 W/m 6,3 C 6,7 C 3,2 km/h (1 Bft) 100,00 %
04.10.2017 07:42 6,7 C 12,8 C 97 % 1024,6 hPa 0,0 l/m 1,9 km/h (1 Bft) S-SW 200 2 min 0,000 mm 0,0 UV-I 52 W/m 6,3 C 6,7 C 3,2 km/h (1 Bft) 97,37 %
04.10.2017 07:44 6,7 C 12,8 C 97 % 1024,6 hPa 0,0 l/m 1,2 km/h (1 Bft) S-SW 200 0 min 0,000 mm 0,0 UV-I 46 W/m 6,3 C 6,7 C 1,6 km/h (1 Bft) 100,00 %
04.10.2017 07:46 6,8 C 12,8 C 97 % 1024,6 hPa 0,0 l/m 0,8 km/h (0 Bft) S-SW 200 0 min 0,000 mm 0,0 UV-I 40 W/m 6,4 C 6,8 C 3,2 km/h (1 Bft) 100,00 %
04.10.2017 07:48 6,8 C 12,8 C 97 % 1024,6 hPa 0,0 l/m 1,2 km/h (1 Bft) S-SW 200 0 min 0,000 mm 0,0 UV-I 48 W/m 6,4 C 6,8 C 3,2 km/h (1 Bft) 100,00 %
04.10.2017 07:50 6,8 C 12,8 C 97 % 1024,6 hPa 0,0 l/m 0,5 km/h (0 Bft) S-SW 200 0 min 0,000 mm 0,0 UV-I 56 W/m 6,4 C 6,8 C 3,2 km/h (1 Bft) 97,87 %
04.10.2017 07:52 6,9 C 12,8 C 97 % 1024,6 hPa 0,0 l/m 0,1 km/h (0 Bft) S-SW 200 0 min 0,000 mm 0,0 UV-I 52 W/m 6,5 C 6,9 C 1,6 km/h (1 Bft) 100,00 %
04.10.2017 07:54 6,8 C 12,8 C 97 % 1024,7 hPa 0,0 l/m 1,1 km/h (1 Bft) S-SW 200 0 min 0,000 mm 0,0 UV-I 47 W/m 6,4 C 6,8 C 3,2 km/h (1 Bft) 100,00 %
04.10.2017 07:56 6,8 C 12,8 C 96 % 1024,6 hPa 0,0 l/m 2,0 km/h (1 Bft) S-SW 200 0 min 0,000 mm 0,0 UV-I 44 W/m 6,2 C 6,8 C 4,8 km/h (1 Bft) 100,00 %
04.10.2017 07:58 6,6 C 12,8 C 96 % 1024,7 hPa 0,0 l/m 1,3 km/h (1 Bft) S-SW 200 0 min 0,000 mm 0,0 UV-I 37 W/m 6,0 C 6,6 C 3,2 km/h (1 Bft) 97,87 %
04.10.2017 08:00 6,5 C 12,8 C 96 % 1024,7 hPa 0,0 l/m 1,6 km/h (1 Bft) S-SW 200 0 min 0,025 mm 0,0 UV-I 38 W/m 5,9 C 6,5 C 3,2 km/h (1 Bft) 100,00 %
04.10.2017 08:02 6,6 C 12,8 C 96 % 1024,8 hPa 0,0 l/m 2,4 km/h (1 Bft) S-SW 200 0 min 0,000 mm 0,0 UV-I 56 W/m 6,0 C 6,6 C 4,8 km/h (1 Bft) 100,00 %
04.10.2017 08:04 6,7 C 12,8 C 96 % 1024,9 hPa 0,0 l/m 2,8 km/h (1 Bft) S-SW 200 0 min 0,000 mm 0,0 UV-I 71 W/m 6,1 C 6,7 C 4,8 km/h (1 Bft) 100,00 %
04.10.2017 08:06 6,8 C 12,8 C 97 % 1024,9 hPa 0,0 l/m 2,2 km/h (1 Bft) S-SW 200 0 min 0,000 mm 0,0 UV-I 57 W/m 6,4 C 6,8 C 3,2 km/h (1 Bft) 100,00 %
04.10.2017 08:08 6,8 C 12,8 C 97 % 1024,9 hPa 0,0 l/m 1,7 km/h (1 Bft) S-SW 200 0 min 0,000 mm 0,0 UV-I 37 W/m 6,4 C 6,8 C 3,2 km/h (1 Bft) 97,87 %
04.10.2017 08:10 6,8 C 12,8 C 97 % 1025,0 hPa 0,0 l/m 1,2 km/h (1 Bft) S-SW 200 0 min 0,000 mm 0,0 UV-I 35 W/m 6,4 C 6,8 C 3,2 km/h (1 Bft) 97,56 %
04.10.2017 08:12 6,8 C 12,8 C 97 % 1025,0 hPa 0,0 l/m 2,0 km/h (1 Bft) S-SW 200 0 min 0,000 mm 0,0 UV-I 37 W/m 6,4 C 6,8 C 3,2 km/h (1 Bft) 100,00 %
04.10.2017 08:14 6,8 C 12,8 C 97 % 1024,9 hPa 0,0 l/m 1,9 km/h (1 Bft) S-SW 200 0 min 0,000 mm 0,0 UV-I 41 W/m 6,4 C 6,8 C 3,2 km/h (1 Bft) 98,11 %
04.10.2017 08:16 6,8 C 12,8 C 97 % 1024,9 hPa 0,0 l/m 0,6 km/h (0 Bft) S-SW 200 0 min 0,000 mm 0,0 UV-I 48 W/m 6,4 C 6,8 C 1,6 km/h (1 Bft) 100,00 %
04.10.2017 08:18 6,9 C 12,8 C 96 % 1024,8 hPa 0,0 l/m 1,0 km/h (0 Bft) S-SW 200 0 min 0,000 mm 0,0 UV-I 66 W/m 6,3 C 6,9 C 3,2 km/h (1 Bft) 100,00 %
04.10.2017 08:20 6,9 C 12,8 C 97 % 1024,8 hPa 0,0 l/m 0,1 km/h (0 Bft) S-SW 200 0 min 0,000 mm 0,0 UV-I 94 W/m 6,5 C 6,9 C 1,6 km/h (1 Bft) 100,00 %
04.10.2017 08:22 7,0 C 12,8 C 97 % 1024,8 hPa 0,0 l/m 0,0 km/h (0 Bft) S-SW 200 2 min 0,000 mm 0,0 UV-I 114 W/m 6,6 C 7,0 C 0,0 km/h (0 Bft) 100,00 %
04.10.2017 08:24 7,1 C 12,8 C 97 % 1024,8 hPa 0,0 l/m 0,0 km/h (0 Bft) S-SW 200 2 min 0,000 mm 0,0 UV-I 167 W/m 6,7 C 7,1 C 0,0 km/h (0 Bft) 100,00 %
04.10.2017 08:26 7,2 C 12,8 C 97 % 1024,9 hPa 0,0 l/m 0,0 km/h (0 Bft) S-SW 200 2 min 0,000 mm 0,0 UV-I 212 W/m 6,8 C 7,2 C 0,0 km/h (0 Bft) 100,00 %
04.10.2017 08:28 7,4 C 12,8 C 97 % 1025,0 hPa 0,0 l/m 0,0 km/h (0 Bft) S-SW 200 2 min 0,000 mm 0,0 UV-I 237 W/m 7,0 C 7,4 C 0,0 km/h (0 Bft) 100,00 %
04.10.2017 08:30 7,6 C 12,8 C 97 % 1025,0 hPa 0,0 l/m 0,0 km/h (0 Bft) S-SW 200 2 min 0,000 mm 0,0 UV-I 227 W/m 7,2 C 7,6 C 0,0 km/h (0 Bft) 100,00 %
04.10.2017 08:32 7,7 C 12,8 C 97 % 1025,0 hPa 0,0 l/m 0,0 km/h (0 Bft) S-SW 200 2 min 0,000 mm 0,0 UV-I 245 W/m 7,3 C 7,7 C 0,0 km/h (0 Bft) 100,00 %
04.10.2017 08:34 7,8 C 12,8 C 97 % 1025,0 hPa 0,0 l/m 0,0 km/h (0 Bft) S-SW 200 2 min 0,000 mm 0,0 UV-I 245 W/m 7,4 C 7,8 C 0,0 km/h (0 Bft) 100,00 %
04.10.2017 08:36 7,9 C 12,8 C 97 % 1025,0 hPa 0,0 l/m 0,0 km/h (0 Bft) S-SW 200 2 min 0,000 mm 0,0 UV-I 187 W/m 7,5 C 7,9 C 0,0 km/h (0 Bft) 100,00 %
04.10.2017 08:38 8,1 C 12,8 C 97 % 1025,1 hPa 0,0 l/m 0,0 km/h (0 Bft) S-SW 200 2 min 0,000 mm 0,0 UV-I 189 W/m 7,7 C 8,1 C 0,0 km/h (0 Bft) 100,00 %
04.10.2017 08:40 8,2 C 12,8 C 97 % 1025,0 hPa 0,0 l/m 0,0 km/h (0 Bft) S-SW 200 2 min 0,000 mm 0,0 UV-I 175 W/m 7,8 C 8,2 C 0,0 km/h (0 Bft) 100,00 %
04.10.2017 08:42 8,3 C 12,8 C 96 % 1025,1 hPa 0,0 l/m 0,0 km/h (0 Bft) S-SW 200 2 min 0,000 mm 0,0 UV-I 149 W/m 7,7 C 8,3 C 0,0 km/h (0 Bft) 100,00 %
04.10.2017 08:44 8,4 C 12,8 C 96 % 1025,1 hPa 0,0 l/m 0,0 km/h (0 Bft) S-SW 200 0 min 0,000 mm 0,0 UV-I 129 W/m 7,8 C 8,4 C 0,0 km/h (0 Bft) 97,56 %
04.10.2017 08:46 8,4 C 12,8 C 96 % 1025,1 hPa 0,0 l/m 0,0 km/h (0 Bft) S-SW 200 0 min 0,000 mm 0,0 UV-I 124 W/m 7,8 C 8,4 C 0,0 km/h (0 Bft) 98,11 %
04.10.2017 08:48 8,6 C 12,8 C 96 % 1025,1 hPa 0,0 l/m 0,0 km/h (0 Bft) S-SW 200 0 min 0,000 mm 0,0 UV-I 125 W/m 8,0 C 8,6 C 0,0 km/h (0 Bft) 97,87 %
04.10.2017 08:50 8,6 C 12,8 C 95 % 1025,1 hPa 0,0 l/m 0,0 km/h (0 Bft) S-SW 200 0 min 0,000 mm 0,0 UV-I 124 W/m 7,8 C 8,6 C 0,0 km/h (0 Bft) 97,87 %
04.10.2017 08:52 8,7 C 12,8 C 95 % 1025,0 hPa 0,0 l/m 0,0 km/h (0 Bft) S-SW 200 0 min 0,000 mm 0,0 UV-I 125 W/m 7,9 C 8,7 C 0,0 km/h (0 Bft) 97,87 %
04.10.2017 08:54 8,8 C 12,8 C 95 % 1025,0 hPa 0,0 l/m 0,2 km/h (0 Bft) S-SW 200 0 min 0,000 mm 0,0 UV-I 130 W/m 8,0 C 8,8 C 1,6 km/h (1 Bft) 95,74 %
04.10.2017 08:56 8,9 C 12,8 C 95 % 1025,0 hPa 0,0 l/m 0,7 km/h (0 Bft) S-SW 200 0 min 0,000 mm 0,0 UV-I 136 W/m 8,1 C 8,9 C 1,6 km/h (1 Bft) 100,00 %
04.10.2017 08:58 9,0 C 12,8 C 95 % 1025,0 hPa 0,0 l/m 0,6 km/h (0 Bft) S-SW 200 0 min 0,000 mm 0,0 UV-I 131 W/m 8,2 C 9,0 C 1,6 km/h (1 Bft) 95,16 %
04.10.2017 09:00 9,1 C 12,8 C 95 % 1025,0 hPa 0,0 l/m 0,3 km/h (0 Bft) S-SW 200 0 min 0,051 mm 0,2 UV-I 133 W/m 8,3 C 9,1 C 1,6 km/h (1 Bft) 95,74 %
04.10.2017 09:02 9,1 C 12,8 C 95 % 1025,0 hPa 0,0 l/m 0,0 km/h (0 Bft) S-SW 200 0 min 0,000 mm 0,5 UV-I 162 W/m 8,3 C 9,1 C 0,0 km/h (0 Bft) 95,74 %
04.10.2017 09:04 9,1 C 12,8 C 94 % 1025,0 hPa 0,0 l/m 0,0 km/h (0 Bft) S-SW 200 2 min 0,000 mm 0,5 UV-I 173 W/m 8,2 C 9,1 C 1,6 km/h (1 Bft) 92,00 %
04.10.2017 09:06 9,1 C 12,8 C 94 % 1025,1 hPa 0,0 l/m 0,0 km/h (0 Bft) S-SW 200 2 min 0,000 mm 0,5 UV-I 216 W/m 8,2 C 9,1 C 0,0 km/h (0 Bft) 97,22 %
04.10.2017 09:08 9,2 C 12,8 C 94 % 1025,0 hPa 0,0 l/m 0,0 km/h (0 Bft) S-SW 200 2 min 0,000 mm 0,6 UV-I 254 W/m 8,3 C 9,2 C 0,0 km/h (0 Bft) 94,55 %
04.10.2017 09:10 9,3 C 12,8 C 94 % 1025,0 hPa 0,0 l/m 0,0 km/h (0 Bft) S-SW 200 2 min 0,000 mm 0,6 UV-I 254 W/m 8,4 C 9,3 C 0,0 km/h (0 Bft) 96,00 %
04.10.2017 09:12 9,4 C 12,8 C 94 % 1025,0 hPa 0,0 l/m 0,1 km/h (0 Bft) S-SW 200 2 min 0,000 mm 0,6 UV-I 271 W/m 8,5 C 9,4 C 1,6 km/h (1 Bft) 94,87 %
04.10.2017 09:14 9,6 C 12,8 C 94 % 1025,0 hPa 0,0 l/m 0,1 km/h (0 Bft) S-SW 200 2 min 0,000 mm 0,6 UV-I 217 W/m 8,7 C 9,6 C 1,6 km/h (1 Bft) 96,23 %
04.10.2017 09:16 9,7 C 12,8 C 93 % 1024,9 hPa 0,0 l/m 0,2 km/h (0 Bft) S-SW 200 2 min 0,000 mm 0,7 UV-I 216 W/m 8,6 C 9,7 C 1,6 km/h (1 Bft) 93,62 %
04.10.2017 09:18 9,8 C 12,8 C 93 % 1024,9 hPa 0,0 l/m 1,3 km/h (1 Bft) S-SW 200 2 min 0,000 mm 0,7 UV-I 274 W/m 8,7 C 9,8 C 3,2 km/h (1 Bft) 89,47 %
04.10.2017 09:20 9,9 C 12,8 C 93 % 1024,9 hPa 0,0 l/m 1,7 km/h (1 Bft) S-SW 200 2 min 0,000 mm 0,8 UV-I 305 W/m 8,8 C 9,9 C 3,2 km/h (1 Bft) 94,00 %
04.10.2017 09:22 10,0 C 12,8 C 92 % 1025,0 hPa 0,0 l/m 0,1 km/h (0 Bft) S-SW 200 2 min 0,000 mm 0,8 UV-I 337 W/m 8,8 C 10,0 C 1,6 km/h (1 Bft) 94,00 %
04.10.2017 09:24 10,1 C 12,8 C 92 % 1025,0 hPa 0,0 l/m 2,3 km/h (1 Bft) S-SW 200 2 min 0,000 mm 0,8 UV-I 269 W/m 8,9 C 10,1 C 4,8 km/h (1 Bft) 94,00 %
04.10.2017 09:26 10,2 C 12,8 C 92 % 1025,0 hPa 0,0 l/m 2,0 km/h (1 Bft) S-SW 200 2 min 0,000 mm 0,8 UV-I 239 W/m 9,0 C 10,2 C 3,2 km/h (1 Bft) 94,74 %
04.10.2017 09:28 10,2 C 12,8 C 92 % 1025,0 hPa 0,0 l/m 0,1 km/h (0 Bft) S-SW 200 2 min 0,000 mm 0,8 UV-I 275 W/m 9,0 C 10,2 C 1,6 km/h (1 Bft) 96,23 %
04.10.2017 09:30 10,3 C 12,8 C 92 % 1025,0 hPa 0,0 l/m 0,8 km/h (0 Bft) S-SW 200 2 min 0,000 mm 0,9 UV-I 331 W/m 9,1 C 10,3 C 3,2 km/h (1 Bft) 94,00 %
04.10.2017 09:32 10,3 C 12,8 C 91 % 1025,1 hPa 0,0 l/m 1,9 km/h (1 Bft) S-SW 200 2 min 0,000 mm 0,8 UV-I 266 W/m 8,9 C 10,3 C 3,2 km/h (1 Bft) 95,74 %
04.10.2017 09:34 10,3 C 12,8 C 91 % 1025,1 hPa 0,0 l/m 2,6 km/h (1 Bft) S-SW 200 2 min 0,000 mm 0,8 UV-I 298 W/m 8,9 C 10,3 C 4,8 km/h (1 Bft) 94,29 %
04.10.2017 09:36 10,4 C 12,8 C 91 % 1025,1 hPa 0,0 l/m 1,8 km/h (1 Bft) S-SW 200 2 min 0,000 mm 0,9 UV-I 317 W/m 9,0 C 10,4 C 3,2 km/h (1 Bft) 96,23 %
04.10.2017 09:38 10,4 C 12,8 C 91 % 1025,1 hPa 0,0 l/m 1,1 km/h (1 Bft) S-SW 200 2 min 0,000 mm 0,9 UV-I 267 W/m 9,0 C 10,4 C 3,2 km/h (1 Bft) 97,87 %
04.10.2017 09:40 10,5 C 12,8 C 91 % 1025,0 hPa 0,0 l/m 0,0 km/h (0 Bft) S-SW 200 2 min 0,000 mm 0,9 UV-I 271 W/m 9,1 C 10,5 C 0,0 km/h (0 Bft) 96,00 %
04.10.2017 09:42 10,7 C 12,8 C 91 % 1025,1 hPa 0,0 l/m 0,1 km/h (0 Bft) S-SW 200 2 min 0,000 mm 0,9 UV-I 282 W/m 9,3 C 10,7 C 1,6 km/h (1 Bft) 97,56 %
04.10.2017 09:44 10,8 C 12,8 C 91 % 1025,0 hPa 0,0 l/m 0,1 km/h (0 Bft) S-SW 200 2 min 0,000 mm 1,0 UV-I 293 W/m 9,4 C 10,8 C 1,6 km/h (1 Bft) 95,74 %
04.10.2017 09:46 10,8 C 12,8 C 90 % 1025,0 hPa 0,0 l/m 0,4 km/h (0 Bft) S-SW 200 2 min 0,000 mm 1,0 UV-I 303 W/m 9,2 C 10,8 C 1,6 km/h (1 Bft) 98,00 %
04.10.2017 09:48 10,9 C 12,8 C 91 % 1025,0 hPa 0,0 l/m 1,0 km/h (0 Bft) S-SW 200 2 min 0,000 mm 1,1 UV-I 350 W/m 9,5 C 10,9 C 3,2 km/h (1 Bft) 97,22 %
04.10.2017 09:50 11,1 C 12,8 C 90 % 1025,0 hPa 0,0 l/m 0,5 km/h (0 Bft) S-SW 200 2 min 0,000 mm 1,2 UV-I 410 W/m 9,5 C 11,1 C 3,2 km/h (1 Bft) 98,11 %
04.10.2017 09:52 11,2 C 12,8 C 90 % 1024,9 hPa 0,0 l/m 2,8 km/h (1 Bft) SW 215 2 min 0,000 mm 1,2 UV-I 437 W/m 9,6 C 11,2 C 6,4 km/h (2 Bft) 98,00 %
04.10.2017 09:54 11,3 C 12,8 C 89 % 1024,9 hPa 0,0 l/m 1,8 km/h (1 Bft) SW 215 2 min 0,000 mm 1,3 UV-I 451 W/m 9,6 C 11,3 C 4,8 km/h (1 Bft) 95,74 %
04.10.2017 09:56 11,5 C 12,8 C 89 % 1024,8 hPa 0,0 l/m 0,6 km/h (0 Bft) S-SW 213 2 min 0,000 mm 1,3 UV-I 455 W/m 9,8 C 11,5 C 1,6 km/h (1 Bft) 97,87 %
04.10.2017 09:58 11,5 C 12,8 C 88 % 1024,9 hPa 0,0 l/m 4,6 km/h (1 Bft) S-SW 194 2 min 0,000 mm 1,3 UV-I 470 W/m 9,6 C 11,5 C 9,7 km/h (2 Bft) 95,12 %
04.10.2017 10:00 11,6 C 12,8 C 87 % 1024,9 hPa 0,0 l/m 4,1 km/h (1 Bft) W-SW 247 2 min 0,153 mm 1,4 UV-I 488 W/m 9,5 C 11,6 C 8,0 km/h (2 Bft) 100,00 %
04.10.2017 10:02 11,5 C 12,8 C 88 % 1024,9 hPa 0,0 l/m 3,2 km/h (1 Bft) S-SW 211 2 min 0,000 mm 1,3 UV-I 473 W/m 9,6 C 11,5 C 6,4 km/h (2 Bft) 95,45 %
04.10.2017 10:04 11,7 C 12,8 C 88 % 1024,9 hPa 0,0 l/m 1,5 km/h (1 Bft) S-SW 208 2 min 0,000 mm 1,3 UV-I 392 W/m 9,8 C 11,7 C 4,8 km/h (1 Bft) 98,11 %
04.10.2017 10:06 11,8 C 12,8 C 88 % 1024,9 hPa 0,0 l/m 4,5 km/h (1 Bft) SW 223 2 min 0,000 mm 1,3 UV-I 393 W/m 9,9 C 11,8 C 9,7 km/h (2 Bft) 100,00 %
04.10.2017 10:08 11,9 C 12,8 C 87 % 1024,9 hPa 0,0 l/m 5,0 km/h (1 Bft) SW 221 2 min 0,000 mm 1,3 UV-I 400 W/m 9,8 C 11,9 C 9,7 km/h (2 Bft) 98,21 %
04.10.2017 10:10 11,9 C 12,8 C 87 % 1025,0 hPa 0,0 l/m 4,5 km/h (1 Bft) S-SW 205 2 min 0,000 mm 1,4 UV-I 432 W/m 9,8 C 11,9 C 8,0 km/h (2 Bft) 100,00 %
04.10.2017 10:12 11,9 C 12,8 C 87 % 1024,9 hPa 0,0 l/m 6,0 km/h (2 Bft) S-SW 210 2 min 0,000 mm 1,5 UV-I 513 W/m 9,8 C 11,9 C 8,0 km/h (2 Bft) 100,00 %
04.10.2017 10:14 11,9 C 12,8 C 87 % 1024,9 hPa 0,0 l/m 4,4 km/h (1 Bft) S 175 2 min 0,000 mm 1,5 UV-I 530 W/m 9,8 C 11,9 C 6,4 km/h (2 Bft) 100,00 %
04.10.2017 10:16 11,9 C 12,8 C 87 % 1024,9 hPa 0,0 l/m 1,2 km/h (1 Bft) S 172 2 min 0,000 mm 1,5 UV-I 554 W/m 9,8 C 11,9 C 3,2 km/h (1 Bft) 100,00 %
04.10.2017 10:18 11,9 C 12,8 C 87 % 1024,9 hPa 0,0 l/m 4,2 km/h (1 Bft) SW 217 0 min 0,000 mm 1,3 UV-I 251 W/m 9,8 C 11,9 C 8,0 km/h (2 Bft) 100,00 %
04.10.2017 10:20 11,9 C 12,8 C 87 % 1024,9 hPa 0,0 l/m 5,1 km/h (1 Bft) S-SW 192 2 min 0,000 mm 1,5 UV-I 293 W/m 9,8 C 11,9 C 8,0 km/h (2 Bft) 100,00 %
04.10.2017 10:22 11,9 C 12,8 C 87 % 1024,9 hPa 0,0 l/m 2,9 km/h (1 Bft) SW 224 2 min 0,000 mm 1,6 UV-I 481 W/m 9,8 C 11,9 C 6,4 km/h (2 Bft) 95,45 %
04.10.2017 10:24 11,9 C 12,8 C 87 % 1024,8 hPa 0,0 l/m 0,6 km/h (0 Bft) SW 224 2 min 0,000 mm 1,7 UV-I 498 W/m 9,8 C 11,9 C 3,2 km/h (1 Bft) 100,00 %
04.10.2017 10:26 11,9 C 12,8 C 87 % 1024,9 hPa 0,0 l/m 3,3 km/h (1 Bft) SW 223 2 min 0,000 mm 1,7 UV-I 548 W/m 9,8 C 11,9 C 9,7 km/h (2 Bft) 100,00 %
04.10.2017 10:28 11,9 C 12,8 C 87 % 1024,8 hPa 0,0 l/m 7,1 km/h (2 Bft) S 179 2 min 0,000 mm 1,8 UV-I 584 W/m 9,8 C 11,4 C 12,9 km/h (3 Bft) 100,00 %
04.10.2017 10:30 12,6 C 12,8 C 84 % 1024,9 hPa 0,0 l/m 6,4 km/h (2 Bft) S-SW 196 2 min 0,000 mm 1,8 UV-I 560 W/m 10,0 C 12,6 C 9,7 km/h (2 Bft) 100,00 %
04.10.2017 10:32 12,6 C 12,8 C 84 % 1024,9 hPa 0,0 l/m 4,1 km/h (1 Bft) S-SO 161 2 min 0,000 mm 1,9 UV-I 594 W/m 10,0 C 12,6 C 8,0 km/h (2 Bft) 100,00 %
04.10.2017 10:34 12,5 C 12,8 C 83 % 1024,8 hPa 0,0 l/m 5,4 km/h (1 Bft) S-SO 161 2 min 0,000 mm 1,8 UV-I 530 W/m 9,7 C 12,5 C 12,9 km/h (3 Bft) 100,00 %
04.10.2017 10:36 12,6 C 12,8 C 85 % 1024,9 hPa 0,0 l/m 5,8 km/h (2 Bft) S 176 2 min 0,000 mm 1,9 UV-I 496 W/m 10,1 C 12,6 C 11,3 km/h (2 Bft) 97,14 %
04.10.2017 10:38 12,6 C 12,8 C 84 % 1024,9 hPa 0,0 l/m 4,1 km/h (1 Bft) W-SW 237 2 min 0,000 mm 1,6 UV-I 516 W/m 10,0 C 12,6 C 9,7 km/h (2 Bft) 98,11 %
04.10.2017 10:40 12,7 C 12,8 C 83 % 1024,8 hPa 0,0 l/m 4,4 km/h (1 Bft) S 178 0 min 0,000 mm 1,4 UV-I 261 W/m 9,9 C 12,7 C 8,0 km/h (2 Bft) 100,00 %
04.10.2017 10:42 12,6 C 12,8 C 82 % 1024,8 hPa 0,0 l/m 1,9 km/h (1 Bft) S 180 2 min 0,000 mm 1,6 UV-I 337 W/m 9,6 C 12,6 C 4,8 km/h (1 Bft) 100,00 %
04.10.2017 10:44 12,6 C 12,8 C 83 % 1024,9 hPa 0,0 l/m 5,7 km/h (1 Bft) W-SW 258 2 min 0,000 mm 1,6 UV-I 340 W/m 9,8 C 12,6 C 12,9 km/h (3 Bft) 100,00 %
04.10.2017 10:46 12,7 C 12,8 C 81 % 1025,0 hPa 0,0 l/m 7,5 km/h (2 Bft) S-SW 192 2 min 0,000 mm 1,6 UV-I 388 W/m 9,5 C 12,0 C 11,3 km/h (2 Bft) 100,00 %
04.10.2017 10:48 12,7 C 12,8 C 81 % 1024,9 hPa 0,0 l/m 4,6 km/h (1 Bft) W-NW 287 2 min 0,000 mm 1,7 UV-I 376 W/m 9,5 C 12,7 C 6,4 km/h (2 Bft) 100,00 %
04.10.2017 10:50 12,7 C 12,8 C 81 % 1024,9 hPa 0,0 l/m 6,1 km/h (2 Bft) S-SW 196 2 min 0,000 mm 1,7 UV-I 444 W/m 9,5 C 12,7 C 11,3 km/h (2 Bft) 97,87 %
04.10.2017 10:52 12,8 C 12,8 C 83 % 1024,9 hPa 0,0 l/m 3,6 km/h (1 Bft) S-SW 209 2 min 0,000 mm 1,7 UV-I 444 W/m 10,0 C 12,8 C 6,4 km/h (2 Bft) 96,23 %
04.10.2017 10:54 12,8 C 12,8 C 82 % 1024,9 hPa 0,0 l/m 6,1 km/h (2 Bft) SW 216 2 min 0,000 mm 1,6 UV-I 376 W/m 9,8 C 12,8 C 8,0 km/h (2 Bft) 97,56 %
04.10.2017 10:56 12,9 C 12,8 C 82 % 1024,9 hPa 0,0 l/m 5,0 km/h (1 Bft) S-SW 209 2 min 0,000 mm 1,7 UV-I 435 W/m 9,9 C 12,9 C 8,0 km/h (2 Bft) 98,21 %
04.10.2017 10:58 12,9 C 12,8 C 81 % 1024,9 hPa 0,0 l/m 2,3 km/h (1 Bft) S-SW 204 2 min 0,000 mm 1,8 UV-I 481 W/m 9,7 C 12,9 C 4,8 km/h (1 Bft) 97,37 %
04.10.2017 11:00 12,8 C 12,8 C 81 % 1024,9 hPa 0,0 l/m 0,8 km/h (0 Bft) S-SW 203 2 min 0,228 mm 1,9 UV-I 446 W/m 9,6 C 12,8 C 3,2 km/h (1 Bft) 98,00 %
04.10.2017 11:02 12,8 C 12,8 C 82 % 1024,9 hPa 0,0 l/m 3,4 km/h (1 Bft) W 269 2 min 0,000 mm 1,8 UV-I 422 W/m 9,8 C 12,8 C 6,4 km/h (2 Bft) 96,00 %
04.10.2017 11:04 12,9 C 12,8 C 80 % 1024,9 hPa 0,0 l/m 5,6 km/h (1 Bft) W-SW 249 2 min 0,000 mm 1,7 UV-I 336 W/m 9,5 C 12,9 C 8,0 km/h (2 Bft) 97,87 %
04.10.2017 11:06 12,9 C 12,8 C 79 % 1024,8 hPa 0,0 l/m 2,7 km/h (1 Bft) N 11 2 min 0,000 mm 1,8 UV-I 410 W/m 9,3 C 12,9 C 4,8 km/h (1 Bft) 97,22 %
04.10.2017 11:08 13,0 C 12,8 C 81 % 1024,8 hPa 0,0 l/m 1,5 km/h (1 Bft) N 11 2 min 0,000 mm 1,8 UV-I 466 W/m 9,8 C 13,0 C 3,2 km/h (1 Bft) 96,00 %
04.10.2017 11:10 13,1 C 12,8 C 80 % 1024,7 hPa 0,0 l/m 1,4 km/h (1 Bft) NW 304 2 min 0,000 mm 1,8 UV-I 392 W/m 9,7 C 13,1 C 4,8 km/h (1 Bft) 98,00 %
04.10.2017 11:12 13,1 C 12,8 C 80 % 1024,7 hPa 0,0 l/m 0,8 km/h (0 Bft) NW 304 2 min 0,000 mm 1,9 UV-I 435 W/m 9,7 C 13,1 C 3,2 km/h (1 Bft) 98,00 %
04.10.2017 11:14 13,1 C 12,8 C 80 % 1024,7 hPa 0,0 l/m 1,8 km/h (1 Bft) W 268 2 min 0,000 mm 1,8 UV-I 414 W/m 9,7 C 13,1 C 8,0 km/h (2 Bft) 97,73 %
04.10.2017 11:16 13,2 C 12,8 C 80 % 1024,8 hPa 0,0 l/m 2,7 km/h (1 Bft) W 268 2 min 0,000 mm 1,8 UV-I 390 W/m 9,8 C 13,2 C 6,4 km/h (2 Bft) 96,23 %
04.10.2017 11:18 13,3 C 12,8 C 79 % 1024,7 hPa 0,0 l/m 3,5 km/h (1 Bft) S-SW 208 2 min 0,000 mm 1,9 UV-I 395 W/m 9,7 C 13,3 C 6,4 km/h (2 Bft) 100,00 %
04.10.2017 11:20 13,4 C 12,8 C 81 % 1024,7 hPa 0,0 l/m 3,6 km/h (1 Bft) W-NW 298 2 min 0,000 mm 2,0 UV-I 442 W/m 10,2 C 13,4 C 6,4 km/h (2 Bft) 100,00 %
04.10.2017 11:22 13,4 C 12,8 C 79 % 1024,7 hPa 0,0 l/m 2,4 km/h (1 Bft) W-NW 294 2 min 0,000 mm 2,0 UV-I 458 W/m 9,8 C 13,4 C 4,8 km/h (1 Bft) 97,56 %
04.10.2017 11:24 13,5 C 12,8 C 78 % 1024,6 hPa 0,0 l/m 3,6 km/h (1 Bft) W-SW 240 2 min 0,000 mm 2,0 UV-I 438 W/m 9,7 C 13,5 C 8,0 km/h (2 Bft) 100,00 %
04.10.2017 11:26 13,5 C 12,8 C 79 % 1024,6 hPa 0,0 l/m 4,6 km/h (1 Bft) S-SW 206 2 min 0,000 mm 2,0 UV-I 420 W/m 9,9 C 13,5 C 8,0 km/h (2 Bft) 95,74 %
04.10.2017 11:28 13,6 C 12,8 C 80 % 1024,6 hPa 0,0 l/m 0,8 km/h (0 Bft) W-NW 286 2 min 0,000 mm 2,1 UV-I 428 W/m 10,2 C 13,6 C 3,2 km/h (1 Bft) 100,00 %
04.10.2017 11:30 13,6 C 12,8 C 78 % 1024,7 hPa 0,0 l/m 3,4 km/h (1 Bft) N-NW 333 2 min 0,000 mm 2,2 UV-I 451 W/m 9,8 C 13,6 C 6,4 km/h (2 Bft) 100,00 %
04.10.2017 11:32 13,6 C 12,8 C 79 % 1024,6 hPa 0,0 l/m 1,6 km/h (1 Bft) N-NW 327 2 min 0,000 mm 2,2 UV-I 479 W/m 10,0 C 13,6 C 4,8 km/h (1 Bft) 100,00 %
04.10.2017 11:34 13,8 C 12,8 C 81 % 1024,5 hPa 0,0 l/m 2,1 km/h (1 Bft) W-NW 292 2 min 0,000 mm 2,2 UV-I 497 W/m 10,6 C 13,8 C 4,8 km/h (1 Bft) 94,74 %
04.10.2017 11:36 13,7 C 12,8 C 78 % 1024,5 hPa 0,0 l/m 1,5 km/h (1 Bft) W-NW 302 2 min 0,000 mm 2,2 UV-I 465 W/m 9,9 C 13,7 C 3,2 km/h (1 Bft) 100,00 %
04.10.2017 11:38 13,8 C 12,8 C 78 % 1024,4 hPa 0,0 l/m 2,4 km/h (1 Bft) N-NW 339 2 min 0,000 mm 2,2 UV-I 446 W/m 10,0 C 13,8 C 6,4 km/h (2 Bft) 97,87 %
04.10.2017 11:40 13,7 C 12,8 C 77 % 1024,4 hPa 0,0 l/m 3,7 km/h (1 Bft) W 278 2 min 0,000 mm 2,2 UV-I 455 W/m 9,7 C 13,7 C 11,3 km/h (2 Bft) 100,00 %
04.10.2017 11:42 13,6 C 12,8 C 77 % 1024,4 hPa 0,0 l/m 4,3 km/h (1 Bft) W-NW 303 2 min 0,000 mm 2,2 UV-I 480 W/m 9,6 C 13,6 C 6,4 km/h (2 Bft) 97,87 %
04.10.2017 11:44 13,7 C 12,8 C 78 % 1024,3 hPa 0,0 l/m 2,0 km/h (1 Bft) W 276 2 min 0,000 mm 2,3 UV-I 506 W/m 9,9 C 13,7 C 3,2 km/h (1 Bft) 100,00 %
04.10.2017 11:46 13,7 C 12,8 C 78 % 1024,2 hPa 0,0 l/m 3,7 km/h (1 Bft) W-SW 256 2 min 0,000 mm 2,4 UV-I 505 W/m 9,9 C 13,7 C 8,0 km/h (2 Bft) 100,00 %
04.10.2017 11:48 13,5 C 12,8 C 76 % 1024,2 hPa 0,0 l/m 3,4 km/h (1 Bft) SW 222 2 min 0,000 mm 2,2 UV-I 445 W/m 9,4 C 13,5 C 4,8 km/h (1 Bft) 100,00 %
04.10.2017 11:50 13,5 C 12,8 C 76 % 1024,2 hPa 0,0 l/m 3,3 km/h (1 Bft) W 259 2 min 0,000 mm 2,1 UV-I 381 W/m 9,4 C 13,5 C 6,4 km/h (2 Bft) 100,00 %
04.10.2017 11:52 13,4 C 12,8 C 76 % 1024,2 hPa 0,0 l/m 2,9 km/h (1 Bft) W 259 2 min 0,000 mm 2,2 UV-I 350 W/m 9,3 C 13,4 C 6,4 km/h (2 Bft) 98,39 %
04.10.2017 11:54 13,4 C 12,8 C 77 % 1024,0 hPa 0,0 l/m 0,0 km/h (0 Bft) W 259 2 min 0,000 mm 2,2 UV-I 423 W/m 9,5 C 13,4 C 1,6 km/h (1 Bft) 100,00 %
04.10.2017 11:56 13,6 C 12,8 C 79 % 1024,1 hPa 0,0 l/m 2,3 km/h (1 Bft) NO 40 2 min 0,000 mm 2,1 UV-I 404 W/m 10,0 C 13,6 C 4,8 km/h (1 Bft) 100,00 %
04.10.2017 11:58 13,8 C 12,8 C 79 % 1024,1 hPa 0,0 l/m 1,9 km/h (1 Bft) W-SW 242 2 min 0,000 mm 2,1 UV-I 389 W/m 10,2 C 13,8 C 4,8 km/h (1 Bft) 97,87 %
04.10.2017 12:00 13,8 C 12,8 C 76 % 1024,1 hPa 0,0 l/m 1,4 km/h (1 Bft) W-SW 242 2 min 0,229 mm 2,2 UV-I 396 W/m 9,6 C 13,8 C 3,2 km/h (1 Bft) 100,00 %
04.10.2017 12:02 13,8 C 12,8 C 77 % 1024,0 hPa 0,0 l/m 2,1 km/h (1 Bft) W-SW 242 2 min 0,000 mm 2,3 UV-I 433 W/m 9,8 C 13,8 C 4,8 km/h (1 Bft) 97,87 %
04.10.2017 12:04 13,9 C 12,8 C 77 % 1024,0 hPa 0,0 l/m 5,4 km/h (1 Bft) W-SW 243 2 min 0,000 mm 2,4 UV-I 471 W/m 9,9 C 13,9 C 12,9 km/h (3 Bft) 100,00 %
04.10.2017 12:06 14,1 C 12,8 C 76 % 1024,0 hPa 0,0 l/m 4,6 km/h (1 Bft) W-SW 246 2 min 0,000 mm 2,5 UV-I 475 W/m 9,9 C 14,1 C 12,9 km/h (3 Bft) 100,00 %
04.10.2017 12:08 13,9 C 12,8 C 74 % 1024,0 hPa 0,0 l/m 1,8 km/h (1 Bft) S 175 2 min 0,000 mm 2,5 UV-I 493 W/m 9,3 C 13,9 C 6,4 km/h (2 Bft) 98,11 %
04.10.2017 12:10 13,7 C 12,8 C 75 % 1024,1 hPa 0,0 l/m 2,7 km/h (1 Bft) S-SO 159 2 min 0,000 mm 2,6 UV-I 504 W/m 9,3 C 13,7 C 6,4 km/h (2 Bft) 100,00 %
04.10.2017 12:12 13,8 C 12,8 C 76 % 1024,1 hPa 0,0 l/m 1,3 km/h (1 Bft) S-SO 159 2 min 0,000 mm 2,7 UV-I 552 W/m 9,6 C 13,8 C 3,2 km/h (1 Bft) 100,00 %
04.10.2017 12:14 13,9 C 12,8 C 77 % 1024,1 hPa 0,0 l/m 0,9 km/h (0 Bft) S-SO 159 2 min 0,000 mm 2,6 UV-I 519 W/m 9,9 C 13,9 C 6,4 km/h (2 Bft) 100,00 %
04.10.2017 12:16 14,3 C 12,8 C 77 % 1024,2 hPa 0,0 l/m 0,2 km/h (0 Bft) S-SO 159 2 min 0,000 mm 2,7 UV-I 528 W/m 10,3 C 14,3 C 1,6 km/h (1 Bft) 100,00 %
04.10.2017 12:18 14,6 C 12,8 C 76 % 1024,1 hPa 0,0 l/m 3,1 km/h (1 Bft) S-SW 207 2 min 0,000 mm 2,7 UV-I 539 W/m 10,4 C 14,6 C 6,4 km/h (2 Bft) 100,00 %
04.10.2017 12:20 14,7 C 12,8 C 75 % 1024,1 hPa 0,0 l/m 4,7 km/h (1 Bft) W-NW 298 2 min 0,000 mm 2,7 UV-I 544 W/m 10,3 C 14,7 C 11,3 km/h (2 Bft) 100,00 %
04.10.2017 12:22 14,6 C 12,8 C 75 % 1024,1 hPa 0,0 l/m 5,9 km/h (2 Bft) W-SW 252 2 min 0,000 mm 2,7 UV-I 526 W/m 10,2 C 14,6 C 11,3 km/h (2 Bft) 100,00 %
04.10.2017 12:24 14,4 C 12,8 C 75 % 1024,0 hPa 0,0 l/m 5,6 km/h (1 Bft) W-SW 255 2 min 0,000 mm 2,5 UV-I 468 W/m 10,0 C 14,4 C 11,3 km/h (2 Bft) 100,00 %
04.10.2017 12:26 14,4 C 12,8 C 77 % 1024,0 hPa 0,0 l/m 5,0 km/h (1 Bft) W-NW 283 2 min 0,000 mm 2,5 UV-I 507 W/m 10,4 C 14,4 C 9,7 km/h (2 Bft) 100,00 %
04.10.2017 12:28 14,3 C 12,8 C 75 % 1024,0 hPa 0,0 l/m 5,4 km/h (1 Bft) W 261 2 min 0,000 mm 2,6 UV-I 472 W/m 9,9 C 14,3 C 6,4 km/h (2 Bft) 97,62 %
04.10.2017 12:30 14,3 C 12,8 C 76 % 1024,0 hPa 0,0 l/m 5,9 km/h (2 Bft) W 265 2 min 0,000 mm 2,6 UV-I 523 W/m 10,1 C 14,3 C 9,7 km/h (2 Bft) 100,00 %
04.10.2017 12:32 14,2 C 12,8 C 75 % 1024,0 hPa 0,0 l/m 4,0 km/h (1 Bft) W 269 2 min 0,000 mm 2,6 UV-I 467 W/m 9,8 C 14,2 C 6,4 km/h (2 Bft) 100,00 %
04.10.2017 12:34 14,2 C 12,8 C 76 % 1023,9 hPa 0,0 l/m 4,4 km/h (1 Bft) W-SW 250 2 min 0,000 mm 2,7 UV-I 509 W/m 10,0 C 14,2 C 6,4 km/h (2 Bft) 100,00 %
04.10.2017 12:36 14,3 C 12,8 C 76 % 1023,9 hPa 0,0 l/m 5,3 km/h (1 Bft) S-SW 194 2 min 0,000 mm 2,7 UV-I 544 W/m 10,1 C 14,3 C 9,7 km/h (2 Bft) 100,00 %
04.10.2017 12:38 14,4 C 12,8 C 75 % 1023,8 hPa 0,0 l/m 5,7 km/h (1 Bft) SW 226 2 min 0,000 mm 2,7 UV-I 510 W/m 10,0 C 14,4 C 8,0 km/h (2 Bft) 100,00 %
04.10.2017 12:40 14,4 C 12,8 C 75 % 1023,9 hPa 0,0 l/m 3,8 km/h (1 Bft) SW 229 2 min 0,000 mm 2,5 UV-I 439 W/m 10,0 C 14,4 C 6,4 km/h (2 Bft) 97,06 %
04.10.2017 12:42 14,4 C 12,8 C 76 % 1023,8 hPa 0,0 l/m 6,3 km/h (2 Bft) SW 235 2 min 0,000 mm 2,4 UV-I 408 W/m 10,2 C 14,4 C 12,9 km/h (3 Bft) 97,87 %
04.10.2017 12:44 14,4 C 12,8 C 75 % 1023,8 hPa 0,0 l/m 3,7 km/h (1 Bft) SW 231 2 min 0,000 mm 2,5 UV-I 437 W/m 10,0 C 14,4 C 6,4 km/h (2 Bft) 96,00 %
04.10.2017 12:46 14,5 C 12,8 C 74 % 1023,7 hPa 0,0 l/m 7,0 km/h (2 Bft) SW 227 2 min 0,000 mm 2,4 UV-I 421 W/m 9,9 C 14,2 C 9,7 km/h (2 Bft) 92,11 %
04.10.2017 12:48 14,4 C 12,8 C 74 % 1023,8 hPa 0,0 l/m 7,1 km/h (2 Bft) W-SW 247 2 min 0,000 mm 2,4 UV-I 448 W/m 9,8 C 14,0 C 11,3 km/h (2 Bft) 98,00 %
04.10.2017 12:50 14,5 C 12,8 C 74 % 1023,7 hPa 0,0 l/m 4,5 km/h (1 Bft) W-SW 248 2 min 0,000 mm 2,5 UV-I 446 W/m 9,9 C 14,5 C 9,7 km/h (2 Bft) 97,73 %
04.10.2017 12:52 14,6 C 12,8 C 76 % 1023,6 hPa 0,0 l/m 4,9 km/h (1 Bft) W-SW 238 2 min 0,000 mm 2,4 UV-I 423 W/m 10,4 C 14,6 C 9,7 km/h (2 Bft) 94,64 %
04.10.2017 12:54 14,7 C 12,8 C 76 % 1023,6 hPa 0,0 l/m 3,8 km/h (1 Bft) SW 215 2 min 0,000 mm 2,6 UV-I 487 W/m 10,5 C 14,7 C 6,4 km/h (2 Bft) 94,74 %
04.10.2017 12:56 14,8 C 12,8 C 76 % 1023,5 hPa 0,0 l/m 3,4 km/h (1 Bft) W 263 2 min 0,000 mm 2,7 UV-I 544 W/m 10,6 C 14,8 C 9,7 km/h (2 Bft) 98,00 %
04.10.2017 12:58 14,9 C 12,8 C 74 % 1023,4 hPa 0,0 l/m 4,9 km/h (1 Bft) S 173 2 min 0,000 mm 2,8 UV-I 558 W/m 10,3 C 14,9 C 8,0 km/h (2 Bft) 97,87 %
04.10.2017 13:00 14,8 C 12,8 C 75 % 1023,4 hPa 0,0 l/m 4,5 km/h (1 Bft) SW 224 2 min 0,254 mm 3,0 UV-I 614 W/m 10,4 C 14,8 C 8,0 km/h (2 Bft) 98,00 %
04.10.2017 13:02 14,9 C 12,8 C 74 % 1023,4 hPa 0,0 l/m 3,3 km/h (1 Bft) S-SW 213 2 min 0,000 mm 3,1 UV-I 636 W/m 10,3 C 14,9 C 6,4 km/h (2 Bft) 97,56 %
04.10.2017 13:04 15,0 C 12,8 C 75 % 1023,4 hPa 0,0 l/m 5,7 km/h (1 Bft) SW 221 2 min 0,000 mm 3,1 UV-I 645 W/m 10,6 C 15,0 C 9,7 km/h (2 Bft) 98,00 %
04.10.2017 13:06 15,1 C 12,8 C 73 % 1023,4 hPa 0,0 l/m 6,4 km/h (2 Bft) SW 236 2 min 0,000 mm 3,1 UV-I 653 W/m 10,3 C 15,1 C 9,7 km/h (2 Bft) 97,92 %
04.10.2017 13:08 15,2 C 12,8 C 73 % 1023,4 hPa 0,0 l/m 4,8 km/h (1 Bft) W-NW 296 2 min 0,000 mm 3,0 UV-I 653 W/m 10,4 C 15,2 C 12,9 km/h (3 Bft) 97,87 %
04.10.2017 13:10 15,2 C 12,8 C 73 % 1023,3 hPa 0,0 l/m 5,9 km/h (2 Bft) W-SW 250 2 min 0,000 mm 3,0 UV-I 630 W/m 10,4 C 15,2 C 9,7 km/h (2 Bft) 100,00 %
04.10.2017 13:12 15,3 C 12,8 C 75 % 1023,3 hPa 0,0 l/m 3,8 km/h (1 Bft) W 279 2 min 0,000 mm 3,0 UV-I 641 W/m 10,9 C 15,3 C 6,4 km/h (2 Bft) 97,14 %
04.10.2017 13:14 15,4 C 12,8 C 71 % 1023,3 hPa 0,0 l/m 5,4 km/h (1 Bft) NW 306 2 min 0,000 mm 2,8 UV-I 561 W/m 10,2 C 15,4 C 11,3 km/h (2 Bft) 100,00 %
04.10.2017 13:16 15,4 C 12,8 C 72 % 1023,2 hPa 0,0 l/m 1,5 km/h (1 Bft) W 264 2 min 0,000 mm 2,8 UV-I 535 W/m 10,4 C 15,4 C 4,8 km/h (1 Bft) 100,00 %
04.10.2017 13:18 15,3 C 12,8 C 71 % 1023,0 hPa 0,0 l/m 3,9 km/h (1 Bft) W 269 2 min 0,000 mm 2,8 UV-I 516 W/m 10,1 C 15,3 C 4,8 km/h (1 Bft) 97,37 %
04.10.2017 13:20 15,4 C 12,8 C 73 % 1023,0 hPa 0,0 l/m 4,6 km/h (1 Bft) NW 319 2 min 0,000 mm 2,7 UV-I 474 W/m 10,6 C 15,4 C 9,7 km/h (2 Bft) 100,00 %
04.10.2017 13:22 15,4 C 12,8 C 73 % 1023,0 hPa 0,0 l/m 2,2 km/h (1 Bft) W-NW 288 2 min 0,000 mm 2,7 UV-I 583 W/m 10,6 C 15,4 C 11,3 km/h (2 Bft) 100,00 %
04.10.2017 13:24 15,3 C 12,8 C 73 % 1023,1 hPa 0,0 l/m 4,6 km/h (1 Bft) W-NW 286 2 min 0,000 mm 2,1 UV-I 375 W/m 10,5 C 15,3 C 11,3 km/h (2 Bft) 100,00 %
04.10.2017 13:26 15,2 C 12,8 C 72 % 1023,1 hPa 0,0 l/m 3,6 km/h (1 Bft) W 265 0 min 0,000 mm 2,3 UV-I 221 W/m 10,2 C 15,2 C 9,7 km/h (2 Bft) 100,00 %
04.10.2017 13:28 15,3 C 12,8 C 73 % 1023,0 hPa 0,0 l/m 3,7 km/h (1 Bft) W-SW 250 2 min 0,000 mm 2,5 UV-I 492 W/m 10,5 C 15,3 C 12,9 km/h (3 Bft) 100,00 %
04.10.2017 13:30 15,3 C 12,8 C 73 % 1023,1 hPa 0,0 l/m 4,3 km/h (1 Bft) N-NW 330 0 min 0,000 mm 2,5 UV-I 227 W/m 10,5 C 15,3 C 12,9 km/h (3 Bft) 98,00 %
04.10.2017 13:32 15,3 C 12,8 C 75 % 1023,0 hPa 0,0 l/m 3,1 km/h (1 Bft) W-NW 302 2 min 0,000 mm 2,8 UV-I 474 W/m 10,9 C 15,3 C 6,4 km/h (2 Bft) 97,37 %
04.10.2017 13:34 15,4 C 12,8 C 73 % 1023,0 hPa 0,0 l/m 4,5 km/h (1 Bft) W-SW 245 2 min 0,000 mm 3,0 UV-I 644 W/m 10,6 C 15,4 C 9,7 km/h (2 Bft) 100,00 %
04.10.2017 13:36 15,6 C 12,8 C 73 % 1022,9 hPa 0,0 l/m 6,4 km/h (2 Bft) W-NW 288 2 min 0,000 mm 3,0 UV-I 652 W/m 10,8 C 15,6 C 12,9 km/h (3 Bft) 100,00 %
04.10.2017 13:38 15,6 C 12,8 C 71 % 1022,8 hPa 0,0 l/m 3,9 km/h (1 Bft) NW 317 2 min 0,000 mm 3,0 UV-I 611 W/m 10,4 C 15,6 C 6,4 km/h (2 Bft) 100,00 %
04.10.2017 13:40 15,6 C 12,8 C 71 % 1022,8 hPa 0,0 l/m 4,3 km/h (1 Bft) W-NW 285 2 min 0,000 mm 3,0 UV-I 647 W/m 10,4 C 15,6 C 6,4 km/h (2 Bft) 98,11 %
04.10.2017 13:42 15,7 C 12,8 C 72 % 1022,7 hPa 0,0 l/m 3,7 km/h (1 Bft) SW 224 2 min 0,000 mm 3,0 UV-I 654 W/m 10,7 C 15,7 C 6,4 km/h (2 Bft) 97,87 %
04.10.2017 13:44 15,8 C 12,8 C 72 % 1022,7 hPa 0,0 l/m 2,6 km/h (1 Bft) W-NW 284 2 min 0,000 mm 3,1 UV-I 651 W/m 10,8 C 15,8 C 4,8 km/h (1 Bft) 100,00 %
04.10.2017 13:46 15,9 C 12,8 C 70 % 1022,8 hPa 0,0 l/m 9,4 km/h (2 Bft) W 259 2 min 0,000 mm 3,2 UV-I 698 W/m 10,4 C 14,4 C 12,9 km/h (3 Bft) 100,00 %
04.10.2017 13:48 15,9 C 12,8 C 70 % 1022,6 hPa 0,0 l/m 6,8 km/h (2 Bft) S 185 2 min 0,000 mm 3,2 UV-I 725 W/m 10,4 C 15,7 C 11,3 km/h (2 Bft) 98,00 %
04.10.2017 13:50 15,9 C 12,8 C 71 % 1022,6 hPa 0,0 l/m 3,8 km/h (1 Bft) S-SW 211 2 min 0,000 mm 3,1 UV-I 694 W/m 10,6 C 15,9 C 8,0 km/h (2 Bft) 97,87 %
04.10.2017 13:52 16,1 C 12,8 C 70 % 1022,6 hPa 0,0 l/m 4,2 km/h (1 Bft) S-SW 212 2 min 0,000 mm 3,1 UV-I 742 W/m 10,6 C 16,1 C 8,0 km/h (2 Bft) 100,00 %
04.10.2017 13:54 16,1 C 12,8 C 71 % 1022,5 hPa 0,0 l/m 5,1 km/h (1 Bft) S-SW 207 2 min 0,000 mm 3,0 UV-I 720 W/m 10,8 C 16,1 C 8,0 km/h (2 Bft) 100,00 %
04.10.2017 13:56 16,3 C 12,8 C 72 % 1022,4 hPa 0,0 l/m 3,1 km/h (1 Bft) W 263 2 min 0,000 mm 2,7 UV-I 663 W/m 11,2 C 16,3 C 6,4 km/h (2 Bft) 100,00 %
04.10.2017 13:58 16,4 C 12,8 C 72 % 1022,3 hPa 0,0 l/m 1,7 km/h (1 Bft) W 277 2 min 0,000 mm 2,6 UV-I 521 W/m 11,3 C 16,4 C 3,2 km/h (1 Bft) 98,00 %
04.10.2017 14:00 16,2 C 12,8 C 69 % 1022,3 hPa 0,0 l/m 2,1 km/h (1 Bft) S-SO 158 2 min 0,305 mm 2,7 UV-I 556 W/m 10,5 C 16,2 C 4,8 km/h (1 Bft) 100,00 %
04.10.2017 14:02 16,1 C 12,8 C 72 % 1022,3 hPa 0,0 l/m 4,1 km/h (1 Bft) W-SW 241 2 min 0,000 mm 2,8 UV-I 579 W/m 11,0 C 16,1 C 8,0 km/h (2 Bft) 100,00 %
04.10.2017 14:04 16,2 C 12,8 C 70 % 1022,3 hPa 0,0 l/m 3,9 km/h (1 Bft) W-SW 241 2 min 0,000 mm 2,8 UV-I 629 W/m 10,7 C 16,2 C 8,0 km/h (2 Bft) 100,00 %
04.10.2017 14:06 16,3 C 12,8 C 71 % 1022,3 hPa 0,0 l/m 7,1 km/h (2 Bft) W-SW 252 2 min 0,000 mm 2,6 UV-I 571 W/m 11,0 C 15,9 C 11,3 km/h (2 Bft) 100,00 %
04.10.2017 14:08 16,3 C 12,8 C 70 % 1022,4 hPa 0,0 l/m 5,0 km/h (1 Bft) W 267 2 min 0,000 mm 2,6 UV-I 538 W/m 10,8 C 16,3 C 9,7 km/h (2 Bft) 100,00 %
04.10.2017 14:10 16,2 C 12,8 C 68 % 1022,4 hPa 0,0 l/m 2,9 km/h (1 Bft) W 278 2 min 0,000 mm 2,5 UV-I 488 W/m 10,3 C 16,2 C 6,4 km/h (2 Bft) 100,00 %
04.10.2017 14:12 16,1 C 12,8 C 68 % 1022,3 hPa 0,0 l/m 2,9 km/h (1 Bft) SW 235 2 min 0,000 mm 2,5 UV-I 498 W/m 10,2 C 16,1 C 6,4 km/h (2 Bft) 96,30 %
04.10.2017 14:14 16,2 C 12,8 C 71 % 1022,3 hPa 0,0 l/m 0,8 km/h (0 Bft) W 278 2 min 0,000 mm 2,3 UV-I 485 W/m 10,9 C 16,2 C 4,8 km/h (1 Bft) 96,15 %
04.10.2017 14:16 16,4 C 12,8 C 69 % 1022,3 hPa 0,0 l/m 6,4 km/h (2 Bft) W 275 2 min 0,000 mm 2,2 UV-I 413 W/m 10,7 C 16,4 C 12,9 km/h (3 Bft) 98,21 %
04.10.2017 14:18 16,3 C 12,8 C 66 % 1022,4 hPa 0,0 l/m 7,7 km/h (2 Bft) W 259 0 min 0,000 mm 1,9 UV-I 308 W/m 9,9 C 15,6 C 12,9 km/h (3 Bft) 100,00 %
04.10.2017 14:20 16,1 C 12,8 C 68 % 1022,3 hPa 0,0 l/m 5,2 km/h (1 Bft) S-SW 197 2 min 0,000 mm 1,9 UV-I 328 W/m 10,2 C 16,1 C 9,7 km/h (2 Bft) 98,44 %
04.10.2017 14:22 16,1 C 12,8 C 70 % 1022,2 hPa 0,0 l/m 8,4 km/h (2 Bft) SW 236 2 min 0,000 mm 2,0 UV-I 389 W/m 10,6 C 15,1 C 14,5 km/h (3 Bft) 98,00 %
04.10.2017 14:24 16,2 C 12,8 C 69 % 1022,1 hPa 0,0 l/m 7,4 km/h (2 Bft) W 271 2 min 0,000 mm 2,0 UV-I 383 W/m 10,5 C 15,7 C 12,9 km/h (3 Bft) 97,92 %
04.10.2017 14:26 16,3 C 12,8 C 68 % 1022,1 hPa 0,0 l/m 9,7 km/h (2 Bft) W-SW 244 2 min 0,000 mm 2,0 UV-I 378 W/m 10,4 C 14,7 C 16,1 km/h (3 Bft) 97,56 %
04.10.2017 14:29 16,3 C 12,8 C 68 % 1022,0 hPa 0,0 l/m 6,5 km/h (2 Bft) S-SW 200 3 min 0,000 mm 2,0 UV-I 397 W/m 10,4 C 16,3 C 11,3 km/h (2 Bft) 97,47 %
04.10.2017 14:30 16,3 C 12,8 C 67 % 1022,0 hPa 0,0 l/m 8,5 km/h (2 Bft) W-SW 257 1 min 0,000 mm 2,0 UV-I 385 W/m 10,2 C 15,2 C 11,3 km/h (2 Bft) 93,33 %
04.10.2017 14:32 16,3 C 12,8 C 69 % 1021,9 hPa 0,0 l/m 7,3 km/h (2 Bft) W-SW 257 2 min 0,000 mm 1,9 UV-I 365 W/m 10,6 C 15,8 C 12,9 km/h (3 Bft) 98,00 %
04.10.2017 14:34 16,2 C 12,8 C 68 % 1022,0 hPa 0,0 l/m 3,5 km/h (1 Bft) W-SW 257 2 min 0,000 mm 1,9 UV-I 379 W/m 10,3 C 16,2 C 6,4 km/h (2 Bft) 96,23 %
04.10.2017 14:36 16,2 C 12,8 C 70 % 1022,0 hPa 0,0 l/m 2,2 km/h (1 Bft) W-SW 250 2 min 0,000 mm 1,9 UV-I 392 W/m 10,7 C 16,2 C 4,8 km/h (1 Bft) 94,74 %
04.10.2017 14:38 16,2 C 12,8 C 70 % 1022,0 hPa 0,0 l/m 3,0 km/h (1 Bft) SW 224 2 min 0,000 mm 1,9 UV-I 417 W/m 10,7 C 16,2 C 8,0 km/h (2 Bft) 98,00 %
04.10.2017 14:40 16,3 C 12,8 C 69 % 1021,9 hPa 0,0 l/m 2,5 km/h (1 Bft) N 5 2 min 0,000 mm 1,8 UV-I 366 W/m 10,6 C 16,3 C 8,0 km/h (2 Bft) 97,87 %
04.10.2017 14:42 16,3 C 12,8 C 70 % 1021,9 hPa 0,0 l/m 2,2 km/h (1 Bft) NW 313 2 min 0,000 mm 1,7 UV-I 318 W/m 10,8 C 16,3 C 4,8 km/h (1 Bft) 94,74 %
04.10.2017 14:44 16,3 C 12,8 C 72 % 1021,8 hPa 0,0 l/m 1,8 km/h (1 Bft) W-NW 298 2 min 0,000 mm 1,7 UV-I 314 W/m 11,2 C 16,3 C 4,8 km/h (1 Bft) 98,00 %
04.10.2017 14:46 16,2 C 12,8 C 69 % 1021,8 hPa 0,0 l/m 3,2 km/h (1 Bft) W-NW 302 2 min 0,000 mm 1,7 UV-I 354 W/m 10,5 C 16,2 C 6,4 km/h (2 Bft) 97,73 %
04.10.2017 14:48 16,2 C 12,8 C 69 % 1021,9 hPa 0,0 l/m 4,0 km/h (1 Bft) W-NW 292 2 min 0,000 mm 1,8 UV-I 395 W/m 10,5 C 16,2 C 6,4 km/h (2 Bft) 98,31 %
04.10.2017 14:50 16,3 C 12,8 C 69 % 1021,9 hPa 0,0 l/m 3,6 km/h (1 Bft) S-SO 165 2 min 0,000 mm 1,7 UV-I 384 W/m 10,6 C 16,3 C 8,0 km/h (2 Bft) 97,56 %
04.10.2017 14:52 16,3 C 12,8 C 67 % 1021,9 hPa 0,0 l/m 4,4 km/h (1 Bft) SW 223 2 min 0,000 mm 1,9 UV-I 425 W/m 10,2 C 16,3 C 11,3 km/h (2 Bft) 98,00 %
04.10.2017 14:54 16,4 C 12,8 C 67 % 1021,8 hPa 0,0 l/m 5,4 km/h (1 Bft) W-SW 252 2 min 0,000 mm 1,9 UV-I 441 W/m 10,3 C 16,4 C 11,3 km/h (2 Bft) 100,00 %
04.10.2017 14:56 16,6 C 12,8 C 66 % 1021,7 hPa 0,0 l/m 5,2 km/h (1 Bft) W-SW 240 2 min 0,000 mm 1,9 UV-I 434 W/m 10,2 C 16,6 C 9,7 km/h (2 Bft) 100,00 %
04.10.2017 14:58 16,7 C 12,8 C 68 % 1021,5 hPa 0,0 l/m 3,6 km/h (1 Bft) SW 236 2 min 0,000 mm 1,9 UV-I 454 W/m 10,8 C 16,7 C 12,9 km/h (3 Bft) 100,00 %
04.10.2017 15:00 16,7 C 12,8 C 65 % 1021,5 hPa 0,0 l/m 4,8 km/h (1 Bft) SW 225 2 min 0,000 mm 2,0 UV-I 535 W/m 10,1 C 16,7 C 8,0 km/h (2 Bft) 100,00 %
04.10.2017 15:02 16,6 C 12,8 C 63 % 1021,5 hPa 0,0 l/m 7,7 km/h (2 Bft) W-SW 248 2 min 0,254 mm 1,6 UV-I 437 W/m 9,5 C 15,9 C 14,5 km/h (3 Bft) 98,00 %
04.10.2017 15:04 16,6 C 13,3 C 67 % 1021,4 hPa 0,0 l/m 2,6 km/h (1 Bft) SW 223 2 min 0,000 mm 2,0 UV-I 397 W/m 10,4 C 16,6 C 6,4 km/h (2 Bft) 100,00 %
04.10.2017 15:06 16,7 C 12,8 C 65 % 1021,5 hPa 0,0 l/m 5,1 km/h (1 Bft) W 261 2 min 0,000 mm 1,9 UV-I 537 W/m 10,1 C 16,7 C 11,3 km/h (2 Bft) 96,00 %
04.10.2017 15:08 16,7 C 12,8 C 66 % 1021,5 hPa 0,0 l/m 6,2 km/h (2 Bft) W 269 2 min 0,000 mm 1,8 UV-I 483 W/m 10,3 C 16,7 C 11,3 km/h (2 Bft) 100,00 %
04.10.2017 15:10 16,7 C 12,8 C 65 % 1021,5 hPa 0,0 l/m 3,3 km/h (1 Bft) W 266 2 min 0,000 mm 1,7 UV-I 367 W/m 10,1 C 16,7 C 6,4 km/h (2 Bft) 100,00 %
04.10.2017 15:12 16,7 C 13,3 C 65 % 1021,3 hPa 0,0 l/m 4,0 km/h (1 Bft) S-SW 213 2 min 0,000 mm 1,7 UV-I 391 W/m 10,1 C 16,7 C 8,0 km/h (2 Bft) 100,00 %
04.10.2017 15:14 16,6 C 12,8 C 64 % 1021,2 hPa 0,0 l/m 2,7 km/h (1 Bft) W 263 2 min 0,000 mm 1,6 UV-I 339 W/m 9,8 C 16,6 C 6,4 km/h (2 Bft) 98,00 %
04.10.2017 15:16 16,6 C 12,8 C 68 % 1021,2 hPa 0,0 l/m 1,7 km/h (1 Bft) W-SW 240 0 min 0,000 mm 1,5 UV-I 253 W/m 10,7 C 16,6 C 3,2 km/h (1 Bft) 100,00 %
04.10.2017 15:18 16,6 C 13,3 C 66 % 1021,1 hPa 0,0 l/m 1,4 km/h (1 Bft) W-NW 288 0 min 0,000 mm 1,5 UV-I 255 W/m 10,2 C 16,6 C 4,8 km/h (1 Bft) 100,00 %
04.10.2017 15:20 16,4 C 13,3 C 67 % 1021,1 hPa 0,0 l/m 4,8 km/h (1 Bft) W-SW 254 0 min 0,000 mm 1,4 UV-I 256 W/m 10,3 C 16,4 C 8,0 km/h (2 Bft) 100,00 %
04.10.2017 15:22 16,2 C 13,3 C 65 % 1021,2 hPa 0,0 l/m 5,2 km/h (1 Bft) W-SW 250 0 min 0,000 mm 1,4 UV-I 237 W/m 9,6 C 16,2 C 11,3 km/h (2 Bft) 98,00 %
04.10.2017 15:24 16,2 C 13,3 C 65 % 1021,2 hPa 0,0 l/m 2,9 km/h (1 Bft) W 266 0 min 0,000 mm 1,4 UV-I 243 W/m 9,6 C 16,2 C 6,4 km/h (2 Bft) 100,00 %
04.10.2017 15:26 16,1 C 13,3 C 65 % 1021,3 hPa 0,0 l/m 2,1 km/h (1 Bft) W-NW 292 2 min 0,000 mm 1,5 UV-I 357 W/m 9,5 C 16,1 C 4,8 km/h (1 Bft) 100,00 %
04.10.2017 15:28 16,2 C 13,3 C 70 % 1021,2 hPa 0,0 l/m 1,2 km/h (1 Bft) W-NW 293 2 min 0,000 mm 1,4 UV-I 345 W/m 10,7 C 16,2 C 3,2 km/h (1 Bft) 100,00 %
04.10.2017 15:30 16,2 C 13,3 C 67 % 1021,2 hPa 0,0 l/m 3,9 km/h (1 Bft) W 259 2 min 0,000 mm 1,4 UV-I 340 W/m 10,1 C 16,2 C 9,7 km/h (2 Bft) 100,00 %
04.10.2017 15:32 16,3 C 13,3 C 65 % 1021,1 hPa 0,0 l/m 5,6 km/h (1 Bft) W 281 2 min 0,000 mm 1,4 UV-I 365 W/m 9,7 C 16,3 C 9,7 km/h (2 Bft) 100,00 %
04.10.2017 15:34 16,3 C 13,3 C 65 % 1021,2 hPa 0,0 l/m 4,7 km/h (1 Bft) SW 222 2 min 0,000 mm 1,4 UV-I 358 W/m 9,7 C 16,3 C 9,7 km/h (2 Bft) 100,00 %
04.10.2017 15:36 16,3 C 13,3 C 66 % 1021,3 hPa 0,0 l/m 3,1 km/h (1 Bft) W-SW 246 2 min 0,000 mm 1,3 UV-I 319 W/m 9,9 C 16,3 C 6,4 km/h (2 Bft) 100,00 %
04.10.2017 15:38 16,3 C 13,3 C 66 % 1021,3 hPa 0,0 l/m 2,4 km/h (1 Bft) W 277 0 min 0,000 mm 1,2 UV-I 241 W/m 9,9 C 16,3 C 9,7 km/h (2 Bft) 100,00 %
04.10.2017 15:40 16,2 C 13,3 C 65 % 1021,2 hPa 0,0 l/m 4,1 km/h (1 Bft) NW 312 2 min 0,000 mm 1,2 UV-I 245 W/m 9,6 C 16,2 C 9,7 km/h (2 Bft) 100,00 %
04.10.2017 15:42 16,2 C 13,3 C 67 % 1021,2 hPa 0,0 l/m 3,1 km/h (1 Bft) SW 229 2 min 0,000 mm 1,2 UV-I 292 W/m 10,1 C 16,2 C 8,0 km/h (2 Bft) 100,00 %
04.10.2017 15:44 16,2 C 13,3 C 67 % 1021,0 hPa 0,0 l/m 2,1 km/h (1 Bft) W 273 2 min 0,000 mm 1,1 UV-I 245 W/m 10,1 C 16,2 C 4,8 km/h (1 Bft) 94,74 %
04.10.2017 15:46 16,1 C 13,3 C 67 % 1021,0 hPa 0,0 l/m 2,4 km/h (1 Bft) W-NW 302 0 min 0,000 mm 1,0 UV-I 199 W/m 10,0 C 16,1 C 4,8 km/h (1 Bft) 98,11 %
04.10.2017 15:48 16,1 C 13,3 C 69 % 1021,0 hPa 0,0 l/m 2,6 km/h (1 Bft) W 279 0 min 0,000 mm 1,1 UV-I 220 W/m 10,4 C 16,1 C 4,8 km/h (1 Bft) 100,00 %
04.10.2017 15:50 16,0 C 13,3 C 67 % 1020,9 hPa 0,0 l/m 5,1 km/h (1 Bft) W 263 2 min 0,000 mm 1,1 UV-I 246 W/m 9,9 C 16,0 C 11,3 km/h (2 Bft) 97,87 %
04.10.2017 15:52 16,1 C 13,3 C 66 % 1020,9 hPa 0,0 l/m 2,5 km/h (1 Bft) W-SW 238 2 min 0,000 mm 1,2 UV-I 329 W/m 9,7 C 16,1 C 4,8 km/h (1 Bft) 100,00 %
04.10.2017 15:54 16,1 C 13,3 C 66 % 1020,9 hPa 0,0 l/m 3,1 km/h (1 Bft) W 281 2 min 0,000 mm 1,2 UV-I 352 W/m 9,7 C 16,1 C 6,4 km/h (2 Bft) 98,00 %
04.10.2017 15:56 16,1 C 13,3 C 67 % 1020,9 hPa 0,0 l/m 4,4 km/h (1 Bft) W-NW 300 2 min 0,000 mm 1,1 UV-I 265 W/m 10,0 C 16,1 C 12,9 km/h (3 Bft) 100,00 %
04.10.2017 15:58 16,1 C 13,3 C 66 % 1020,9 hPa 0,0 l/m 4,2 km/h (1 Bft) W 267 2 min 0,000 mm 1,0 UV-I 281 W/m 9,7 C 16,1 C 16,1 km/h (3 Bft) 100,00 %
04.10.2017 16:00 16,1 C 13,3 C 67 % 1020,9 hPa 0,0 l/m 0,7 km/h (0 Bft) W 271 2 min 0,177 mm 1,0 UV-I 251 W/m 10,0 C 16,1 C 1,6 km/h (1 Bft) 100,00 %
04.10.2017 16:02 16,1 C 13,3 C 67 % 1020,8 hPa 0,0 l/m 3,1 km/h (1 Bft) W 281 2 min 0,000 mm 1,0 UV-I 247 W/m 10,0 C 16,1 C 6,4 km/h (2 Bft) 100,00 %
04.10.2017 16:04 16,1 C 13,3 C 67 % 1020,6 hPa 0,0 l/m 3,1 km/h (1 Bft) NW 322 2 min 0,000 mm 0,9 UV-I 279 W/m 10,0 C 16,1 C 6,4 km/h (2 Bft) 98,00 %
04.10.2017 16:06 16,2 C 13,3 C 65 % 1020,7 hPa 0,0 l/m 5,0 km/h (1 Bft) W-NW 296 2 min 0,000 mm 0,9 UV-I 277 W/m 9,6 C 16,2 C 12,9 km/h (3 Bft) 100,00 %
04.10.2017 16:08 16,1 C 13,3 C 68 % 1020,7 hPa 0,0 l/m 3,3 km/h (1 Bft) W-NW 298 2 min 0,000 mm 0,9 UV-I 256 W/m 10,2 C 16,1 C 8,0 km/h (2 Bft) 100,00 %
04.10.2017 16:10 16,2 C 13,3 C 68 % 1020,6 hPa 0,0 l/m 6,3 km/h (2 Bft) W 263 2 min 0,000 mm 0,9 UV-I 256 W/m 10,3 C 16,2 C 11,3 km/h (2 Bft) 100,00 %
04.10.2017 16:12 16,1 C 13,3 C 67 % 1020,6 hPa 0,0 l/m 2,2 km/h (1 Bft) W 278 2 min 0,000 mm 0,8 UV-I 255 W/m 10,0 C 16,1 C 6,4 km/h (2 Bft) 96,23 %
04.10.2017 16:14 16,0 C 13,3 C 67 % 1020,6 hPa 0,0 l/m 2,1 km/h (1 Bft) N 5 0 min 0,000 mm 0,8 UV-I 183 W/m 9,9 C 16,0 C 4,8 km/h (1 Bft) 97,44 %
04.10.2017 16:16 15,9 C 13,3 C 67 % 1020,6 hPa 0,0 l/m 1,1 km/h (1 Bft) NW 305 2 min 0,000 mm 0,8 UV-I 203 W/m 9,8 C 15,9 C 3,2 km/h (1 Bft) 96,15 %
04.10.2017 16:18 15,9 C 13,3 C 67 % 1020,7 hPa 0,0 l/m 0,5 km/h (0 Bft) NW 305 2 min 0,000 mm 0,8 UV-I 242 W/m 9,8 C 15,9 C 3,2 km/h (1 Bft) 93,75 %
04.10.2017 16:20 15,9 C 13,3 C 67 % 1020,7 hPa 0,0 l/m 1,4 km/h (1 Bft) W-NW 297 2 min 0,000 mm 0,8 UV-I 206 W/m 9,8 C 15,9 C 3,2 km/h (1 Bft) 93,88 %
04.10.2017 16:22 15,9 C 13,3 C 69 % 1020,7 hPa 0,0 l/m 2,4 km/h (1 Bft) W 280 2 min 0,000 mm 0,7 UV-I 208 W/m 10,2 C 15,9 C 4,8 km/h (1 Bft) 95,83 %
04.10.2017 16:24 15,9 C 13,3 C 68 % 1020,7 hPa 0,0 l/m 3,8 km/h (1 Bft) W-NW 303 0 min 0,000 mm 0,7 UV-I 183 W/m 10,0 C 15,9 C 9,7 km/h (2 Bft) 94,74 %
04.10.2017 16:26 15,8 C 13,3 C 69 % 1020,7 hPa 0,0 l/m 2,8 km/h (1 Bft) W 275 2 min 0,000 mm 0,7 UV-I 217 W/m 10,1 C 15,8 C 4,8 km/h (1 Bft) 96,23 %
04.10.2017 16:28 15,8 C 13,3 C 68 % 1020,7 hPa 0,0 l/m 3,1 km/h (1 Bft) W 275 2 min 0,000 mm 0,7 UV-I 244 W/m 9,9 C 15,8 C 6,4 km/h (2 Bft) 92,31 %
04.10.2017 16:30 15,8 C 13,3 C 69 % 1020,7 hPa 0,0 l/m 2,2 km/h (1 Bft) W-NW 287 2 min 0,000 mm 0,7 UV-I 263 W/m 10,1 C 15,8 C 4,8 km/h (1 Bft) 95,38 %
04.10.2017 16:32 15,8 C 13,3 C 68 % 1020,7 hPa 0,0 l/m 1,4 km/h (1 Bft) W-NW 284 2 min 0,000 mm 0,7 UV-I 233 W/m 9,9 C 15,8 C 3,2 km/h (1 Bft) 95,74 %
04.10.2017 16:34 15,8 C 13,3 C 69 % 1020,6 hPa 0,0 l/m 1,3 km/h (1 Bft) W-NW 284 0 min 0,000 mm 0,6 UV-I 165 W/m 10,1 C 15,8 C 4,8 km/h (1 Bft) 95,74 %
04.10.2017 16:36 15,8 C 13,3 C 68 % 1020,6 hPa 0,0 l/m 1,9 km/h (1 Bft) W-NW 294 0 min 0,000 mm 0,6 UV-I 171 W/m 9,9 C 15,8 C 4,8 km/h (1 Bft) 95,74 %
04.10.2017 16:38 15,8 C 13,3 C 69 % 1020,6 hPa 0,0 l/m 3,4 km/h (1 Bft) W-NW 285 2 min 0,000 mm 0,6 UV-I 227 W/m 10,1 C 15,8 C 6,4 km/h (2 Bft) 93,18 %
04.10.2017 16:40 15,7 C 13,3 C 69 % 1020,5 hPa 0,0 l/m 1,1 km/h (1 Bft) W-NW 284 2 min 0,000 mm 0,6 UV-I 222 W/m 10,0 C 15,7 C 3,2 km/h (1 Bft) 94,00 %
04.10.2017 16:42 15,7 C 13,3 C 69 % 1020,5 hPa 0,0 l/m 1,6 km/h (1 Bft) W 263 2 min 0,000 mm 0,6 UV-I 207 W/m 10,0 C 15,7 C 4,8 km/h (1 Bft) 94,00 %
04.10.2017 16:44 15,7 C 13,3 C 69 % 1020,5 hPa 0,0 l/m 3,0 km/h (1 Bft) W 278 2 min 0,000 mm 0,5 UV-I 177 W/m 10,0 C 15,7 C 12,9 km/h (3 Bft) 95,12 %
04.10.2017 16:46 15,7 C 13,3 C 69 % 1020,5 hPa 0,0 l/m 3,3 km/h (1 Bft) W-SW 251 2 min 0,000 mm 0,5 UV-I 166 W/m 10,0 C 15,7 C 9,7 km/h (2 Bft) 96,23 %
04.10.2017 16:48 15,7 C 13,3 C 69 % 1020,5 hPa 0,0 l/m 2,8 km/h (1 Bft) W 267 0 min 0,000 mm 0,5 UV-I 147 W/m 10,0 C 15,7 C 6,4 km/h (2 Bft) 94,00 %
04.10.2017 16:50 15,7 C 13,3 C 69 % 1020,4 hPa 0,0 l/m 3,3 km/h (1 Bft) W 275 0 min 0,000 mm 0,0 UV-I 131 W/m 10,0 C 15,7 C 6,4 km/h (2 Bft) 95,12 %
04.10.2017 16:52 15,6 C 13,3 C 69 % 1020,4 hPa 0,0 l/m 1,5 km/h (1 Bft) W-NW 293 0 min 0,000 mm 0,0 UV-I 143 W/m 9,9 C 15,6 C 3,2 km/h (1 Bft) 98,00 %
04.10.2017 16:54 15,5 C 13,3 C 68 % 1020,3 hPa 0,0 l/m 1,0 km/h (0 Bft) W-NW 297 2 min 0,000 mm 0,0 UV-I 156 W/m 9,6 C 15,5 C 3,2 km/h (1 Bft) 97,73 %
04.10.2017 16:56 15,5 C 13,3 C 70 % 1020,3 hPa 0,0 l/m 2,7 km/h (1 Bft) W-SW 240 2 min 0,000 mm 0,0 UV-I 179 W/m 10,1 C 15,5 C 4,8 km/h (1 Bft) 96,30 %
04.10.2017 16:58 15,5 C 13,3 C 69 % 1020,4 hPa 0,0 l/m 6,6 km/h (2 Bft) W-SW 256 2 min 0,000 mm 0,0 UV-I 177 W/m 9,8 C 15,4 C 11,3 km/h (2 Bft) 98,51 %
04.10.2017 17:00 15,6 C 13,3 C 69 % 1020,3 hPa 0,0 l/m 3,1 km/h (1 Bft) NW 317 2 min 0,127 mm 0,0 UV-I 182 W/m 9,9 C 15,6 C 6,4 km/h (2 Bft) 97,44 %
04.10.2017 17:02 15,6 C 13,3 C 72 % 1020,3 hPa 0,0 l/m 1,1 km/h (1 Bft) W 276 2 min 0,000 mm 0,0 UV-I 190 W/m 10,6 C 15,6 C 3,2 km/h (1 Bft) 94,00 %
04.10.2017 17:04 15,5 C 13,3 C 70 % 1020,4 hPa 0,0 l/m 3,8 km/h (1 Bft) W 270 2 min 0,000 mm 0,0 UV-I 160 W/m 10,1 C 15,5 C 9,7 km/h (2 Bft) 98,11 %
04.10.2017 17:06 15,5 C 13,3 C 69 % 1020,4 hPa 0,0 l/m 3,1 km/h (1 Bft) NW 305 2 min 0,000 mm 0,0 UV-I 151 W/m 9,8 C 15,5 C 4,8 km/h (1 Bft) 96,00 %
04.10.2017 17:08 15,5 C 13,3 C 69 % 1020,3 hPa 0,0 l/m 2,2 km/h (1 Bft) W-NW 292 0 min 0,000 mm 0,0 UV-I 121 W/m 9,8 C 15,5 C 4,8 km/h (1 Bft) 97,37 %
04.10.2017 17:10 15,4 C 13,3 C 70 % 1020,4 hPa 0,0 l/m 2,5 km/h (1 Bft) W 277 0 min 0,000 mm 0,0 UV-I 100 W/m 10,0 C 15,4 C 4,8 km/h (1 Bft) 96,00 %
04.10.2017 17:12 15,4 C 13,3 C 69 % 1020,4 hPa 0,0 l/m 3,1 km/h (1 Bft) W 276 0 min 0,000 mm 0,0 UV-I 96 W/m 9,7 C 15,4 C 4,8 km/h (1 Bft) 98,00 %
04.10.2017 17:14 15,4 C 13,3 C 69 % 1020,4 hPa 0,0 l/m 1,7 km/h (1 Bft) W 261 0 min 0,000 mm 0,0 UV-I 97 W/m 9,7 C 15,4 C 3,2 km/h (1 Bft) 97,56 %
04.10.2017 17:16 15,3 C 13,3 C 70 % 1020,4 hPa 0,0 l/m 2,4 km/h (1 Bft) W-NW 296 0 min 0,000 mm 0,0 UV-I 90 W/m 9,9 C 15,3 C 4,8 km/h (1 Bft) 96,00 %
04.10.2017 17:18 15,3 C 13,3 C 70 % 1020,4 hPa 0,0 l/m 3,6 km/h (1 Bft) W 265 0 min 0,000 mm 0,0 UV-I 82 W/m 9,9 C 15,3 C 6,4 km/h (2 Bft) 97,73 %
04.10.2017 17:20 15,3 C 13,3 C 70 % 1020,4 hPa 0,0 l/m 4,4 km/h (1 Bft) W-SW 253 0 min 0,000 mm 0,0 UV-I 77 W/m 9,9 C 15,3 C 9,7 km/h (2 Bft) 97,87 %
04.10.2017 17:22 15,2 C 13,3 C 72 % 1020,5 hPa 0,0 l/m 1,6 km/h (1 Bft) W-SW 253 0 min 0,000 mm 0,0 UV-I 76 W/m 10,2 C 15,2 C 4,8 km/h (1 Bft) 94,34 %
04.10.2017 17:24 15,1 C 13,3 C 71 % 1020,5 hPa 0,0 l/m 3,2 km/h (1 Bft) W 266 0 min 0,000 mm 0,0 UV-I 75 W/m 9,9 C 15,1 C 4,8 km/h (1 Bft) 100,00 %
04.10.2017 17:26 15,1 C 13,3 C 72 % 1020,6 hPa 0,0 l/m 1,7 km/h (1 Bft) W 266 0 min 0,000 mm 0,0 UV-I 75 W/m 10,1 C 15,1 C 4,8 km/h (1 Bft) 96,00 %
04.10.2017 17:28 15,0 C 13,3 C 72 % 1020,6 hPa 0,0 l/m 2,1 km/h (1 Bft) W 266 0 min 0,000 mm 0,0 UV-I 76 W/m 10,0 C 15,0 C 3,2 km/h (1 Bft) 98,11 %
04.10.2017 17:30 14,9 C 13,3 C 73 % 1020,6 hPa 0,0 l/m 3,0 km/h (1 Bft) W 259 0 min 0,000 mm 0,0 UV-I 74 W/m 10,1 C 14,9 C 9,7 km/h (2 Bft) 97,56 %
04.10.2017 17:32 14,9 C 13,3 C 73 % 1020,6 hPa 0,0 l/m 3,2 km/h (1 Bft) W 270 0 min 0,000 mm 0,0 UV-I 79 W/m 10,1 C 14,9 C 6,4 km/h (2 Bft) 98,11 %
04.10.2017 17:34 14,9 C 13,3 C 73 % 1020,6 hPa 0,0 l/m 2,5 km/h (1 Bft) NW 313 0 min 0,000 mm 0,0 UV-I 83 W/m 10,1 C 14,9 C 4,8 km/h (1 Bft) 97,22 %
04.10.2017 17:36 14,8 C 13,3 C 72 % 1020,5 hPa 0,0 l/m 3,5 km/h (1 Bft) W 277 0 min 0,000 mm 0,0 UV-I 80 W/m 9,8 C 14,8 C 6,4 km/h (2 Bft) 98,08 %
04.10.2017 17:38 14,9 C 13,3 C 72 % 1020,5 hPa 0,0 l/m 4,5 km/h (1 Bft) W 259 0 min 0,000 mm 0,0 UV-I 73 W/m 9,9 C 14,9 C 6,4 km/h (2 Bft) 98,00 %
04.10.2017 17:40 14,9 C 13,3 C 72 % 1020,6 hPa 0,0 l/m 3,2 km/h (1 Bft) W-SW 249 0 min 0,000 mm 0,0 UV-I 76 W/m 9,9 C 14,9 C 4,8 km/h (1 Bft) 97,44 %
04.10.2017 17:42 14,9 C 13,3 C 73 % 1020,5 hPa 0,0 l/m 4,8 km/h (1 Bft) W 260 2 min 0,000 mm 0,0 UV-I 82 W/m 10,1 C 14,9 C 9,7 km/h (2 Bft) 100,00 %
04.10.2017 17:44 14,8 C 13,3 C 72 % 1020,5 hPa 0,0 l/m 5,8 km/h (2 Bft) W-SW 253 2 min 0,000 mm 0,0 UV-I 78 W/m 9,8 C 14,8 C 11,3 km/h (2 Bft) 100,00 %
04.10.2017 17:46 14,9 C 13,3 C 72 % 1020,5 hPa 0,0 l/m 3,7 km/h (1 Bft) W-NW 286 2 min 0,000 mm 0,0 UV-I 77 W/m 9,9 C 14,9 C 6,4 km/h (2 Bft) 100,00 %
04.10.2017 17:48 14,9 C 13,3 C 72 % 1020,5 hPa 0,0 l/m 4,9 km/h (1 Bft) W 267 2 min 0,000 mm 0,0 UV-I 74 W/m 9,9 C 14,9 C 6,4 km/h (2 Bft) 98,00 %
04.10.2017 17:50 14,9 C 13,3 C 72 % 1020,5 hPa 0,0 l/m 4,8 km/h (1 Bft) W 270 2 min 0,000 mm 0,0 UV-I 72 W/m 9,9 C 14,9 C 9,7 km/h (2 Bft) 100,00 %
04.10.2017 17:52 14,8 C 13,3 C 73 % 1020,4 hPa 0,0 l/m 3,7 km/h (1 Bft) W-SW 252 2 min 0,000 mm 0,0 UV-I 68 W/m 10,0 C 14,8 C 4,8 km/h (1 Bft) 100,00 %
04.10.2017 17:54 14,8 C 13,3 C 73 % 1020,4 hPa 0,0 l/m 4,2 km/h (1 Bft) W 267 2 min 0,000 mm 0,0 UV-I 66 W/m 10,0 C 14,8 C 6,4 km/h (2 Bft) 100,00 %
04.10.2017 17:56 14,8 C 13,3 C 73 % 1020,4 hPa 0,0 l/m 3,9 km/h (1 Bft) W 266 2 min 0,000 mm 0,0 UV-I 62 W/m 10,0 C 14,8 C 6,4 km/h (2 Bft) 100,00 %
04.10.2017 17:58 14,7 C 13,3 C 73 % 1020,4 hPa 0,0 l/m 3,6 km/h (1 Bft) W 271 2 min 0,000 mm 0,0 UV-I 58 W/m 9,9 C 14,7 C 6,4 km/h (2 Bft) 100,00 %
04.10.2017 18:00 14,7 C 13,3 C 73 % 1020,3 hPa 0,0 l/m 5,1 km/h (1 Bft) W 259 2 min 0,000 mm 0,0 UV-I 51 W/m 9,9 C 14,7 C 8,0 km/h (2 Bft) 100,00 %
04.10.2017 18:02 14,7 C 13,3 C 73 % 1020,3 hPa 0,0 l/m 5,2 km/h (1 Bft) W-SW 242 2 min 0,051 mm 0,0 UV-I 49 W/m 9,9 C 14,7 C 8,0 km/h (2 Bft) 100,00 %
04.10.2017 18:04 14,7 C 13,3 C 74 % 1020,3 hPa 0,0 l/m 4,6 km/h (1 Bft) W-SW 252 2 min 0,000 mm 0,0 UV-I 48 W/m 10,1 C 14,7 C 6,4 km/h (2 Bft) 97,56 %
04.10.2017 18:06 14,6 C 13,3 C 73 % 1020,3 hPa 0,0 l/m 4,6 km/h (1 Bft) W-SW 242 2 min 0,000 mm 0,0 UV-I 43 W/m 9,8 C 14,6 C 9,7 km/h (2 Bft) 100,00 %
04.10.2017 18:08 14,6 C 13,3 C 74 % 1020,3 hPa 0,0 l/m 4,1 km/h (1 Bft) W-SW 244 2 min 0,000 mm 0,0 UV-I 41 W/m 10,0 C 14,6 C 6,4 km/h (2 Bft) 100,00 %
04.10.2017 18:10 14,6 C 13,3 C 74 % 1020,3 hPa 0,0 l/m 3,8 km/h (1 Bft) SW 227 2 min 0,000 mm 0,0 UV-I 38 W/m 10,0 C 14,6 C 6,4 km/h (2 Bft) 100,00 %
04.10.2017 18:13 14,4 C 13,3 C 74 % 1020,3 hPa 0,0 l/m 4,6 km/h (1 Bft) W-SW 246 3 min 0,000 mm 0,0 UV-I 35 W/m 9,8 C 14,4 C 6,4 km/h (2 Bft) 100,00 %
04.10.2017 18:14 14,4 C 13,3 C 74 % 1020,3 hPa 0,0 l/m 2,6 km/h (1 Bft) W-SW 246 1 min 0,000 mm 0,0 UV-I 32 W/m 9,8 C 14,4 C 3,2 km/h (1 Bft) 100,00 %
04.10.2017 18:16 14,3 C 13,3 C 75 % 1020,3 hPa 0,0 l/m 3,4 km/h (1 Bft) SW 230 2 min 0,000 mm 0,0 UV-I 29 W/m 9,9 C 14,3 C 4,8 km/h (1 Bft) 97,96 %
04.10.2017 18:19 14,2 C 13,3 C 76 % 1020,3 hPa 0,0 l/m 5,0 km/h (1 Bft) SW 226 3 min 0,000 mm 0,0 UV-I 24 W/m 10,0 C 14,2 C 6,4 km/h (2 Bft) 100,00 %
04.10.2017 18:20 14,2 C 13,3 C 76 % 1020,2 hPa 0,0 l/m 3,8 km/h (1 Bft) SW 235 1 min 0,000 mm 0,0 UV-I 20 W/m 10,0 C 14,2 C 4,8 km/h (1 Bft) 100,00 %
04.10.2017 18:22 14,2 C 13,3 C 76 % 1020,1 hPa 0,0 l/m 5,1 km/h (1 Bft) W-SW 244 2 min 0,000 mm 0,0 UV-I 18 W/m 10,0 C 14,2 C 8,0 km/h (2 Bft) 100,00 %
04.10.2017 18:24 14,1 C 13,3 C 76 % 1020,1 hPa 0,0 l/m 5,6 km/h (1 Bft) SW 235 2 min 0,000 mm 0,0 UV-I 15 W/m 9,9 C 14,1 C 9,7 km/h (2 Bft) 96,61 %
04.10.2017 18:26 14,0 C 13,3 C 76 % 1020,0 hPa 0,0 l/m 3,8 km/h (1 Bft) SW 235 2 min 0,000 mm 0,0 UV-I 13 W/m 9,8 C 14,0 C 6,4 km/h (2 Bft) 97,87 %
04.10.2017 18:28 13,9 C 13,3 C 77 % 1020,0 hPa 0,0 l/m 5,4 km/h (1 Bft) SW 225 0 min 0,000 mm 0,0 UV-I 11 W/m 9,9 C 13,9 C 9,7 km/h (2 Bft) 97,14 %
04.10.2017 18:30 13,8 C 13,3 C 77 % 1020,0 hPa 0,0 l/m 4,4 km/h (1 Bft) SW 229 0 min 0,000 mm 0,0 UV-I 10 W/m 9,8 C 13,8 C 4,8 km/h (1 Bft) 98,21 %
04.10.2017 18:32 13,8 C 13,3 C 78 % 1020,0 hPa 0,0 l/m 4,1 km/h (1 Bft) SW 229 0 min 0,000 mm 0,0 UV-I 8 W/m 10,0 C 13,8 C 6,4 km/h (2 Bft) 98,00 %
04.10.2017 18:34 13,7 C 13,3 C 78 % 1020,1 hPa 0,0 l/m 3,3 km/h (1 Bft) W-SW 238 0 min 0,000 mm 0,0 UV-I 7 W/m 9,9 C 13,7 C 6,4 km/h (2 Bft) 97,87 %
04.10.2017 18:36 13,6 C 13,3 C 78 % 1020,0 hPa 0,0 l/m 3,5 km/h (1 Bft) W-SW 238 0 min 0,000 mm 0,0 UV-I 7 W/m 9,8 C 13,6 C 4,8 km/h (1 Bft) 93,18 %
04.10.2017 18:38 13,5 C 13,3 C 79 % 1020,0 hPa 0,0 l/m 3,6 km/h (1 Bft) W-SW 238 0 min 0,000 mm 0,0 UV-I 5 W/m 9,9 C 13,5 C 4,8 km/h (1 Bft) 98,00 %
04.10.2017 18:40 13,4 C 13,3 C 79 % 1020,0 hPa 0,0 l/m 2,8 km/h (1 Bft) W-SW 238 0 min 0,000 mm 0,0 UV-I 5 W/m 9,8 C 13,4 C 4,8 km/h (1 Bft) 94,74 %
04.10.2017 18:42 13,3 C 13,3 C 79 % 1020,1 hPa 0,0 l/m 2,9 km/h (1 Bft) W-SW 238 0 min 0,000 mm 0,0 UV-I 5 W/m 9,7 C 13,3 C 4,8 km/h (1 Bft) 97,87 %
04.10.2017 18:44 13,3 C 13,3 C 80 % 1020,1 hPa 0,0 l/m 2,0 km/h (1 Bft) W-SW 238 0 min 0,000 mm 0,0 UV-I 5 W/m 9,9 C 13,3 C 4,8 km/h (1 Bft) 98,11 %
04.10.2017 18:46 13,2 C 13,3 C 80 % 1020,1 hPa 0,0 l/m 0,3 km/h (0 Bft) W-SW 238 0 min 0,000 mm 0,0 UV-I 5 W/m 9,8 C 13,2 C 1,6 km/h (1 Bft) 97,87 %
04.10.2017 18:48 13,0 C 13,3 C 80 % 1020,2 hPa 0,0 l/m 0,0 km/h (0 Bft) W-SW 238 0 min 0,000 mm 0,0 UV-I 4 W/m 9,6 C 13,0 C 1,6 km/h (1 Bft) 97,37 %
04.10.2017 18:50 12,9 C 13,3 C 81 % 1020,3 hPa 0,0 l/m 0,0 km/h (0 Bft) W-SW 238 0 min 0,000 mm 0,0 UV-I 0 W/m 9,7 C 12,9 C 0,0 km/h (0 Bft) 97,87 %
04.10.2017 18:52 12,8 C 13,3 C 81 % 1020,4 hPa 0,0 l/m 1,5 km/h (1 Bft) W-SW 238 0 min 0,000 mm 0,0 UV-I 0 W/m 9,6 C 12,8 C 3,2 km/h (1 Bft) 98,00 %
04.10.2017 18:54 12,8 C 13,3 C 82 % 1020,5 hPa 0,0 l/m 1,3 km/h (1 Bft) W-SW 238 0 min 0,000 mm 0,0 UV-I 0 W/m 9,8 C 12,8 C 3,2 km/h (1 Bft) 96,23 %
04.10.2017 18:56 12,7 C 13,3 C 83 % 1020,5 hPa 0,0 l/m 0,8 km/h (0 Bft) W-SW 238 0 min 0,000 mm 0,0 UV-I 0 W/m 9,9 C 12,7 C 3,2 km/h (1 Bft) 97,73 %
04.10.2017 18:58 12,7 C 13,3 C 82 % 1020,5 hPa 0,0 l/m 0,6 km/h (0 Bft) W-SW 238 0 min 0,000 mm 0,0 UV-I 0 W/m 9,7 C 12,7 C 1,6 km/h (1 Bft) 97,92 %
04.10.2017 19:00 12,6 C 13,3 C 82 % 1020,4 hPa 0,0 l/m 0,0 km/h (0 Bft) W-SW 238 0 min 0,026 mm 0,0 UV-I 0 W/m 9,6 C 12,6 C 0,0 km/h (0 Bft) 97,56 %
04.10.2017 19:02 12,4 C 13,3 C 83 % 1020,5 hPa 0,0 l/m 0,0 km/h (0 Bft) W-SW 238 0 min 0,000 mm 0,0 UV-I 0 W/m 9,6 C 12,4 C 0,0 km/h (0 Bft) 100,00 %
04.10.2017 19:04 12,2 C 13,3 C 83 % 1020,4 hPa 0,0 l/m 0,0 km/h (0 Bft) W-SW 238 0 min 0,000 mm 0,0 UV-I 0 W/m 9,4 C 12,2 C 0,0 km/h (0 Bft) 100,00 %
04.10.2017 19:06 12,0 C 13,3 C 84 % 1020,3 hPa 0,0 l/m 0,0 km/h (0 Bft) W-SW 238 0 min 0,000 mm 0,0 UV-I 0 W/m 9,4 C 12,0 C 0,0 km/h (0 Bft) 100,00 %
04.10.2017 19:08 11,8 C 13,3 C 84 % 1020,4 hPa 0,0 l/m 0,0 km/h (0 Bft) W-SW 238 0 min 0,000 mm 0,0 UV-I 0 W/m 9,2 C 11,8 C 1,6 km/h (1 Bft) 100,00 %
04.10.2017 19:10 11,4 C 13,3 C 85 % 1020,3 hPa 0,0 l/m 0,0 km/h (0 Bft) W-SW 238 0 min 0,000 mm 0,0 UV-I 0 W/m 9,0 C 11,4 C 1,6 km/h (1 Bft) 100,00 %
04.10.2017 19:12 11,3 C 13,3 C 86 % 1020,2 hPa 0,0 l/m 0,2 km/h (0 Bft) W-SW 238 0 min 0,000 mm 0,0 UV-I 0 W/m 9,0 C 11,3 C 1,6 km/h (1 Bft) 100,00 %
04.10.2017 19:14 11,1 C 13,3 C 87 % 1020,3 hPa 0,0 l/m 0,2 km/h (0 Bft) W-SW 238 0 min 0,000 mm 0,0 UV-I 0 W/m 9,0 C 11,1 C 1,6 km/h (1 Bft) 100,00 %
04.10.2017 19:16 11,0 C 13,3 C 88 % 1020,3 hPa 0,0 l/m 0,2 km/h (0 Bft) W-SW 238 0 min 0,000 mm 0,0 UV-I 0 W/m 9,1 C 11,0 C 1,6 km/h (1 Bft) 100,00 %
04.10.2017 19:18 10,9 C 13,3 C 88 % 1020,3 hPa 0,0 l/m 0,8 km/h (0 Bft) W-SW 238 0 min 0,000 mm 0,0 UV-I 0 W/m 9,0 C 10,9 C 3,2 km/h (1 Bft) 100,00 %
04.10.2017 19:20 10,8 C 13,3 C 89 % 1020,4 hPa 0,0 l/m 1,1 km/h (1 Bft) W-SW 238 0 min 0,000 mm 0,0 UV-I 0 W/m 9,1 C 10,8 C 1,6 km/h (1 Bft) 100,00 %
04.10.2017 19:22 10,7 C 13,3 C 89 % 1020,4 hPa 0,0 l/m 1,3 km/h (1 Bft) W-SW 238 0 min 0,000 mm 0,0 UV-I 0 W/m 9,0 C 10,7 C 3,2 km/h (1 Bft) 100,00 %
04.10.2017 19:24 10,6 C 13,3 C 90 % 1020,4 hPa 0,0 l/m 1,7 km/h (1 Bft) W-SW 238 0 min 0,000 mm 0,0 UV-I 0 W/m 9,0 C 10,6 C 3,2 km/h (1 Bft) 95,45 %
04.10.2017 19:26 10,6 C 13,3 C 90 % 1020,4 hPa 0,0 l/m 2,2 km/h (1 Bft) W-SW 238 0 min 0,000 mm 0,0 UV-I 0 W/m 9,0 C 10,6 C 3,2 km/h (1 Bft) 100,00 %
04.10.2017 19:28 10,6 C 13,3 C 91 % 1020,4 hPa 0,0 l/m 2,6 km/h (1 Bft) W-SW 238 0 min 0,000 mm 0,0 UV-I 0 W/m 9,2 C 10,6 C 4,8 km/h (1 Bft) 100,00 %
04.10.2017 19:30 10,6 C 13,3 C 90 % 1020,4 hPa 0,0 l/m 1,6 km/h (1 Bft) W-SW 238 0 min 0,000 mm 0,0 UV-I 0 W/m 9,0 C 10,6 C 3,2 km/h (1 Bft) 100,00 %
04.10.2017 19:33 10,4 C 13,3 C 90 % 1020,3 hPa 0,0 l/m 0,2 km/h (0 Bft) W-SW 238 0 min 0,000 mm 0,0 UV-I 0 W/m 8,8 C 10,4 C 1,6 km/h (1 Bft) 98,53 %
04.10.2017 19:34 10,4 C 13,3 C 91 % 1020,3 hPa 0,0 l/m 0,2 km/h (0 Bft) W-SW 238 0 min 0,000 mm 0,0 UV-I 0 W/m 9,0 C 10,4 C 1,6 km/h (1 Bft) 95,65 %
04.10.2017 19:36 10,4 C 13,3 C 91 % 1020,3 hPa 0,0 l/m 0,5 km/h (0 Bft) W-SW 238 0 min 0,000 mm 0,0 UV-I 0 W/m 9,0 C 10,4 C 1,6 km/h (1 Bft) 100,00 %
04.10.2017 19:38 10,5 C 13,3 C 91 % 1020,2 hPa 0,0 l/m 1,4 km/h (1 Bft) W-SW 238 0 min 0,000 mm 0,0 UV-I 0 W/m 9,1 C 10,5 C 3,2 km/h (1 Bft) 100,00 %
04.10.2017 19:40 10,4 C 13,3 C 90 % 1020,2 hPa 0,0 l/m 2,1 km/h (1 Bft) W-SW 237 0 min 0,000 mm 0,0 UV-I 0 W/m 8,8 C 10,4 C 4,8 km/h (1 Bft) 100,00 %
04.10.2017 19:42 10,4 C 13,3 C 91 % 1020,2 hPa 0,0 l/m 2,3 km/h (1 Bft) W-SW 237 0 min 0,000 mm 0,0 UV-I 0 W/m 9,0 C 10,4 C 3,2 km/h (1 Bft) 96,00 %
04.10.2017 19:44 10,5 C 13,3 C 91 % 1020,2 hPa 0,0 l/m 2,5 km/h (1 Bft) W-SW 237 0 min 0,000 mm 0,0 UV-I 0 W/m 9,1 C 10,5 C 4,8 km/h (1 Bft) 98,00 %
04.10.2017 19:46 10,6 C 13,3 C 90 % 1020,2 hPa 0,0 l/m 0,7 km/h (0 Bft) W-SW 237 0 min 0,000 mm 0,0 UV-I 0 W/m 9,0 C 10,6 C 1,6 km/h (1 Bft) 100,00 %
04.10.2017 19:48 10,7 C 13,3 C 90 % 1020,2 hPa 0,0 l/m 1,5 km/h (1 Bft) W-SW 237 0 min 0,000 mm 0,0 UV-I 0 W/m 9,1 C 10,7 C 3,2 km/h (1 Bft) 100,00 %
04.10.2017 19:50 10,6 C 13,3 C 90 % 1020,2 hPa 0,0 l/m 1,7 km/h (1 Bft) SW 229 0 min 0,000 mm 0,0 UV-I 0 W/m 9,0 C 10,6 C 3,2 km/h (1 Bft) 100,00 %
04.10.2017 19:52 10,6 C 13,3 C 90 % 1020,2 hPa 0,0 l/m 2,7 km/h (1 Bft) S-SW 196 0 min 0,000 mm 0,0 UV-I 0 W/m 9,0 C 10,6 C 4,8 km/h (1 Bft) 100,00 %
04.10.2017 19:54 10,6 C 13,3 C 90 % 1020,1 hPa 0,0 l/m 2,7 km/h (1 Bft) S-SW 192 0 min 0,000 mm 0,0 UV-I 0 W/m 9,0 C 10,6 C 4,8 km/h (1 Bft) 100,00 %
04.10.2017 19:56 10,6 C 13,3 C 90 % 1020,1 hPa 0,0 l/m 2,5 km/h (1 Bft) S-SW 192 0 min 0,000 mm 0,0 UV-I 0 W/m 9,0 C 10,6 C 4,8 km/h (1 Bft) 100,00 %
04.10.2017 19:58 10,6 C 13,3 C 90 % 1020,1 hPa 0,0 l/m 2,8 km/h (1 Bft) S-SW 192 0 min 0,000 mm 0,0 UV-I 0 W/m 9,0 C 10,6 C 4,8 km/h (1 Bft) 100,00 %
04.10.2017 20:00 10,6 C 13,3 C 90 % 1020,0 hPa 0,0 l/m 2,2 km/h (1 Bft) S-SW 192 0 min 0,000 mm 0,0 UV-I 0 W/m 9,0 C 10,6 C 4,8 km/h (1 Bft) 98,00 %
04.10.2017 20:02 10,7 C 13,3 C 90 % 1020,0 hPa 0,0 l/m 2,5 km/h (1 Bft) S-SW 192 0 min 0,000 mm 0,0 UV-I 0 W/m 9,1 C 10,7 C 3,2 km/h (1 Bft) 100,00 %
04.10.2017 20:04 10,8 C 13,3 C 90 % 1020,0 hPa 0,0 l/m 2,7 km/h (1 Bft) S-SW 192 0 min 0,000 mm 0,0 UV-I 0 W/m 9,2 C 10,8 C 3,2 km/h (1 Bft) 98,11 %
04.10.2017 20:06 10,8 C 13,3 C 89 % 1020,1 hPa 0,0 l/m 2,2 km/h (1 Bft) S-SW 192 0 min 0,000 mm 0,0 UV-I 0 W/m 9,1 C 10,8 C 4,8 km/h (1 Bft) 100,00 %
04.10.2017 20:08 10,9 C 13,3 C 89 % 1020,2 hPa 0,0 l/m 1,6 km/h (1 Bft) S-SW 192 0 min 0,000 mm 0,0 UV-I 0 W/m 9,2 C 10,9 C 4,8 km/h (1 Bft) 100,00 %
04.10.2017 20:10 11,0 C 13,3 C 89 % 1020,2 hPa 0,0 l/m 1,7 km/h (1 Bft) S-SW 192 0 min 0,000 mm 0,0 UV-I 0 W/m 9,3 C 11,0 C 4,8 km/h (1 Bft) 100,00 %
04.10.2017 20:13 10,9 C 13,3 C 88 % 1020,2 hPa 0,0 l/m 1,5 km/h (1 Bft) S-SW 192 0 min 0,000 mm 0,0 UV-I 0 W/m 9,0 C 10,9 C 4,8 km/h (1 Bft) 100,00 %
04.10.2017 20:14 10,9 C 13,3 C 88 % 1020,2 hPa 0,0 l/m 1,7 km/h (1 Bft) S-SW 192 0 min 0,000 mm 0,0 UV-I 0 W/m 9,0 C 10,9 C 3,2 km/h (1 Bft) 100,00 %
04.10.2017 20:16 10,8 C 13,3 C 89 % 1020,2 hPa 0,0 l/m 2,0 km/h (1 Bft) S-SW 192 0 min 0,000 mm 0,0 UV-I 0 W/m 9,1 C 10,8 C 3,2 km/h (1 Bft) 94,64 %
04.10.2017 20:18 10,7 C 13,3 C 89 % 1020,3 hPa 0,0 l/m 2,6 km/h (1 Bft) S-SW 192 0 min 0,000 mm 0,0 UV-I 0 W/m 9,0 C 10,7 C 4,8 km/h (1 Bft) 95,74 %
04.10.2017 20:20 10,7 C 13,3 C 89 % 1020,3 hPa 0,0 l/m 2,5 km/h (1 Bft) S-SW 192 0 min 0,000 mm 0,0 UV-I 0 W/m 9,0 C 10,7 C 4,8 km/h (1 Bft) 98,11 %
04.10.2017 20:22 10,6 C 13,3 C 89 % 1020,3 hPa 0,0 l/m 2,6 km/h (1 Bft) S-SW 192 0 min 0,000 mm 0,0 UV-I 0 W/m 8,9 C 10,6 C 4,8 km/h (1 Bft) 97,87 %
04.10.2017 20:24 10,4 C 13,3 C 89 % 1020,2 hPa 0,0 l/m 2,2 km/h (1 Bft) S-SW 192 0 min 0,000 mm 0,0 UV-I 0 W/m 8,7 C 10,4 C 4,8 km/h (1 Bft) 94,74 %
04.10.2017 20:26 10,3 C 13,3 C 89 % 1020,2 hPa 0,0 l/m 2,0 km/h (1 Bft) S-SW 192 0 min 0,000 mm 0,0 UV-I 0 W/m 8,6 C 10,3 C 3,2 km/h (1 Bft) 95,74 %
04.10.2017 20:28 10,3 C 13,3 C 90 % 1020,2 hPa 0,0 l/m 2,0 km/h (1 Bft) S-SW 192 0 min 0,000 mm 0,0 UV-I 0 W/m 8,7 C 10,3 C 3,2 km/h (1 Bft) 98,00 %
04.10.2017 20:30 10,2 C 13,3 C 90 % 1020,2 hPa 0,0 l/m 2,1 km/h (1 Bft) S-SW 192 0 min 0,000 mm 0,0 UV-I 0 W/m 8,6 C 10,2 C 4,8 km/h (1 Bft) 94,00 %
04.10.2017 20:32 10,2 C 13,3 C 90 % 1020,2 hPa 0,0 l/m 3,5 km/h (1 Bft) S-SW 192 0 min 0,000 mm 0,0 UV-I 0 W/m 8,6 C 10,2 C 4,8 km/h (1 Bft) 95,74 %
04.10.2017 20:34 10,2 C 13,3 C 90 % 1020,2 hPa 0,0 l/m 3,4 km/h (1 Bft) S-SW 192 0 min 0,000 mm 0,0 UV-I 0 W/m 8,6 C 10,2 C 4,8 km/h (1 Bft) 100,00 %
04.10.2017 20:36 10,2 C 13,3 C 91 % 1020,3 hPa 0,0 l/m 3,5 km/h (1 Bft) S-SW 192 0 min 0,000 mm 0,0 UV-I 0 W/m 8,8 C 10,2 C 6,4 km/h (2 Bft) 94,34 %
04.10.2017 20:38 10,2 C 13,3 C 91 % 1020,3 hPa 0,0 l/m 3,6 km/h (1 Bft) S-SW 193 0 min 0,000 mm 0,0 UV-I 0 W/m 8,8 C 10,2 C 4,8 km/h (1 Bft) 97,56 %
04.10.2017 20:40 10,3 C 13,3 C 91 % 1020,3 hPa 0,0 l/m 4,3 km/h (1 Bft) S-SW 193 0 min 0,000 mm 0,0 UV-I 0 W/m 8,9 C 10,3 C 6,4 km/h (2 Bft) 95,74 %
04.10.2017 20:42 10,3 C 13,3 C 91 % 1020,3 hPa 0,0 l/m 4,1 km/h (1 Bft) S-SW 192 0 min 0,000 mm 0,0 UV-I 0 W/m 8,9 C 10,3 C 6,4 km/h (2 Bft) 94,00 %
04.10.2017 20:44 10,3 C 13,3 C 91 % 1020,3 hPa 0,0 l/m 5,3 km/h (1 Bft) S-SW 209 0 min 0,000 mm 0,0 UV-I 0 W/m 8,9 C 10,3 C 8,0 km/h (2 Bft) 93,62 %
04.10.2017 20:46 10,3 C 13,3 C 91 % 1020,4 hPa 0,0 l/m 4,9 km/h (1 Bft) S-SW 209 0 min 0,000 mm 0,0 UV-I 0 W/m 8,9 C 10,3 C 6,4 km/h (2 Bft) 94,00 %
04.10.2017 20:48 10,4 C 13,3 C 91 % 1020,3 hPa 0,0 l/m 5,4 km/h (1 Bft) SW 215 0 min 0,000 mm 0,0 UV-I 0 W/m 9,0 C 10,4 C 8,0 km/h (2 Bft) 96,00 %
04.10.2017 20:50 10,5 C 13,3 C 91 % 1020,3 hPa 0,0 l/m 5,5 km/h (1 Bft) SW 216 0 min 0,000 mm 0,0 UV-I 0 W/m 9,1 C 10,5 C 8,0 km/h (2 Bft) 94,44 %
04.10.2017 20:52 10,6 C 13,3 C 91 % 1020,4 hPa 0,0 l/m 5,2 km/h (1 Bft) SW 219 0 min 0,000 mm 0,0 UV-I 0 W/m 9,2 C 10,6 C 8,0 km/h (2 Bft) 96,15 %
04.10.2017 20:54 10,7 C 13,3 C 91 % 1020,4 hPa 0,0 l/m 6,3 km/h (2 Bft) SW 233 0 min 0,000 mm 0,0 UV-I 0 W/m 9,3 C 10,7 C 8,0 km/h (2 Bft) 92,00 %
04.10.2017 20:56 10,8 C 13,3 C 90 % 1020,4 hPa 0,0 l/m 5,8 km/h (2 Bft) S-SW 212 0 min 0,000 mm 0,0 UV-I 0 W/m 9,2 C 10,8 C 8,0 km/h (2 Bft) 97,44 %
04.10.2017 20:58 10,9 C 13,3 C 90 % 1020,4 hPa 0,0 l/m 5,6 km/h (1 Bft) SW 221 0 min 0,000 mm 0,0 UV-I 0 W/m 9,3 C 10,9 C 8,0 km/h (2 Bft) 94,00 %
04.10.2017 21:00 10,9 C 13,3 C 90 % 1020,4 hPa 0,0 l/m 5,6 km/h (1 Bft) SW 227 0 min 0,000 mm 0,0 UV-I 0 W/m 9,3 C 10,9 C 8,0 km/h (2 Bft) 94,34 %
04.10.2017 21:02 10,9 C 13,3 C 89 % 1020,5 hPa 0,0 l/m 5,1 km/h (1 Bft) SW 215 0 min 0,000 mm 0,0 UV-I 0 W/m 9,2 C 10,9 C 6,4 km/h (2 Bft) 95,56 %
04.10.2017 21:04 11,0 C 13,3 C 89 % 1020,4 hPa 0,0 l/m 5,4 km/h (1 Bft) S-SW 211 0 min 0,000 mm 0,0 UV-I 0 W/m 9,3 C 11,0 C 8,0 km/h (2 Bft) 94,74 %
04.10.2017 21:06 11,0 C 13,3 C 89 % 1020,5 hPa 0,0 l/m 6,8 km/h (2 Bft) SW 217 0 min 0,000 mm 0,0 UV-I 0 W/m 9,3 C 10,7 C 8,0 km/h (2 Bft) 94,29 %
04.10.2017 21:08 11,1 C 13,3 C 89 % 1020,5 hPa 0,0 l/m 6,4 km/h (2 Bft) SW 230 0 min 0,000 mm 0,0 UV-I 0 W/m 9,4 C 11,1 C 8,0 km/h (2 Bft) 96,92 %
04.10.2017 21:10 11,1 C 13,3 C 89 % 1020,5 hPa 0,0 l/m 6,0 km/h (2 Bft) W-SW 242 0 min 0,000 mm 0,0 UV-I 0 W/m 9,4 C 11,1 C 9,7 km/h (2 Bft) 95,74 %
04.10.2017 21:12 11,2 C 13,3 C 88 % 1020,5 hPa 0,0 l/m 5,7 km/h (1 Bft) SW 219 0 min 0,000 mm 0,0 UV-I 0 W/m 9,3 C 11,2 C 8,0 km/h (2 Bft) 94,34 %
04.10.2017 21:14 11,2 C 13,3 C 88 % 1020,5 hPa 0,0 l/m 8,0 km/h (2 Bft) W-SW 240 0 min 0,000 mm 0,0 UV-I 0 W/m 9,3 C 10,1 C 12,9 km/h (3 Bft) 97,73 %
04.10.2017 21:16 11,2 C 13,3 C 88 % 1020,4 hPa 0,0 l/m 7,3 km/h (2 Bft) SW 228 0 min 0,000 mm 0,0 UV-I 0 W/m 9,3 C 10,6 C 11,3 km/h (2 Bft) 97,56 %
04.10.2017 21:18 11,3 C 13,3 C 88 % 1020,4 hPa 0,0 l/m 8,4 km/h (2 Bft) S-SW 201 0 min 0,000 mm 0,0 UV-I 0 W/m 9,4 C 10,0 C 12,9 km/h (3 Bft) 98,00 %
04.10.2017 21:20 11,3 C 13,3 C 88 % 1020,3 hPa 0,0 l/m 7,8 km/h (2 Bft) W-SW 242 0 min 0,000 mm 0,0 UV-I 0 W/m 9,4 C 10,3 C 11,3 km/h (2 Bft) 98,00 %
04.10.2017 21:22 11,3 C 13,3 C 87 % 1020,3 hPa 0,0 l/m 8,0 km/h (2 Bft) SW 223 0 min 0,000 mm 0,0 UV-I 0 W/m 9,2 C 10,2 C 9,7 km/h (2 Bft) 100,00 %
04.10.2017 21:24 11,3 C 13,3 C 87 % 1020,3 hPa 0,0 l/m 7,1 km/h (2 Bft) SW 230 0 min 0,000 mm 0,0 UV-I 0 W/m 9,2 C 10,8 C 11,3 km/h (2 Bft) 100,00 %
04.10.2017 21:26 11,3 C 13,3 C 87 % 1020,4 hPa 0,0 l/m 7,9 km/h (2 Bft) W-SW 240 0 min 0,000 mm 0,0 UV-I 0 W/m 9,2 C 10,3 C 9,7 km/h (2 Bft) 100,00 %
04.10.2017 21:28 11,3 C 13,3 C 87 % 1020,4 hPa 0,0 l/m 8,5 km/h (2 Bft) S-SW 204 0 min 0,000 mm 0,0 UV-I 0 W/m 9,2 C 9,9 C 12,9 km/h (3 Bft) 97,22 %
04.10.2017 21:30 11,3 C 13,3 C 87 % 1020,4 hPa 0,0 l/m 8,1 km/h (2 Bft) W-SW 245 0 min 0,000 mm 0,0 UV-I 0 W/m 9,2 C 10,2 C 12,9 km/h (3 Bft) 100,00 %
04.10.2017 21:32 11,3 C 13,3 C 87 % 1020,5 hPa 0,0 l/m 8,5 km/h (2 Bft) SW 228 0 min 0,000 mm 0,0 UV-I 0 W/m 9,2 C 9,9 C 11,3 km/h (2 Bft) 97,62 %
04.10.2017 21:34 11,3 C 13,3 C 87 % 1020,5 hPa 0,0 l/m 8,2 km/h (2 Bft) SW 234 0 min 0,000 mm 0,0 UV-I 0 W/m 9,2 C 10,1 C 12,9 km/h (3 Bft) 100,00 %
04.10.2017 21:36 11,3 C 13,3 C 87 % 1020,4 hPa 0,0 l/m 6,7 km/h (2 Bft) SW 217 0 min 0,000 mm 0,0 UV-I 0 W/m 9,2 C 11,1 C 11,3 km/h (2 Bft) 97,62 %
04.10.2017 21:38 11,3 C 13,3 C 88 % 1020,3 hPa 0,0 l/m 8,0 km/h (2 Bft) S-SW 194 0 min 0,000 mm 0,0 UV-I 0 W/m 9,4 C 10,2 C 12,9 km/h (3 Bft) 100,00 %
04.10.2017 21:40 11,3 C 13,3 C 88 % 1020,3 hPa 0,0 l/m 8,6 km/h (2 Bft) SW 225 0 min 0,000 mm 0,0 UV-I 0 W/m 9,4 C 9,8 C 11,3 km/h (2 Bft) 100,00 %
04.10.2017 21:42 11,4 C 13,3 C 87 % 1020,4 hPa 0,0 l/m 7,2 km/h (2 Bft) W-SW 238 0 min 0,000 mm 0,0 UV-I 0 W/m 9,3 C 10,9 C 11,3 km/h (2 Bft) 100,00 %
04.10.2017 21:44 11,4 C 13,3 C 87 % 1020,4 hPa 0,0 l/m 6,2 km/h (2 Bft) SW 232 0 min 0,000 mm 0,0 UV-I 0 W/m 9,3 C 11,4 C 8,0 km/h (2 Bft) 100,00 %
04.10.2017 21:46 11,4 C 13,3 C 87 % 1020,5 hPa 0,0 l/m 5,9 km/h (2 Bft) W-SW 247 0 min 0,000 mm 0,0 UV-I 0 W/m 9,3 C 11,4 C 8,0 km/h (2 Bft) 100,00 %
04.10.2017 21:48 11,4 C 13,3 C 87 % 1020,5 hPa 0,0 l/m 5,9 km/h (2 Bft) SW 225 0 min 0,000 mm 0,0 UV-I 0 W/m 9,3 C 11,4 C 8,0 km/h (2 Bft) 97,56 %
04.10.2017 21:50 11,4 C 13,3 C 87 % 1020,4 hPa 0,0 l/m 5,7 km/h (1 Bft) S-SW 211 0 min 0,000 mm 0,0 UV-I 0 W/m 9,3 C 11,4 C 8,0 km/h (2 Bft) 100,00 %
04.10.2017 21:52 11,4 C 13,3 C 87 % 1020,4 hPa 0,0 l/m 5,9 km/h (2 Bft) SW 227 0 min 0,000 mm 0,0 UV-I 0 W/m 9,3 C 11,4 C 9,7 km/h (2 Bft) 100,00 %
04.10.2017 21:54 11,4 C 13,3 C 87 % 1020,4 hPa 0,0 l/m 5,6 km/h (1 Bft) SW 215 0 min 0,000 mm 0,0 UV-I 0 W/m 9,3 C 11,4 C 9,7 km/h (2 Bft) 97,30 %
04.10.2017 21:56 11,4 C 13,3 C 87 % 1020,4 hPa 0,0 l/m 7,3 km/h (2 Bft) S-SW 204 0 min 0,000 mm 0,0 UV-I 0 W/m 9,3 C 10,8 C 9,7 km/h (2 Bft) 100,00 %
04.10.2017 21:58 11,4 C 13,3 C 87 % 1020,3 hPa 0,0 l/m 7,4 km/h (2 Bft) SW 217 0 min 0,000 mm 0,0 UV-I 0 W/m 9,3 C 10,7 C 9,7 km/h (2 Bft) 100,00 %
04.10.2017 22:00 11,4 C 13,3 C 87 % 1020,3 hPa 0,0 l/m 7,2 km/h (2 Bft) SW 236 0 min 0,000 mm 0,0 UV-I 0 W/m 9,3 C 10,9 C 9,7 km/h (2 Bft) 98,00 %
04.10.2017 22:02 11,4 C 13,3 C 87 % 1020,4 hPa 0,0 l/m 5,9 km/h (2 Bft) S-SW 205 0 min 0,025 mm 0,0 UV-I 0 W/m 9,3 C 11,4 C 8,0 km/h (2 Bft) 100,00 %
04.10.2017 22:04 11,4 C 13,3 C 87 % 1020,4 hPa 0,0 l/m 6,5 km/h (2 Bft) S-SW 213 0 min 0,000 mm 0,0 UV-I 0 W/m 9,3 C 11,4 C 9,7 km/h (2 Bft) 100,00 %
04.10.2017 22:06 11,4 C 13,3 C 87 % 1020,4 hPa 0,0 l/m 6,4 km/h (2 Bft) S-SW 206 0 min 0,000 mm 0,0 UV-I 0 W/m 9,3 C 11,4 C 9,7 km/h (2 Bft) 97,87 %
04.10.2017 22:08 11,4 C 13,3 C 87 % 1020,3 hPa 0,0 l/m 8,8 km/h (2 Bft) S-SW 205 0 min 0,000 mm 0,0 UV-I 0 W/m 9,3 C 9,8 C 11,3 km/h (2 Bft) 95,74 %
04.10.2017 22:10 11,4 C 13,3 C 87 % 1020,3 hPa 0,0 l/m 9,1 km/h (2 Bft) S-SW 211 0 min 0,000 mm 0,0 UV-I 0 W/m 9,3 C 9,6 C 12,9 km/h (3 Bft) 100,00 %
04.10.2017 22:12 11,4 C 13,3 C 87 % 1020,3 hPa 0,0 l/m 7,4 km/h (2 Bft) SW 223 0 min 0,000 mm 0,0 UV-I 0 W/m 9,3 C 10,7 C 11,3 km/h (2 Bft) 100,00 %
04.10.2017 22:14 11,4 C 13,3 C 87 % 1020,4 hPa 0,0 l/m 7,0 km/h (2 Bft) SW 234 0 min 0,000 mm 0,0 UV-I 0 W/m 9,3 C 11,0 C 11,3 km/h (2 Bft) 98,11 %
04.10.2017 22:16 11,4 C 13,3 C 87 % 1020,4 hPa 0,0 l/m 8,2 km/h (2 Bft) SW 221 0 min 0,000 mm 0,0 UV-I 0 W/m 9,3 C 10,2 C 12,9 km/h (3 Bft) 100,00 %
04.10.2017 22:18 11,4 C 13,3 C 87 % 1020,4 hPa 0,0 l/m 8,2 km/h (2 Bft) SW 230 0 min 0,000 mm 0,0 UV-I 0 W/m 9,3 C 10,2 C 14,5 km/h (3 Bft) 98,11 %
04.10.2017 22:20 11,4 C 13,3 C 87 % 1020,4 hPa 0,0 l/m 9,1 km/h (2 Bft) SW 224 0 min 0,000 mm 0,0 UV-I 0 W/m 9,3 C 9,6 C 14,5 km/h (3 Bft) 100,00 %
04.10.2017 22:22 11,5 C 13,3 C 87 % 1020,4 hPa 0,0 l/m 8,4 km/h (2 Bft) SW 224 0 min 0,000 mm 0,0 UV-I 0 W/m 9,4 C 10,2 C 12,9 km/h (3 Bft) 100,00 %
04.10.2017 22:24 11,5 C 13,3 C 87 % 1020,4 hPa 0,0 l/m 8,4 km/h (2 Bft) W-SW 241 0 min 0,000 mm 0,0 UV-I 0 W/m 9,4 C 10,2 C 12,9 km/h (3 Bft) 100,00 %
04.10.2017 22:26 11,5 C 13,3 C 87 % 1020,3 hPa 0,0 l/m 7,8 km/h (2 Bft) SW 226 0 min 0,000 mm 0,0 UV-I 0 W/m 9,4 C 10,6 C 11,3 km/h (2 Bft) 97,56 %
04.10.2017 22:28 11,5 C 13,3 C 87 % 1020,3 hPa 0,0 l/m 7,2 km/h (2 Bft) W-SW 244 0 min 0,000 mm 0,0 UV-I 0 W/m 9,4 C 11,0 C 11,3 km/h (2 Bft) 98,31 %
04.10.2017 22:30 11,4 C 13,3 C 87 % 1020,3 hPa 0,0 l/m 7,7 km/h (2 Bft) SW 230 0 min 0,000 mm 0,0 UV-I 0 W/m 9,3 C 10,5 C 12,9 km/h (3 Bft) 97,87 %
04.10.2017 22:32 11,4 C 13,3 C 87 % 1020,2 hPa 0,0 l/m 7,2 km/h (2 Bft) SW 217 0 min 0,000 mm 0,0 UV-I 0 W/m 9,3 C 10,9 C 9,7 km/h (2 Bft) 100,00 %
04.10.2017 22:34 11,4 C 13,3 C 87 % 1020,3 hPa 0,0 l/m 7,6 km/h (2 Bft) SW 229 0 min 0,000 mm 0,0 UV-I 0 W/m 9,3 C 10,6 C 12,9 km/h (3 Bft) 100,00 %
04.10.2017 22:36 11,4 C 13,3 C 87 % 1020,2 hPa 0,0 l/m 7,1 km/h (2 Bft) SW 236 0 min 0,000 mm 0,0 UV-I 0 W/m 9,3 C 10,9 C 11,3 km/h (2 Bft) 95,74 %
04.10.2017 22:38 11,3 C 13,3 C 87 % 1020,3 hPa 0,0 l/m 7,9 km/h (2 Bft) SW 220 0 min 0,000 mm 0,0 UV-I 0 W/m 9,2 C 10,3 C 11,3 km/h (2 Bft) 100,00 %
04.10.2017 22:40 11,3 C 13,3 C 87 % 1020,3 hPa 0,0 l/m 6,8 km/h (2 Bft) SW 225 0 min 0,000 mm 0,0 UV-I 0 W/m 9,2 C 11,0 C 11,3 km/h (2 Bft) 100,00 %
04.10.2017 22:42 11,3 C 13,3 C 87 % 1020,4 hPa 0,0 l/m 6,2 km/h (2 Bft) SW 236 0 min 0,000 mm 0,0 UV-I 0 W/m 9,2 C 11,3 C 9,7 km/h (2 Bft) 100,00 %
04.10.2017 22:44 11,3 C 13,3 C 87 % 1020,3 hPa 0,0 l/m 7,9 km/h (2 Bft) W-SW 240 0 min 0,000 mm 0,0 UV-I 0 W/m 9,2 C 10,3 C 9,7 km/h (2 Bft) 100,00 %
04.10.2017 22:46 11,3 C 13,3 C 87 % 1020,4 hPa 0,0 l/m 7,4 km/h (2 Bft) W-SW 248 0 min 0,000 mm 0,0 UV-I 0 W/m 9,2 C 10,6 C 11,3 km/h (2 Bft) 100,00 %
04.10.2017 22:48 11,2 C 13,3 C 87 % 1020,4 hPa 0,0 l/m 8,2 km/h (2 Bft) SW 232 0 min 0,000 mm 0,0 UV-I 0 W/m 9,1 C 10,0 C 11,3 km/h (2 Bft) 97,78 %
04.10.2017 22:50 11,2 C 13,3 C 87 % 1020,4 hPa 0,0 l/m 5,7 km/h (1 Bft) SW 218 0 min 0,000 mm 0,0 UV-I 0 W/m 9,1 C 11,2 C 8,0 km/h (2 Bft) 100,00 %
04.10.2017 22:52 11,2 C 13,3 C 87 % 1020,4 hPa 0,0 l/m 5,9 km/h (2 Bft) SW 236 0 min 0,000 mm 0,0 UV-I 0 W/m 9,1 C 11,2 C 8,0 km/h (2 Bft) 100,00 %
04.10.2017 22:54 11,2 C 13,3 C 88 % 1020,3 hPa 0,0 l/m 6,7 km/h (2 Bft) SW 227 0 min 0,000 mm 0,0 UV-I 0 W/m 9,3 C 11,0 C 11,3 km/h (2 Bft) 100,00 %
04.10.2017 22:56 11,1 C 13,3 C 88 % 1020,3 hPa 0,0 l/m 7,1 km/h (2 Bft) SW 228 0 min 0,000 mm 0,0 UV-I 0 W/m 9,2 C 10,6 C 9,7 km/h (2 Bft) 97,37 %
04.10.2017 22:58 11,1 C 13,3 C 88 % 1020,3 hPa 0,0 l/m 6,9 km/h (2 Bft) W-SW 238 0 min 0,000 mm 0,0 UV-I 0 W/m 9,2 C 10,8 C 11,3 km/h (2 Bft) 96,30 %
04.10.2017 23:00 11,1 C 13,3 C 88 % 1020,2 hPa 0,0 l/m 6,7 km/h (2 Bft) SW 225 0 min 0,000 mm 0,0 UV-I 0 W/m 9,2 C 10,9 C 8,0 km/h (2 Bft) 97,73 %
04.10.2017 23:02 11,1 C 13,3 C 88 % 1020,1 hPa 0,0 l/m 5,8 km/h (2 Bft) SW 226 0 min 0,025 mm 0,0 UV-I 0 W/m 9,2 C 11,1 C 8,0 km/h (2 Bft) 96,23 %
04.10.2017 23:04 11,0 C 13,3 C 88 % 1020,1 hPa 0,0 l/m 5,6 km/h (1 Bft) SW 235 0 min 0,000 mm 0,0 UV-I 0 W/m 9,1 C 11,0 C 8,0 km/h (2 Bft) 98,00 %
04.10.2017 23:06 11,0 C 13,3 C 88 % 1020,2 hPa 0,0 l/m 7,2 km/h (2 Bft) S-SW 202 0 min 0,000 mm 0,0 UV-I 0 W/m 9,1 C 10,4 C 9,7 km/h (2 Bft) 97,14 %
04.10.2017 23:08 11,0 C 13,3 C 88 % 1020,2 hPa 0,0 l/m 6,6 km/h (2 Bft) W-SW 237 0 min 0,000 mm 0,0 UV-I 0 W/m 9,1 C 10,9 C 12,9 km/h (3 Bft) 96,23 %
04.10.2017 23:10 10,9 C 13,3 C 88 % 1020,1 hPa 0,0 l/m 5,7 km/h (1 Bft) SW 222 0 min 0,000 mm 0,0 UV-I 0 W/m 9,0 C 10,9 C 8,0 km/h (2 Bft) 96,00 %
04.10.2017 23:12 10,9 C 13,3 C 88 % 1020,2 hPa 0,0 l/m 6,6 km/h (2 Bft) SW 221 0 min 0,000 mm 0,0 UV-I 0 W/m 9,0 C 10,8 C 8,0 km/h (2 Bft) 97,56 %
04.10.2017 23:14 10,9 C 13,3 C 88 % 1020,1 hPa 0,0 l/m 5,0 km/h (1 Bft) SW 218 0 min 0,000 mm 0,0 UV-I 0 W/m 9,0 C 10,9 C 6,4 km/h (2 Bft) 95,74 %
04.10.2017 23:16 10,9 C 13,3 C 88 % 1020,2 hPa 0,0 l/m 6,5 km/h (2 Bft) S-SW 209 0 min 0,000 mm 0,0 UV-I 0 W/m 9,0 C 10,9 C 9,7 km/h (2 Bft) 95,45 %
04.10.2017 23:18 10,8 C 13,3 C 88 % 1020,1 hPa 0,0 l/m 6,5 km/h (2 Bft) SW 221 0 min 0,000 mm 0,0 UV-I 0 W/m 8,9 C 10,8 C 9,7 km/h (2 Bft) 95,45 %
04.10.2017 23:20 10,8 C 13,3 C 88 % 1020,2 hPa 0,0 l/m 5,1 km/h (1 Bft) W-SW 250 0 min 0,000 mm 0,0 UV-I 0 W/m 8,9 C 10,8 C 6,4 km/h (2 Bft) 96,00 %
04.10.2017 23:22 10,8 C 13,3 C 88 % 1020,1 hPa 0,0 l/m 5,7 km/h (1 Bft) SW 225 0 min 0,000 mm 0,0 UV-I 0 W/m 8,9 C 10,8 C 8,0 km/h (2 Bft) 97,87 %
04.10.2017 23:24 10,8 C 13,3 C 89 % 1020,1 hPa 0,0 l/m 6,9 km/h (2 Bft) SW 229 0 min 0,000 mm 0,0 UV-I 0 W/m 9,1 C 10,5 C 9,7 km/h (2 Bft) 98,11 %
04.10.2017 23:26 10,7 C 13,3 C 89 % 1020,1 hPa 0,0 l/m 6,1 km/h (2 Bft) SW 223 0 min 0,000 mm 0,0 UV-I 0 W/m 9,0 C 10,7 C 9,7 km/h (2 Bft) 98,00 %
04.10.2017 23:28 10,7 C 13,3 C 89 % 1020,1 hPa 0,0 l/m 6,1 km/h (2 Bft) SW 219 0 min 0,000 mm 0,0 UV-I 0 W/m 9,0 C 10,7 C 9,7 km/h (2 Bft) 97,44 %
04.10.2017 23:30 10,7 C 13,3 C 89 % 1020,1 hPa 0,0 l/m 6,9 km/h (2 Bft) SW 214 0 min 0,000 mm 0,0 UV-I 0 W/m 9,0 C 10,4 C 9,7 km/h (2 Bft) 98,08 %
04.10.2017 23:32 10,7 C 13,3 C 89 % 1020,0 hPa 0,0 l/m 5,9 km/h (2 Bft) SW 221 0 min 0,000 mm 0,0 UV-I 0 W/m 9,0 C 10,7 C 8,0 km/h (2 Bft) 100,00 %
04.10.2017 23:34 10,7 C 13,3 C 89 % 1020,0 hPa 0,0 l/m 8,7 km/h (2 Bft) SW 223 0 min 0,000 mm 0,0 UV-I 0 W/m 9,0 C 9,1 C 12,9 km/h (3 Bft) 98,00 %
04.10.2017 23:36 10,7 C 13,3 C 89 % 1020,0 hPa 0,0 l/m 9,8 km/h (2 Bft) W-SW 240 0 min 0,000 mm 0,0 UV-I 0 W/m 9,0 C 8,5 C 14,5 km/h (3 Bft) 100,00 %
04.10.2017 23:38 10,7 C 13,3 C 89 % 1020,0 hPa 0,0 l/m 10,0 km/h (2 Bft) W-SW 238 0 min 0,000 mm 0,0 UV-I 0 W/m 9,0 C 8,4 C 14,5 km/h (3 Bft) 98,11 %
04.10.2017 23:40 10,7 C 13,3 C 89 % 1020,0 hPa 0,0 l/m 10,2 km/h (2 Bft) W-SW 241 0 min 0,000 mm 0,0 UV-I 0 W/m 9,0 C 8,3 C 14,5 km/h (3 Bft) 100,00 %
04.10.2017 23:42 10,7 C 13,3 C 89 % 1020,0 hPa 0,0 l/m 12,0 km/h (2 Bft) SW 234 0 min 0,000 mm 0,0 UV-I 0 W/m 9,0 C 7,3 C 16,1 km/h (3 Bft) 100,00 %
04.10.2017 23:44 10,6 C 13,3 C 89 % 1020,0 hPa 0,0 l/m 9,6 km/h (2 Bft) W-SW 255 0 min 0,000 mm 0,0 UV-I 0 W/m 8,9 C 8,5 C 16,1 km/h (3 Bft) 100,00 %
04.10.2017 23:46 10,6 C 13,3 C 89 % 1020,0 hPa 0,0 l/m 12,4 km/h (3 Bft) SW 234 0 min 0,000 mm 0,0 UV-I 0 W/m 8,9 C 7,0 C 17,7 km/h (3 Bft) 100,00 %
04.10.2017 23:48 10,7 C 13,3 C 89 % 1020,0 hPa 0,0 l/m 10,8 km/h (2 Bft) W-SW 246 0 min 0,000 mm 0,0 UV-I 0 W/m 9,0 C 7,9 C 14,5 km/h (3 Bft) 100,00 %
04.10.2017 23:50 10,7 C 13,3 C 89 % 1020,0 hPa 0,0 l/m 11,6 km/h (2 Bft) W-SW 248 0 min 0,000 mm 0,0 UV-I 0 W/m 9,0 C 7,5 C 14,5 km/h (3 Bft) 97,87 %
04.10.2017 23:52 10,7 C 13,3 C 89 % 1020,0 hPa 0,0 l/m 10,5 km/h (2 Bft) SW 229 0 min 0,000 mm 0,0 UV-I 0 W/m 9,0 C 8,1 C 16,1 km/h (3 Bft) 97,73 %
04.10.2017 23:54 10,7 C 13,3 C 89 % 1020,0 hPa 0,0 l/m 9,7 km/h (2 Bft) SW 235 0 min 0,000 mm 0,0 UV-I 0 W/m 9,0 C 8,5 C 16,1 km/h (3 Bft) 98,00 %
04.10.2017 23:56 10,7 C 13,3 C 89 % 1020,2 hPa 0,0 l/m 8,5 km/h (2 Bft) W 265 0 min 0,000 mm 0,0 UV-I 0 W/m 9,0 C 9,3 C 12,9 km/h (3 Bft) 94,74 %
04.10.2017 23:58 10,7 C 13,3 C 89 % 1020,2 hPa 0,0 l/m 7,9 km/h (2 Bft) W 261 0 min 0,000 mm 0,0 UV-I 0 W/m 9,0 C 9,7 C 12,9 km/h (3 Bft) 98,21 %
_ Min-Zeit 07:02 03:58 15:02 18:26 - 05:38 - - - - - - 07:00 01:34 05:38 09:18
Minimum _ 5,9 C 12,8 C 63 % 1020,0 hPa - 0,0 km/h (0 Bft) - - - - - - 5,4 C 4,9 C 0,0 km/h (0 Bft) 89,47 %
_ Max-Zeit 14:58 00:00 06:50 08:38 00:00 01:34 - - 14:29 14:00 13:46 13:52 13:58 14:58 01:56 00:00
Maximum _ 16,7 C 13,3 C 97 % 1025,1 hPa 0,0 l/m 13,2 km/h
SW (3 Bft)
- - 3 min 0,305 mm 3,2 UV-I 742 W/m 11,3 C 16,7 C 20,9 km/h
SW (4 Bft)
100,00 %
Durchschnitt _ 11,3 C 13,1 C 85 % 1022,9 hPa #0,0 l/m 4,1 km/h (1 Bft) SW - #8:42 h #1,930 mm 1,8 UV-I 290 W/m 8,8 C 11,0 C 7,0 km/h (2 Bft) 98,15 %